Provisional Data: West Branch Pine Creek near Galeton, PA


Please select a monitoring station.
Please select start date.
Please select start date.

Toggle Unit: C/F Toggle Unit: C/F
Sample Time Temperature (C) Temperature (F) Specific Conductivity (mS/cm) pH   Turbidity (NTU+) DO (mg/L)
12/4/2020 12:00:00 AM 3.86 38.948 0.048 7.13 2.83 12.81
12/4/2020 12:15:00 AM 3.85 38.93 0.048 7.13 2.76 12.81
12/4/2020 12:30:00 AM 3.84 38.912 0.048 7.14 2.73 12.81
12/4/2020 12:45:00 AM 3.84 38.912 0.048 7.15 2.79 12.82
12/4/2020 1:00:00 AM 3.84 38.912 0.048 7.14 2.81 12.81
12/4/2020 1:15:00 AM 3.84 38.912 0.048 7.14 2.73 12.82
12/4/2020 1:30:00 AM 3.85 38.93 0.048 7.17 2.82 12.82
12/4/2020 1:45:00 AM 3.85 38.93 0.048 7.18 2.76 12.82
12/4/2020 2:00:00 AM 3.85 38.93 0.048 7.21 2.77 12.81
12/4/2020 2:15:00 AM 3.85 38.93 0.048 7.18 2.66 12.81
12/4/2020 2:30:00 AM 3.85 38.93 0.048 7.15 2.73 12.81
12/4/2020 2:45:00 AM 3.84 38.912 0.048 7.2 2.73 12.81
12/4/2020 3:00:00 AM 3.82 38.876 0.048 7.18 2.66 12.81
12/4/2020 3:15:00 AM 3.8 38.84 0.048 7.18 2.6 12.82
12/4/2020 3:30:00 AM 3.77 38.786 0.048 7.14 2.65 12.82
12/4/2020 3:45:00 AM 3.76 38.768 0.048 7.17 2.65 12.83
12/4/2020 4:00:00 AM 3.75 38.75 0.048 7.17 2.67 12.83
12/4/2020 4:15:00 AM 3.73 38.714 0.048 7.15 2.66 12.84
12/4/2020 4:30:00 AM 3.72 38.696 0.048 7.16 2.66 12.84
12/4/2020 4:45:00 AM 3.7 38.66 0.048 7.19 2.54 12.85
12/4/2020 5:00:00 AM 3.7 38.66 0.048 7.2 2.64 12.85
12/4/2020 5:15:00 AM 3.68 38.624 0.048 7.19 2.67 12.86
12/4/2020 5:30:00 AM 3.68 38.624 0.048 7.14 2.63 12.86
12/4/2020 5:45:00 AM 3.69 38.642 0.048 7.14 2.58 12.86
12/4/2020 6:00:00 AM 3.69 38.642 0.048 7.16 2.77 12.86
12/4/2020 6:15:00 AM 3.7 38.66 0.048 7.17 2.66 12.86
12/4/2020 6:30:00 AM 3.71 38.678 0.048 7.15 2.71 12.85
12/4/2020 6:45:00 AM 3.73 38.714 0.048 7.19 2.64 12.85
12/4/2020 7:00:00 AM 3.75 38.75 0.048 7.19 2.65 12.84
12/4/2020 7:15:00 AM 3.76 38.768 0.048 7.13 2.6 12.84
12/4/2020 7:30:00 AM 3.78 38.804 0.048 7.15 2.66 12.84
12/4/2020 7:45:00 AM 3.79 38.822 0.048 7.21 2.6 12.85
12/4/2020 8:00:00 AM 3.81 38.858 0.048 7.13 2.68 12.87
12/4/2020 8:15:00 AM 3.83 38.894 0.048 7.22 3.14 12.9
12/4/2020 8:30:00 AM 3.84 38.912 0.048 7.2 3.25 12.93
12/4/2020 8:45:00 AM 3.85 38.93 0.048 7.24 2.92 12.96
12/4/2020 9:00:00 AM 3.85 38.93 0.048 7.25 3.12 12.99
12/4/2020 9:15:00 AM 3.87 38.966 0.048 7.25 2.77 13.01
12/4/2020 9:30:00 AM 3.89 39.002 0.048 7.27 2.67 13.03
12/4/2020 9:45:00 AM 3.92 39.056 0.047 7.27 2.6 13.05
12/4/2020 10:00:00 AM 3.95 39.11 0.047 7.28 2.47 13.05
12/4/2020 10:15:00 AM 3.99 39.182 0.047 7.26 2.55 13.05
12/4/2020 10:30:00 AM 4.06 39.308 0.047 7.24 2.62 13.06
12/4/2020 10:45:00 AM 4.16 39.488 0.047 7.3 2.52 13.06
12/4/2020 11:00:00 AM 4.23 39.614 0.047 7.25 2.52 13.06
12/4/2020 11:15:00 AM 4.32 39.776 0.047 7.27 2.46 13.03
12/4/2020 11:30:00 AM 4.38 39.884 0.047 7.28 2.53 12.99
12/4/2020 11:45:00 AM 4.46 40.028 0.047 7.3 2.53 12.98
12/4/2020 12:00:00 PM 4.6 40.28 0.047 7.29 2.5 12.98
12/4/2020 12:15:00 PM 4.71 40.478 0.047 7.31 2.45 12.96
12/4/2020 12:30:00 PM 4.82 40.676 0.047 7.36 2.45 12.93
12/4/2020 12:45:00 PM 4.92 40.856 0.047 7.37 2.5 12.9
12/4/2020 1:00:00 PM 5.01 41.018 0.047 7.33 2.38 12.87
12/4/2020 1:15:00 PM 5.09 41.162 0.047 7.35 2.46 12.84
12/4/2020 1:30:00 PM 5.14 41.252 0.047 7.38 2.43 12.82
12/4/2020 1:45:00 PM 5.19 41.342 0.047 7.33 2.39 12.79
12/4/2020 2:00:00 PM 5.23 41.414 0.047 7.39 2.67 12.76
12/4/2020 2:15:00 PM 5.25 41.45 0.047 7.33 2.74 12.73
12/4/2020 2:30:00 PM 5.27 41.486 0.047 7.38 3.36 12.7
12/4/2020 2:45:00 PM 5.28 41.504 0.047 7.36 20.73 12.68
12/4/2020 3:00:00 PM 5.29 41.522 0.047 7.37 43.15 12.68
12/4/2020 3:15:00 PM 5.29 41.522 0.047 7.33 16.99 12.66
12/4/2020 3:30:00 PM 5.3 41.54 0.047 7.35 58.48 12.63
12/4/2020 3:45:00 PM 5.3 41.54 0.047 7.34 80.74 12.6
12/4/2020 4:00:00 PM 5.3 41.54 0.047 7.29 66.89 12.57
12/4/2020 4:15:00 PM 5.3 41.54 0.047 7.28 27.39 12.52
12/4/2020 4:30:00 PM 5.29 41.522 0.047 7.3 19.19 12.48
12/4/2020 4:45:00 PM 5.29 41.522 0.047 7.25 12.89 12.44
12/4/2020 5:00:00 PM 5.29 41.522 0.047 7.29 8.15 12.4
12/4/2020 5:15:00 PM 5.28 41.504 0.047 7.21 14.09 12.37
12/4/2020 5:30:00 PM 5.27 41.486 0.047 7.24 8.05 12.34
12/4/2020 5:45:00 PM 5.27 41.486 0.047 7.21 56.92 12.32
12/4/2020 6:00:00 PM 5.25 41.45 0.047 7.22 47.58 12.31
12/4/2020 6:15:00 PM 5.23 41.414 0.047 7.18 62.31 12.3
12/4/2020 6:30:00 PM 5.21 41.378 0.047 7.2 13.79 12.3
12/4/2020 6:45:00 PM 5.17 41.306 0.047 7.18 42.4 12.3
12/4/2020 7:00:00 PM 5.14 41.252 0.047 7.2 22.99 12.31
12/4/2020 7:15:00 PM 5.11 41.198 0.047 7.22 11.23 12.31
12/4/2020 7:30:00 PM 5.07 41.126 0.047 7.18 9.86 12.32
12/4/2020 7:45:00 PM 5.03 41.054 0.047 7.18 14.71 12.33
12/4/2020 8:00:00 PM 5 41 0.047 7.19 19.3 12.35
12/4/2020 8:15:00 PM 4.96 40.928 0.047 7.2 9.42 12.36
12/4/2020 8:30:00 PM 4.93 40.874 0.047 7.2 56.4 12.37
12/4/2020 8:45:00 PM 4.91 40.838 0.047 7.15 50.27 12.38
12/4/2020 9:00:00 PM 4.9 40.82 0.047 7.15 108.16 12.39
12/4/2020 9:15:00 PM 4.89 40.802 0.047 7.2 108.48 12.4
12/4/2020 9:30:00 PM 4.88 40.784 0.048 7.17 97.18 12.4
12/4/2020 9:45:00 PM 4.88 40.784 0.047 7.19 247.41 12.4
12/4/2020 10:00:00 PM 4.87 40.766 0.047 7.2 216.73 12.41
12/4/2020 10:15:00 PM 4.86 40.748 0.047 7.2 36.71 12.41
12/4/2020 10:30:00 PM 4.86 40.748 0.047 7.2 93.32 12.42
12/4/2020 10:45:00 PM 4.84 40.712 0.047 7.2 81.62 12.42
12/4/2020 11:00:00 PM 4.83 40.694 0.047 7.11 61.06 12.42
12/4/2020 11:15:00 PM 4.81 40.658 0.047 7.16 8.37 12.43
12/4/2020 11:30:00 PM 4.8 40.64 0.047 7.2 39.22 12.43
12/4/2020 11:45:00 PM 4.78 40.604 0.047 7.18 72.18 12.43
12/5/2020 12:00:00 AM 4.77 40.586 0.047 7.19 2.03 12.44
12/5/2020 12:15:00 AM 4.75 40.55 0.047 7.16 2.09 12.44
12/5/2020 12:30:00 AM 4.73 40.514 0.047 7.14 2.04 12.45
12/5/2020 12:45:00 AM 4.72 40.496 0.047 7.15 2.17 12.45
12/5/2020 1:00:00 AM 4.71 40.478 0.047 7.21 1.98 12.46
12/5/2020 1:15:00 AM 4.7 40.46 0.047 7.14 1.99 12.45
12/5/2020 1:30:00 AM 4.69 40.442 0.047 7.16 1.94 12.46
12/5/2020 1:45:00 AM 4.69 40.442 0.047 7.2 1.96 12.46
12/5/2020 2:00:00 AM 4.68 40.424 0.047 7.19 1.97 12.46
12/5/2020 2:15:00 AM 4.68 40.424 0.047 7.2 2 12.46
12/5/2020 2:30:00 AM 4.67 40.406 0.047 7.18 1.96 12.46
12/5/2020 2:45:00 AM 4.67 40.406 0.047 7.16 1.96 12.46
12/5/2020 3:00:00 AM 4.67 40.406 0.047 7.16 2 12.45
12/5/2020 3:15:00 AM 4.67 40.406 0.047 7.19 1.89 12.45
12/5/2020 3:30:00 AM 4.67 40.406 0.048 7.21 1.93 12.46
12/5/2020 3:45:00 AM 4.67 40.406 0.047 7.13 2.03 12.45
12/5/2020 4:00:00 AM 4.67 40.406 0.048 7.21 1.94 12.45
12/5/2020 4:15:00 AM 4.67 40.406 0.048 7.14 2.01 12.45
12/5/2020 4:30:00 AM 4.68 40.424 0.047 7.16 2.01 12.45
12/5/2020 4:45:00 AM 4.68 40.424 0.047 7.2 2.03 12.45
12/5/2020 5:00:00 AM 4.69 40.442 0.047 7.13 1.89 12.45
12/5/2020 5:15:00 AM 4.7 40.46 0.047 7.16 1.96 12.45
12/5/2020 5:30:00 AM 4.7 40.46 0.047 7.19 1.99 12.45
12/5/2020 5:45:00 AM 4.71 40.478 0.047 7.14 1.98 12.44
12/5/2020 6:00:00 AM 4.71 40.478 0.047 7.19 2.01 12.45
12/5/2020 6:15:00 AM 4.72 40.496 0.047 7.21 1.9 12.45
12/5/2020 6:30:00 AM 4.72 40.496 0.047 7.16 1.95 12.45
12/5/2020 6:45:00 AM 4.72 40.496 0.047 7.18 1.95 12.45
12/5/2020 7:00:00 AM 4.72 40.496 0.047 7.21 1.83 12.45
12/5/2020 7:15:00 AM 4.72 40.496 0.047 7.17 1.98 12.44
12/5/2020 7:30:00 AM 4.72 40.496 0.047 7.18 1.97 12.45
12/5/2020 7:45:00 AM 4.72 40.496 0.047 7.2 1.89 12.47
12/5/2020 8:00:00 AM 4.72 40.496 0.047 7.19 1.82 12.49
12/5/2020 8:15:00 AM 4.73 40.514 0.047 7.24 1.88 12.53
12/5/2020 8:30:00 AM 4.73 40.514 0.047 7.25 1.82 12.57
12/5/2020 8:45:00 AM 4.74 40.532 0.047 7.21 1.82 12.62
12/5/2020 9:00:00 AM 4.75 40.55 0.047 7.26 1.9 12.66
12/5/2020 9:15:00 AM 4.76 40.568 0.047 7.29 1.84 12.7
12/5/2020 9:30:00 AM 4.78 40.604 0.047 7.29 1.79 12.72
12/5/2020 9:45:00 AM 4.77 40.586 0.047 7.31 1.73 12.74
12/5/2020 10:00:00 AM 4.78 40.604 0.047 7.32 1.75 12.75
12/5/2020 10:15:00 AM 4.79 40.622 0.047 7.26 1.71 12.76
12/5/2020 10:30:00 AM 4.8 40.64 0.047 7.33 1.76 12.77
12/5/2020 10:45:00 AM 4.82 40.676 0.047 7.35 1.76 12.79
12/5/2020 11:00:00 AM 4.85 40.73 0.047 7.35 1.77 12.8
12/5/2020 11:15:00 AM 4.85 40.73 0.047 7.37 1.77 12.8
12/5/2020 11:30:00 AM 4.87 40.766 0.047 7.36 1.66 12.8
12/5/2020 11:45:00 AM 4.9 40.82 0.047 7.32 1.68 12.81
12/5/2020 12:00:00 PM 4.9 40.82 0.047 7.38 1.68 12.81
12/5/2020 12:15:00 PM 4.92 40.856 0.047 7.35 1.64 12.81
12/5/2020 12:30:00 PM 4.93 40.874 0.047 7.34 1.65 12.79
12/5/2020 12:45:00 PM 4.95 40.91 0.047 7.34 1.67 12.79
12/5/2020 1:00:00 PM 4.95 40.91 0.047 7.38 1.69 12.78
12/5/2020 1:15:00 PM 4.96 40.928 0.047 7.39 1.63 12.79
12/5/2020 1:30:00 PM 4.96 40.928 0.047 7.32 1.64 12.77
12/5/2020 1:45:00 PM 4.96 40.928 0.047 7.35 1.68 12.76
12/5/2020 2:00:00 PM 4.95 40.91 0.047 7.34 1.67 12.75
12/5/2020 2:15:00 PM 4.94 40.892 0.047 7.39 1.64 12.75
12/5/2020 2:30:00 PM 4.94 40.892 0.047 7.39 1.63 12.77
12/5/2020 2:45:00 PM 4.94 40.892 0.047 7.34 1.67 12.77
12/5/2020 3:00:00 PM 4.95 40.91 0.047 7.38 1.69 12.77
12/5/2020 3:15:00 PM 4.94 40.892 0.047 7.32 1.74 12.73
12/5/2020 3:30:00 PM 4.92 40.856 0.047 7.32 1.69 12.7
12/5/2020 3:45:00 PM 4.9 40.82 0.047 7.31 1.7 12.67
12/5/2020 4:00:00 PM 4.89 40.802 0.047 7.29 1.66 12.65
12/5/2020 4:15:00 PM 4.86 40.748 0.047 7.33 1.67 12.63
12/5/2020 4:30:00 PM 4.85 40.73 0.047 7.27 1.7 12.59
12/5/2020 4:45:00 PM 4.83 40.694 0.047 7.27 1.65 12.56
12/5/2020 5:00:00 PM 4.81 40.658 0.047 7.26 1.71 12.54
12/5/2020 5:15:00 PM 4.79 40.622 0.047 7.3 1.72 12.51
12/5/2020 5:30:00 PM 4.77 40.586 0.047 7.27 1.73 12.51
12/5/2020 5:45:00 PM 4.75 40.55 0.047 7.27 1.82 12.49
12/5/2020 6:00:00 PM 4.73 40.514 0.047 7.26 1.76 12.49
12/5/2020 6:15:00 PM 4.71 40.478 0.047 7.26 1.74 12.49
12/5/2020 6:30:00 PM 4.69 40.442 0.047 7.25 1.68 12.5
12/5/2020 6:45:00 PM 4.67 40.406 0.047 7.25 1.77 12.5
12/5/2020 7:00:00 PM 4.65 40.37 0.047 7.25 1.7 12.5
12/5/2020 7:15:00 PM 4.63 40.334 0.047 7.23 1.84 12.5
12/5/2020 7:30:00 PM 4.61 40.298 0.047 7.24 1.89 12.51
12/5/2020 7:45:00 PM 4.59 40.262 0.047 7.22 1.7 12.51
12/5/2020 8:00:00 PM 4.57 40.226 0.047 7.23 1.8 12.52
12/5/2020 8:15:00 PM 4.55 40.19 0.047 7.23 1.77 12.52
12/5/2020 8:30:00 PM 4.53 40.154 0.047 7.25 1.74 12.53
12/5/2020 8:45:00 PM 4.5 40.1 0.047 7.16 1.74 12.54
12/5/2020 9:00:00 PM 4.48 40.064 0.047 7.19 1.72 12.54
12/5/2020 9:15:00 PM 4.46 40.028 0.047 7.2 1.84 12.55
12/5/2020 9:30:00 PM 4.44 39.992 0.047 7.24 1.93 12.55
12/5/2020 9:45:00 PM 4.41 39.938 0.047 7.23 1.97 12.56
12/5/2020 10:00:00 PM 4.39 39.902 0.047 7.21 2.17 12.57
12/5/2020 10:15:00 PM 4.37 39.866 0.047 7.23 1.9 12.58
12/5/2020 10:30:00 PM 4.35 39.83 0.047 7.17 2.26 12.59
12/5/2020 10:45:00 PM 4.33 39.794 0.047 7.2 1.8 12.59
12/5/2020 11:00:00 PM 4.32 39.776 0.047 7.21 1.79 12.6
12/5/2020 11:15:00 PM 4.31 39.758 0.047 7.2 1.76 12.6
12/5/2020 11:30:00 PM 4.29 39.722 0.047 7.17 1.77 12.61
12/5/2020 11:45:00 PM 4.27 39.686 0.047 7.17 1.76 12.62
12/6/2020 12:00:00 AM 4.25 39.65 0.047 7.21 1.75 12.62
12/6/2020 12:15:00 AM 4.23 39.614 0.047 7.18 1.78 12.63
12/6/2020 12:30:00 AM 4.21 39.578 0.047 7.19 1.71 12.63
12/6/2020 12:45:00 AM 4.19 39.542 0.047 7.23 1.79 12.64
12/6/2020 1:00:00 AM 4.16 39.488 0.047 7.18 1.7 12.65
12/6/2020 1:15:00 AM 4.12 39.416 0.047 7.21 1.73 12.66
12/6/2020 1:30:00 AM 4.1 39.38 0.047 7.16 1.75 12.66
12/6/2020 1:45:00 AM 4.09 39.362 0.047 7.16 1.75 12.68
12/6/2020 2:00:00 AM 4.08 39.344 0.047 7.22 1.68 12.69
12/6/2020 2:15:00 AM 4.06 39.308 0.047 7.2 1.67 12.69
12/6/2020 2:30:00 AM 4.03 39.254 0.047 7.19 1.71 12.7
12/6/2020 2:45:00 AM 4 39.2 0.047 7.19 1.68 12.71
12/6/2020 3:00:00 AM 3.98 39.164 0.047 7.16 1.7 12.72
12/6/2020 3:15:00 AM 3.96 39.128 0.047 7.21 1.68 12.73
12/6/2020 3:30:00 AM 3.93 39.074 0.047 7.2 1.73 12.73
12/6/2020 3:45:00 AM 3.91 39.038 0.047 7.18 1.71 12.74
12/6/2020 4:00:00 AM 3.88 38.984 0.047 7.18 1.64 12.75
12/6/2020 4:15:00 AM 3.85 38.93 0.047 7.21 1.71 12.76
12/6/2020 4:30:00 AM 3.82 38.876 0.047 7.16 1.79 12.77
12/6/2020 4:45:00 AM 3.78 38.804 0.047 7.2 1.78 12.78
12/6/2020 5:00:00 AM 3.74 38.732 0.047 7.17 1.66 12.8
12/6/2020 5:15:00 AM 3.7 38.66 0.047 7.2 1.65 12.82
12/6/2020 5:30:00 AM 3.66 38.588 0.047 7.15 1.63 12.83
12/6/2020 5:45:00 AM 3.64 38.552 0.047 7.18 1.7 12.84
12/6/2020 6:00:00 AM 3.62 38.516 0.047 7.16 1.63 12.85
12/6/2020 6:15:00 AM 3.6 38.48 0.047 7.15 1.66 12.86
12/6/2020 6:30:00 AM 3.58 38.444 0.047 7.18 1.65 12.86
12/6/2020 6:45:00 AM 3.56 38.408 0.047 7.19 1.62 12.87
12/6/2020 7:00:00 AM 3.56 38.408 0.047 7.16 1.66 12.87
12/6/2020 7:15:00 AM 3.53 38.354 0.047 7.2 1.57 12.89
12/6/2020 7:30:00 AM 3.51 38.318 0.047 7.15 1.68 12.9
12/6/2020 7:45:00 AM 3.49 38.282 0.047 7.2 1.58 12.92
12/6/2020 8:00:00 AM 3.48 38.264 0.047 7.21 1.63 12.95
12/6/2020 8:15:00 AM 3.47 38.246 0.047 7.16 1.63 13
12/6/2020 8:30:00 AM 3.44 38.192 0.047 7.19 1.64 13.05
12/6/2020 8:45:00 AM 3.4 38.12 0.047 7.23 1.59 13.11
12/6/2020 9:00:00 AM 3.38 38.084 0.047 7.26 1.57 13.15
12/6/2020 9:15:00 AM 3.36 38.048 0.047 7.27 1.59 13.2
12/6/2020 9:30:00 AM 3.36 38.048 0.047 7.24 1.53 13.24
12/6/2020 9:45:00 AM 3.36 38.048 0.047 7.3 1.61 13.26
12/6/2020 10:00:00 AM 3.35 38.03 0.047 7.3 1.5 13.29
12/6/2020 10:15:00 AM 3.34 38.012 0.047 7.31 1.52 13.3
12/6/2020 10:30:00 AM 3.34 38.012 0.047 7.3 1.5 13.32
12/6/2020 10:45:00 AM 3.34 38.012 0.047 7.3 1.45 13.34
12/6/2020 11:00:00 AM 3.37 38.066 0.047 7.29 1.48 13.34
12/6/2020 11:15:00 AM 3.39 38.102 0.047 7.34 1.45 13.33
12/6/2020 11:30:00 AM 3.39 38.102 0.047 7.34 1.45 13.33
12/6/2020 11:45:00 AM 3.35 38.03 0.047 7.29 1.47 13.33
12/6/2020 12:00:00 PM 3.41 38.138 0.047 7.3 1.45 13.33
12/6/2020 12:15:00 PM 3.44 38.192 0.047 7.32 1.5 13.33
12/6/2020 12:30:00 PM 3.51 38.318 0.047 7.36 1.44 13.31
12/6/2020 12:45:00 PM 3.58 38.444 0.047 7.32 1.45 13.3
12/6/2020 1:00:00 PM 3.6 38.48 0.047 7.34 1.41 13.3
12/6/2020 1:15:00 PM 3.67 38.606 0.046 7.33 1.44 13.29
12/6/2020 1:30:00 PM 3.73 38.714 0.046 7.37 1.42 13.26
12/6/2020 1:45:00 PM 3.8 38.84 0.046 7.36 1.46 13.24
12/6/2020 2:00:00 PM 3.8 38.84 0.046 7.32 1.43 13.23
12/6/2020 2:15:00 PM 3.86 38.948 0.046 7.32 1.48 13.2
12/6/2020 2:30:00 PM 3.88 38.984 0.046 7.33 1.49 13.17
12/6/2020 2:45:00 PM 3.91 39.038 0.046 7.36 1.46 13.15
12/6/2020 3:00:00 PM 3.91 39.038 0.046 7.32 1.46 13.14
12/6/2020 3:15:00 PM 3.91 39.038 0.046 7.32 1.48 13.13
12/6/2020 3:30:00 PM 3.84 38.912 0.046 7.31 1.56 13.13
12/6/2020 3:45:00 PM 3.75 38.75 0.046 7.33 1.49 13.13
12/6/2020 4:00:00 PM 3.69 38.642 0.047 7.3 1.48 13.14
12/6/2020 4:15:00 PM 3.64 38.552 0.047 7.31 1.46 13.13
12/6/2020 4:30:00 PM 3.59 38.462 0.047 7.28 1.5 13.11
12/6/2020 4:45:00 PM 3.57 38.426 0.047 7.27 1.46 13.08
12/6/2020 5:00:00 PM 3.52 38.336 0.047 7.3 1.53 13.05
12/6/2020 5:15:00 PM 3.47 38.246 0.047 7.28 1.51 13.02
12/6/2020 5:30:00 PM 3.43 38.174 0.047 7.27 1.54 13
12/6/2020 5:45:00 PM 3.39 38.102 0.047 7.2 1.49 12.99
12/6/2020 6:00:00 PM 3.35 38.03 0.047 7.24 1.52 12.99
12/6/2020 6:15:00 PM 3.3 37.94 0.047 7.25 1.59 12.99
12/6/2020 6:30:00 PM 3.28 37.904 0.047 7.23 1.58 12.99
12/6/2020 6:45:00 PM 3.25 37.85 0.047 7.2 1.58 12.99
12/6/2020 7:00:00 PM 3.2 37.76 0.047 7.24 1.56 13
12/6/2020 7:15:00 PM 3.18 37.724 0.047 7.23 1.65 13.01
12/6/2020 7:30:00 PM 3.18 37.724 0.047 7.22 1.54 13.01
12/6/2020 7:45:00 PM 3.18 37.724 0.047 7.23 1.56 13.01
12/6/2020 8:00:00 PM 3.18 37.724 0.047 7.19 1.53 13.01
12/6/2020 8:15:00 PM 3.18 37.724 0.047 7.19 1.48 13.01
12/6/2020 8:30:00 PM 3.18 37.724 0.047 7.2 1.53 13.01
12/6/2020 8:45:00 PM 3.17 37.706 0.047 7.22 1.54 13.01
12/6/2020 9:00:00 PM 3.17 37.706 0.047 7.23 1.66 13.02
12/6/2020 9:15:00 PM 3.16 37.688 0.047 7.21 1.56 13.02
12/6/2020 9:30:00 PM 3.15 37.67 0.047 7.17 1.52 13.02
12/6/2020 9:45:00 PM 3.14 37.652 0.047 7.18 1.55 13.02
12/6/2020 10:00:00 PM 3.13 37.634 0.047 7.22 1.55 13.03
12/6/2020 10:15:00 PM 3.12 37.616 0.047 7.17 1.58 13.03
12/6/2020 10:30:00 PM 3.11 37.598 0.047 7.21 1.52 13.04
12/6/2020 10:45:00 PM 3.09 37.562 0.047 7.22 1.57 13.04
12/6/2020 11:00:00 PM 3.06 37.508 0.047 7.22 1.62 13.04
12/6/2020 11:15:00 PM 3.04 37.472 0.047 7.16 1.54 13.05
12/6/2020 11:30:00 PM 3.02 37.436 0.047 7.21 1.54 13.07
12/6/2020 11:45:00 PM 3 37.4 0.047 7.19 1.53 13.07
12/7/2020 12:00:00 AM 2.99 37.382 0.047 7.2 1.58 13.07
12/7/2020 12:15:00 AM 2.98 37.364 0.047 7.21 1.67 13.08
12/7/2020 12:30:00 AM 2.96 37.328 0.047 7.18 1.59 13.09
12/7/2020 12:45:00 AM 2.95 37.31 0.047 7.18 1.61 13.09
12/7/2020 1:00:00 AM 2.94 37.292 0.047 7.16 1.54 13.09
12/7/2020 1:15:00 AM 2.93 37.274 0.047 7.17 1.53 13.09
12/7/2020 1:30:00 AM 2.93 37.274 0.047 7.17 1.51 13.09
12/7/2020 1:45:00 AM 2.92 37.256 0.047 7.15 1.56 13.1
12/7/2020 2:00:00 AM 2.92 37.256 0.047 7.16 1.55 13.1
12/7/2020 2:15:00 AM 2.9 37.22 0.047 7.18 1.56 13.1
12/7/2020 2:30:00 AM 2.9 37.22 0.047 7.21 1.51 13.1
12/7/2020 2:45:00 AM 2.89 37.202 0.047 7.22 1.52 13.1
12/7/2020 3:00:00 AM 2.88 37.184 0.047 7.22 1.51 13.1
12/7/2020 3:15:00 AM 2.88 37.184 0.047 7.16 1.55 13.1
12/7/2020 3:30:00 AM 2.87 37.166 0.047 7.21 1.52 13.11
12/7/2020 3:45:00 AM 2.87 37.166 0.047 7.21 1.5 13.1
12/7/2020 4:00:00 AM 2.85 37.13 0.047 7.2 1.44 13.11
12/7/2020 4:15:00 AM 2.82 37.076 0.047 7.2 1.5 13.12
12/7/2020 4:30:00 AM 2.8 37.04 0.047 7.15 1.46 13.12
12/7/2020 4:45:00 AM 2.79 37.022 0.047 7.21 1.48 13.13
12/7/2020 5:00:00 AM 2.78 37.004 0.047 7.2 1.52 13.13
12/7/2020 5:15:00 AM 2.77 36.986 0.047 7.23 1.42 13.13
12/7/2020 5:30:00 AM 2.76 36.968 0.047 7.14 1.49 13.14
12/7/2020 5:45:00 AM 2.76 36.968 0.047 7.22 1.47 13.14
12/7/2020 6:00:00 AM 2.74 36.932 0.047 7.2 1.49 13.14
12/7/2020 6:15:00 AM 2.73 36.914 0.047 7.22 1.51 13.14
12/7/2020 6:30:00 AM 2.73 36.914 0.047 7.22 1.51 13.15
12/7/2020 6:45:00 AM 2.73 36.914 0.047 7.22 1.52 13.15
12/7/2020 7:00:00 AM 2.72 36.896 0.047 7.14 1.53 13.15
12/7/2020 7:15:00 AM 2.72 36.896 0.047 7.18 1.5 13.15
12/7/2020 7:30:00 AM 2.72 36.896 0.047 7.22 1.46 13.16
12/7/2020 7:45:00 AM 2.72 36.896 0.047 7.21 1.5 13.18
12/7/2020 8:00:00 AM 2.72 36.896 0.047 7.23 1.56 13.21
12/7/2020 8:15:00 AM 2.72 36.896 0.047 7.24 1.47 13.26
12/7/2020 8:30:00 AM 2.72 36.896 0.047 7.17 1.51 13.3
12/7/2020 8:45:00 AM 2.71 36.878 0.047 7.25 1.51 13.35
12/7/2020 9:00:00 AM 2.7 36.86 0.047 7.26 1.51 13.38
12/7/2020 9:15:00 AM 2.68 36.824 0.047 7.28 1.48 13.42
12/7/2020 9:30:00 AM 2.68 36.824 0.047 7.25 1.42 13.45
12/7/2020 9:45:00 AM 2.69 36.842 0.047 7.26 1.43 13.48
12/7/2020 10:00:00 AM 2.71 36.878 0.047 7.28 1.41 13.51
12/7/2020 10:15:00 AM 2.74 36.932 0.047 7.33 1.38 13.52
12/7/2020 10:30:00 AM 2.76 36.968 0.047 7.33 1.39 13.54
12/7/2020 10:45:00 AM 2.76 36.968 0.047 7.36 1.45 13.54
12/7/2020 11:00:00 AM 2.8 37.04 0.047 7.36 1.37 13.54
12/7/2020 11:15:00 AM 2.86 37.148 0.047 7.3 1.38 13.53
12/7/2020 11:30:00 AM 2.89 37.202 0.047 7.32 1.41 13.54
12/7/2020 11:45:00 AM 2.92 37.256 0.047 7.32 1.36 13.53
12/7/2020 12:00:00 PM 2.91 37.238 0.047 7.36 1.39 13.5
12/7/2020 12:15:00 PM 2.97 37.346 0.047 7.36 1.34 13.5
12/7/2020 12:30:00 PM 3.05 37.49 0.047 7.38 1.34 13.49
12/7/2020 12:45:00 PM 3.06 37.508 0.047 7.32 1.34 13.48
12/7/2020 1:00:00 PM 3.1 37.58 0.047 7.34 1.34 13.47
12/7/2020 1:15:00 PM 3.15 37.67 0.047 7.4 1.36 13.44
12/7/2020 1:30:00 PM 3.17 37.706 0.047 7.34 1.38 13.43
12/7/2020 1:45:00 PM 3.21 37.778 0.047 7.34 1.37 13.41
12/7/2020 2:00:00 PM 3.24 37.832 0.046 7.37 1.38 13.4
12/7/2020 2:15:00 PM 3.25 37.85 0.046 7.39 1.37 13.4
12/7/2020 2:30:00 PM 3.25 37.85 0.046 7.35 1.41 13.39
12/7/2020 2:45:00 PM 3.27 37.886 0.046 7.38 1.37 13.37
12/7/2020 3:00:00 PM 3.28 37.904 0.046 7.38 1.38 13.36
12/7/2020 3:15:00 PM 3.27 37.886 0.046 7.39 1.34 13.35
12/7/2020 3:30:00 PM 3.24 37.832 0.046 7.32 1.41 13.33
12/7/2020 3:45:00 PM 3.23 37.814 0.046 7.35 1.36 13.32
12/7/2020 4:00:00 PM 3.21 37.778 0.046 7.34 1.37 13.31
12/7/2020 4:15:00 PM 3.18 37.724 0.047 7.38 1.4 13.28
12/7/2020 4:30:00 PM 3.16 37.688 0.047 7.29 1.48 13.25
12/7/2020 4:45:00 PM 3.13 37.634 0.047 7.32 1.37 13.21
12/7/2020 5:00:00 PM 3.1 37.58 0.047 7.27 1.39 13.17
12/7/2020 5:15:00 PM 3.08 37.544 0.047 7.24 1.42 13.14
12/7/2020 5:30:00 PM 3.05 37.49 0.047 7.29 1.51 13.12
12/7/2020 5:45:00 PM 3.02 37.436 0.047 7.27 1.41 13.1
12/7/2020 6:00:00 PM 2.99 37.382 0.047 7.27 1.47 13.09
12/7/2020 6:15:00 PM 2.96 37.328 0.047 7.26 1.48 13.08
12/7/2020 6:30:00 PM 2.94 37.292 0.047 7.26 1.48 13.08
12/7/2020 6:45:00 PM 2.91 37.238 0.047 7.24 1.44 13.08
12/7/2020 7:00:00 PM 2.89 37.202 0.047 7.2 1.45 13.09
12/7/2020 7:15:00 PM 2.86 37.148 0.047 7.21 1.49 13.09
12/7/2020 7:30:00 PM 2.83 37.094 0.047 7.21 1.51 13.09
12/7/2020 7:45:00 PM 2.8 37.04 0.047 7.19 1.47 13.11
12/7/2020 8:00:00 PM 2.77 36.986 0.047 7.23 1.5 13.11
12/7/2020 8:15:00 PM 2.73 36.914 0.047 7.19 1.46 13.12
12/7/2020 8:30:00 PM 2.7 36.86 0.047 7.19 1.42 13.13
12/7/2020 8:45:00 PM 2.68 36.824 0.047 7.23 1.44 13.14
12/7/2020 9:00:00 PM 2.66 36.788 0.047 7.17 1.36 13.15
12/7/2020 9:15:00 PM 2.64 36.752 0.047 7.17 1.41 13.15
12/7/2020 9:30:00 PM 2.63 36.734 0.047 7.18 1.39 13.16
12/7/2020 9:45:00 PM 2.62 36.716 0.047 7.2 1.4 13.17
12/7/2020 10:00:00 PM 2.61 36.698 0.047 7.17 1.41 13.17
12/7/2020 10:15:00 PM 2.6 36.68 0.047 7.23 1.45 13.18
12/7/2020 10:30:00 PM 2.59 36.662 0.047 7.22 1.45 13.18
12/7/2020 10:45:00 PM 2.59 36.662 0.047 7.22 1.42 13.18
12/7/2020 11:00:00 PM 2.59 36.662 0.047 7.19 1.37 13.19
12/7/2020 11:15:00 PM 2.59 36.662 0.047 7.16 1.45 13.19
12/7/2020 11:30:00 PM 2.59 36.662 0.047 7.23 1.43 13.19
12/7/2020 11:45:00 PM 2.59 36.662 0.047 7.19 1.41 13.19
12/8/2020 12:00:00 AM 2.58 36.644 0.047 7.18 1.43 13.19
12/8/2020 12:15:00 AM 2.57 36.626 0.047 7.19 1.41 13.19
12/8/2020 12:30:00 AM 2.57 36.626 0.047 7.16 1.46 13.19
12/8/2020 12:45:00 AM 2.55 36.59 0.047 7.2 1.44 13.19
12/8/2020 1:00:00 AM 2.54 36.572 0.047 7.18 1.43 13.2
12/8/2020 1:15:00 AM 2.54 36.572 0.047 7.19 1.42 13.2
12/8/2020 1:30:00 AM 2.53 36.554 0.047 7.18 1.46 13.21
12/8/2020 1:45:00 AM 2.52 36.536 0.047 7.17 1.47 13.21
12/8/2020 2:00:00 AM 2.49 36.482 0.047 7.16 1.43 13.21
12/8/2020 2:15:00 AM 2.46 36.428 0.047 7.21 1.4 13.23
12/8/2020 2:30:00 AM 2.42 36.356 0.047 7.15 1.45 13.24
12/8/2020 2:45:00 AM 2.39 36.302 0.047 7.22 1.43 13.25
12/8/2020 3:00:00 AM 2.37 36.266 0.047 7.17 1.42 13.26
12/8/2020 3:15:00 AM 2.34 36.212 0.047 7.22 1.41 13.27
12/8/2020 3:30:00 AM 2.31 36.158 0.047 7.2 1.38 13.28
12/8/2020 3:45:00 AM 2.29 36.122 0.048 7.22 1.44 13.29
12/8/2020 4:00:00 AM 2.26 36.068 0.048 7.15 1.41 13.3
12/8/2020 4:15:00 AM 2.23 36.014 0.048 7.17 1.41 13.31
12/8/2020 4:30:00 AM 2.21 35.978 0.048 7.22 1.42 13.32
12/8/2020 4:45:00 AM 2.18 35.924 0.048 7.22 1.39 13.33
12/8/2020 5:00:00 AM 2.14 35.852 0.048 7.15 1.42 13.33
12/8/2020 5:15:00 AM 2.11 35.798 0.048 7.23 1.42 13.35
12/8/2020 5:30:00 AM 2.08 35.744 0.048 7.18 1.41 13.36
12/8/2020 5:45:00 AM 2.04 35.672 0.048 7.22 1.46 13.37
12/8/2020 6:00:00 AM 2.01 35.618 0.048 7.2 1.49 13.39
12/8/2020 6:15:00 AM 1.98 35.564 0.048 7.2 1.46 13.39
12/8/2020 6:30:00 AM 1.94 35.492 0.048 7.19 1.44 13.41
12/8/2020 6:45:00 AM 1.9 35.42 0.048 7.19 1.44 13.42
12/8/2020 7:00:00 AM 1.87 35.366 0.048 7.18 1.41 13.44
12/8/2020 7:15:00 AM 1.83 35.294 0.048 7.21 1.42 13.46
12/8/2020 7:30:00 AM 1.8 35.24 0.048 7.2 1.42 13.48
12/8/2020 7:45:00 AM 1.77 35.186 0.048 7.19 1.57 13.51
12/8/2020 8:00:00 AM 1.74 35.132 0.048 7.16 1.45 13.55
12/8/2020 8:15:00 AM 1.71 35.078 0.048 7.2 1.46 13.59
12/8/2020 8:30:00 AM 1.68 35.024 0.048 7.18 1.43 13.64
12/8/2020 8:45:00 AM 1.66 34.988 0.048 7.25 1.44 13.69
12/8/2020 9:00:00 AM 1.64 34.952 0.047 7.19 1.43 13.74
12/8/2020 9:15:00 AM 1.63 34.934 0.047 7.25 1.44 13.78
12/8/2020 9:30:00 AM 1.63 34.934 0.047 7.22 1.41 13.82
12/8/2020 9:45:00 AM 1.62 34.916 0.047 7.25 1.33 13.84
12/8/2020 10:00:00 AM 1.66 34.988 0.047 7.29 1.37 13.86
12/8/2020 10:15:00 AM 1.69 35.042 0.047 7.23 1.38 13.87
12/8/2020 10:30:00 AM 1.69 35.042 0.047 7.27 1.38 13.89
12/8/2020 10:45:00 AM 1.76 35.168 0.047 7.27 1.37 13.89
12/8/2020 11:00:00 AM 1.8 35.24 0.047 7.28 1.33 13.9
12/8/2020 11:15:00 AM 1.85 35.33 0.047 7.32 1.37 13.89
12/8/2020 11:30:00 AM 1.87 35.366 0.047 7.34 1.35 13.88
12/8/2020 11:45:00 AM 1.96 35.528 0.047 7.33 1.35 13.85
12/8/2020 12:00:00 PM 2.03 35.654 0.047 7.3 1.45 13.84
12/8/2020 12:15:00 PM 2.11 35.798 0.047 7.27 1.38 13.81
12/8/2020 12:30:00 PM 2.19 35.942 0.047 7.3 1.31 13.78
12/8/2020 12:45:00 PM 2.27 36.086 0.047 7.3 1.33 13.76
12/8/2020 1:00:00 PM 2.34 36.212 0.047 7.29 1.34 13.73
12/8/2020 1:15:00 PM 2.4 36.32 0.047 7.35 1.39 13.7
12/8/2020 1:30:00 PM 2.47 36.446 0.047 7.31 1.39 13.67
12/8/2020 1:45:00 PM 2.53 36.554 0.047 7.29 1.33 13.64
12/8/2020 2:00:00 PM 2.58 36.644 0.047 7.3 1.3 13.62
12/8/2020 2:15:00 PM 2.63 36.734 0.047 7.32 1.33 13.6
12/8/2020 2:30:00 PM 2.68 36.824 0.047 7.34 1.36 13.58
12/8/2020 2:45:00 PM 2.73 36.914 0.047 7.35 1.33 13.55
12/8/2020 3:00:00 PM 2.75 36.95 0.047 7.36 1.36 13.53
12/8/2020 3:15:00 PM 2.78 37.004 0.047 7.28 1.4 13.51
12/8/2020 3:30:00 PM 2.79 37.022 0.047 7.34 1.34 13.5
12/8/2020 3:45:00 PM 2.79 37.022 0.047 7.29 1.34 13.49
12/8/2020 4:00:00 PM 2.78 37.004 0.047 7.33 1.29 13.46
12/8/2020 4:15:00 PM 2.75 36.95 0.047 7.26 1.35 13.44
12/8/2020 4:30:00 PM 2.72 36.896 0.047 7.27 1.35 13.42
12/8/2020 4:45:00 PM 2.68 36.824 0.047 7.28 1.35 13.39
12/8/2020 5:00:00 PM 2.64 36.752 0.047 7.29 1.38 13.36
12/8/2020 5:15:00 PM 2.6 36.68 0.047 7.27 1.46 13.34
12/8/2020 5:30:00 PM 2.56 36.608 0.047 7.21 1.35 13.32
12/8/2020 5:45:00 PM 2.52 36.536 0.047 7.21 1.36 13.31
12/8/2020 6:00:00 PM 2.49 36.482 0.047 7.2 1.35 13.29
12/8/2020 6:15:00 PM 2.45 36.41 0.047 7.22 1.38 13.3
12/8/2020 6:30:00 PM 2.42 36.356 0.047 7.24 1.42 13.3
12/8/2020 6:45:00 PM 2.41 36.338 0.047 7.2 1.35 13.3
12/8/2020 7:00:00 PM 2.38 36.284 0.047 7.2 1.4 13.3
12/8/2020 7:15:00 PM 2.37 36.266 0.047 7.18 1.42 13.3
12/8/2020 7:30:00 PM 2.35 36.23 0.047 7.17 1.35 13.3
12/8/2020 7:45:00 PM 2.35 36.23 0.047 7.18 1.4 13.31
12/8/2020 8:00:00 PM 2.35 36.23 0.047 7.18 1.45 13.32
12/8/2020 8:15:00 PM 2.37 36.266 0.047 7.19 1.43 13.31
12/8/2020 8:30:00 PM 2.39 36.302 0.047 7.2 1.6 13.31
12/8/2020 8:45:00 PM 2.41 36.338 0.047 7.22 1.43 13.3
12/8/2020 9:00:00 PM 2.39 36.302 0.047 7.16 1.38 13.29
12/8/2020 9:15:00 PM 2.4 36.32 0.047 7.18 1.44 13.3
12/8/2020 9:30:00 PM 2.41 36.338 0.047 7.18 1.46 13.29
12/8/2020 9:45:00 PM 2.42 36.356 0.047 7.18 1.39 13.29
12/8/2020 10:00:00 PM 2.44 36.392 0.047 7.17 1.4 13.28
12/8/2020 10:15:00 PM 2.47 36.446 0.047 7.18 1.49 13.27
12/8/2020 10:30:00 PM 2.49 36.482 0.047 7.17 1.39 13.26
12/8/2020 10:45:00 PM 2.5 36.5 0.047 7.18 1.35 13.26
12/8/2020 11:00:00 PM 2.51 36.518 0.047 7.17 1.39 13.25
12/8/2020 11:15:00 PM 2.51 36.518 0.048 7.18 1.39 13.25
12/8/2020 11:30:00 PM 2.52 36.536 0.048 7.18 1.38 13.25
12/8/2020 11:45:00 PM 2.51 36.518 0.048 7.17 1.43 13.24
12/9/2020 12:00:00 AM 2.52 36.536 0.048 7.18 1.35 13.24
12/9/2020 12:15:00 AM 2.51 36.518 0.048 7.17 1.42 13.24
12/9/2020 12:30:00 AM 2.51 36.518 0.048 7.19 1.37 13.24
12/9/2020 12:45:00 AM 2.51 36.518 0.048 7.17 1.38 13.24
12/9/2020 1:00:00 AM 2.5 36.5 0.048 7.17 2.06 13.24
12/9/2020 1:15:00 AM 2.49 36.482 0.048 7.17 1.48 13.23
12/9/2020 1:30:00 AM 2.49 36.482 0.048 7.2 1.43 13.23
12/9/2020 1:45:00 AM 2.49 36.482 0.048 7.21 1.39 13.24
12/9/2020 2:00:00 AM 2.48 36.464 0.048 7.21 1.45 13.23
12/9/2020 2:15:00 AM 2.47 36.446 0.048 7.19 1.42 13.23
12/9/2020 2:30:00 AM 2.47 36.446 0.048 7.16 1.47 13.23
12/9/2020 2:45:00 AM 2.46 36.428 0.048 7.22 1.48 13.23
12/9/2020 3:00:00 AM 2.46 36.428 0.048 7.16 1.47 13.24
12/9/2020 3:15:00 AM 2.46 36.428 0.048 7.18 1.4 13.23
12/9/2020 3:30:00 AM 2.46 36.428 0.048 7.19 1.37 13.23
12/9/2020 3:45:00 AM 2.46 36.428 0.048 7.18 1.39 13.23
12/9/2020 4:00:00 AM 2.45 36.41 0.048 7.21 1.47 13.22
12/9/2020 4:15:00 AM 2.45 36.41 0.048 7.17 1.55 13.23
12/9/2020 4:30:00 AM 2.44 36.392 0.048 7.22 1.46 13.23
12/9/2020 4:45:00 AM 2.44 36.392 0.048 7.22 1.49 13.23
12/9/2020 5:00:00 AM 2.43 36.374 0.048 7.23 1.51 13.23
12/9/2020 5:15:00 AM 2.43 36.374 0.048 7.18 1.45 13.23
12/9/2020 5:30:00 AM 2.42 36.356 0.048 7.17 1.4 13.23
12/9/2020 5:45:00 AM 2.42 36.356 0.048 7.17 1.43 13.24
12/9/2020 6:00:00 AM 2.43 36.374 0.048 7.18 1.44 13.22
12/9/2020 6:15:00 AM 2.43 36.374 0.048 7.22 1.38 13.23
12/9/2020 6:30:00 AM 2.42 36.356 0.048 7.2 1.41 13.23
12/9/2020 6:45:00 AM 2.43 36.374 0.048 7.16 1.39 13.23
12/9/2020 7:00:00 AM 2.42 36.356 0.048 7.23 1.42 13.23
12/9/2020 7:15:00 AM 2.43 36.374 0.048 7.21 1.36 13.22
12/9/2020 7:30:00 AM 2.43 36.374 0.048 7.22 1.4 13.23
12/9/2020 7:45:00 AM 2.43 36.374 0.048 7.23 1.43 13.23
12/9/2020 8:00:00 AM 2.43 36.374 0.048 7.22 1.42 13.24
12/9/2020 8:15:00 AM 2.43 36.374 0.048 7.23 1.38 13.25
12/9/2020 8:30:00 AM 2.42 36.356 0.048 7.23 1.37 13.27
12/9/2020 8:45:00 AM 2.4 36.32 0.048 7.22 1.38 13.31
12/9/2020 9:00:00 AM 2.39 36.302 0.048 7.18 1.39 13.34
12/9/2020 9:15:00 AM 2.4 36.32 0.047 7.27 1.39 13.4
12/9/2020 9:30:00 AM 2.42 36.356 0.047 7.28 1.34 13.44
12/9/2020 9:45:00 AM 2.44 36.392 0.047 7.28 1.34 13.48
12/9/2020 10:00:00 AM 2.47 36.446 0.047 7.3 1.38 13.52
12/9/2020 10:15:00 AM 2.5 36.5 0.047 7.28 1.33 13.54
12/9/2020 10:30:00 AM 2.52 36.536 0.047 7.32 1.27 13.54
12/9/2020 10:45:00 AM 2.54 36.572 0.047 7.32 1.31 13.53
12/9/2020 11:00:00 AM 2.57 36.626 0.047 7.33 1.28 13.54
12/9/2020 11:15:00 AM 2.58 36.644 0.047 7.34 1.28 13.53
12/9/2020 11:30:00 AM 2.6 36.68 0.047 7.33 1.38 13.51
12/9/2020 11:45:00 AM 2.61 36.698 0.047 7.32 1.28 13.5
12/9/2020 12:00:00 PM 2.63 36.734 0.047 7.28 1.31 13.51
12/9/2020 12:15:00 PM 2.65 36.77 0.047 7.34 1.29 13.52
12/9/2020 12:30:00 PM 2.67 36.806 0.047 7.36 1.3 13.53
12/9/2020 12:45:00 PM 2.69 36.842 0.047 7.35 1.3 13.52
12/9/2020 1:00:00 PM 2.71 36.878 0.047 7.34 1.27 13.5
12/9/2020 1:15:00 PM 2.73 36.914 0.047 7.35 1.28 13.49
12/9/2020 1:30:00 PM 2.75 36.95 0.047 7.32 1.28 13.47
12/9/2020 1:45:00 PM 2.76 36.968 0.047 7.36 1.31 13.44
12/9/2020 2:00:00 PM 2.77 36.986 0.047 7.33 1.31 13.42
12/9/2020 2:15:00 PM 2.79 37.022 0.047 7.27 1.23 13.39
12/9/2020 2:30:00 PM 2.8 37.04 0.047 7.29 1.29 13.38
12/9/2020 2:45:00 PM 2.81 37.058 0.047 7.28 1.27 13.37
12/9/2020 3:00:00 PM 2.83 37.094 0.047 7.27 1.28 13.35
12/9/2020 3:15:00 PM 2.84 37.112 0.047 7.28 1.28 13.34
12/9/2020 3:30:00 PM 2.86 37.148 0.047 7.33 1.25 13.33
12/9/2020 3:45:00 PM 2.87 37.166 0.047 7.31 1.28 13.31
12/9/2020 4:00:00 PM 2.89 37.202 0.047 7.3 1.32 13.29
12/9/2020 4:15:00 PM 2.9 37.22 0.047 7.31 1.28 13.26
12/9/2020 4:30:00 PM 2.91 37.238 0.047 7.3 1.33 13.23
12/9/2020 4:45:00 PM 2.92 37.256 0.047 7.29 1.33 13.19
12/9/2020 5:00:00 PM 2.93 37.274 0.047 7.27 1.33 13.16
12/9/2020 5:15:00 PM 2.94 37.292 0.047 7.26 1.34 13.13
12/9/2020 5:30:00 PM 2.95 37.31 0.047 7.24 1.36 13.11
12/9/2020 5:45:00 PM 2.96 37.328 0.047 7.25 1.37 13.09
12/9/2020 6:00:00 PM 2.98 37.364 0.047 7.23 1.37 13.08
12/9/2020 6:15:00 PM 2.99 37.382 0.047 7.24 1.4 13.07
12/9/2020 6:30:00 PM 3 37.4 0.047 7.23 1.35 13.06
12/9/2020 6:45:00 PM 3.01 37.418 0.047 7.16 1.34 13.05
12/9/2020 7:00:00 PM 3.03 37.454 0.047 7.23 1.36 13.05
12/9/2020 7:15:00 PM 3.04 37.472 0.047 7.22 1.38 13.04
12/9/2020 7:30:00 PM 3.05 37.49 0.047 7.16 1.34 13.04
12/9/2020 7:45:00 PM 3.06 37.508 0.047 7.18 1.34 13.03
12/9/2020 8:00:00 PM 3.08 37.544 0.047 7.23 1.4 13.03
12/9/2020 8:15:00 PM 3.09 37.562 0.047 7.18 1.34 13.02
12/9/2020 8:30:00 PM 3.1 37.58 0.047 7.17 1.36 13.02
12/9/2020 8:45:00 PM 3.11 37.598 0.047 7.19 1.37 13.02
12/9/2020 9:00:00 PM 3.12 37.616 0.047 7.23 1.46 13.01
12/9/2020 9:15:00 PM 3.13 37.634 0.047 7.22 1.4 13.01
12/9/2020 9:30:00 PM 3.14 37.652 0.047 7.16 1.37 13.01
12/9/2020 9:45:00 PM 3.15 37.67 0.048 7.2 1.44 13.01
12/9/2020 10:00:00 PM 3.17 37.706 0.048 7.24 1.36 13.01
12/9/2020 10:15:00 PM 3.18 37.724 0.048 7.2 1.36 13
12/9/2020 10:30:00 PM 3.19 37.742 0.048 7.23 1.39 13
12/9/2020 10:45:00 PM 3.2 37.76 0.048 7.23 1.35 13
12/9/2020 11:00:00 PM 3.21 37.778 0.048 7.19 1.36 13
12/9/2020 11:15:00 PM 3.21 37.778 0.048 7.17 1.41 12.99
12/9/2020 11:30:00 PM 3.22 37.796 0.048 7.24 1.43 12.98
12/9/2020 11:45:00 PM 3.23 37.814 0.048 7.23 1.48 12.99
12/10/2020 12:00:00 AM 3.24 37.832 0.048 7.17 1.43 12.99
12/10/2020 12:15:00 AM 3.25 37.85 0.048 7.23 1.56 12.98
12/10/2020 12:30:00 AM 3.26 37.868 0.048 7.16 1.43 12.98
12/10/2020 12:45:00 AM 3.27 37.886 0.048 7.24 1.93 12.99
12/10/2020 1:00:00 AM 3.28 37.904 0.048 7.23 1.65 12.98
12/10/2020 1:15:00 AM 3.29 37.922 0.048 7.16 1.47 12.98
12/10/2020 1:30:00 AM 3.29 37.922 0.048 7.22 1.37 12.97
12/10/2020 1:45:00 AM 3.3 37.94 0.048 7.21 1.61 12.98
12/10/2020 2:00:00 AM 3.31 37.958 0.048 7.23 1.49 12.98
12/10/2020 2:15:00 AM 3.31 37.958 0.048 7.24 1.43 12.98
12/10/2020 2:30:00 AM 3.32 37.976 0.048 7.22 1.55 12.98
12/10/2020 2:45:00 AM 3.33 37.994 0.048 7.24 1.75 12.98
12/10/2020 3:00:00 AM 3.34 38.012 0.048 7.2 1.74 12.97
12/10/2020 3:15:00 AM 3.34 38.012 0.048 7.23 1.89 12.98
12/10/2020 3:30:00 AM 3.35 38.03 0.048 7.17 1.75 12.98
12/10/2020 3:45:00 AM 3.36 38.048 0.048 7.22 2.06 12.98
12/10/2020 4:00:00 AM 3.37 38.066 0.048 7.22 1.52 12.98
12/10/2020 4:15:00 AM 3.37 38.066 0.048 7.22 1.5 12.98
12/10/2020 4:30:00 AM 3.38 38.084 0.048 7.23 2.16 12.98
12/10/2020 4:45:00 AM 3.38 38.084 0.048 7.17 1.81 12.98
12/10/2020 5:00:00 AM 3.39 38.102 0.048 7.23 1.54 12.98
12/10/2020 5:15:00 AM 3.39 38.102 0.048 7.22 1.84 12.97
12/10/2020 5:30:00 AM 3.4 38.12 0.048 7.16 1.52 12.98
12/10/2020 5:45:00 AM 3.41 38.138 0.048 7.24 1.57 12.98
12/10/2020 6:00:00 AM 3.41 38.138 0.048 7.24 2.5 12.99
12/10/2020 6:15:00 AM 3.42 38.156 0.048 7.15 1.64 12.98
12/10/2020 6:30:00 AM 3.43 38.174 0.048 7.25 2.3 12.98
12/10/2020 6:45:00 AM 3.44 38.192 0.048 7.24 1.89 12.98
12/10/2020 7:00:00 AM 3.44 38.192 0.048 7.22 2.22 12.98
12/10/2020 7:15:00 AM 3.45 38.21 0.048 7.24 1.68 12.98
12/10/2020 7:30:00 AM 3.45 38.21 0.048 7.16 1.68 12.99
12/10/2020 7:45:00 AM 3.45 38.21 0.048 7.22 1.64 13
12/10/2020 8:00:00 AM 3.46 38.228 0.048 7.2 1.64 13.06
12/10/2020 8:15:00 AM 3.47 38.246 0.048 7.27 1.43 13.11
12/10/2020 8:30:00 AM 3.48 38.264 0.048 7.28 1.44 13.17
12/10/2020 8:45:00 AM 3.5 38.3 0.047 7.3 1.44 13.23
12/10/2020 9:00:00 AM 3.53 38.354 0.047 7.32 1.62 13.28
12/10/2020 9:15:00 AM 3.55 38.39 0.047 7.33 1.63 13.32
12/10/2020 9:30:00 AM 3.59 38.462 0.047 7.3 1.53 13.35
12/10/2020 9:45:00 AM 3.62 38.516 0.047 7.35 1.94 13.38
12/10/2020 10:00:00 AM 3.66 38.588 0.047 7.32 1.4 13.39
12/10/2020 10:15:00 AM 3.72 38.696 0.047 7.34 1.37 13.41
12/10/2020 10:30:00 AM 3.76 38.768 0.047 7.41 1.41 13.41
12/10/2020 10:45:00 AM 3.81 38.858 0.047 7.35 1.41 13.41
12/10/2020 11:00:00 AM 3.89 39.002 0.047 7.38 1.42 13.41
12/10/2020 11:15:00 AM 3.95 39.11 0.047 7.39 1.31 13.41
12/10/2020 11:30:00 AM 4.01 39.218 0.047 7.45 1.32 13.4
12/10/2020 11:45:00 AM 4.07 39.326 0.047 7.46 1.9 13.38
12/10/2020 12:00:00 PM 4.12 39.416 0.047 7.45 1.43 13.37
12/10/2020 12:15:00 PM 4.2 39.56 0.047 7.43 1.41 13.35
12/10/2020 12:30:00 PM 4.25 39.65 0.047 7.42 1.33 13.33
12/10/2020 12:45:00 PM 4.37 39.866 0.047 7.42 1.46 13.31
12/10/2020 1:00:00 PM 4.33 39.794 0.047 7.42 1.4 13.28
12/10/2020 1:15:00 PM 4.39 39.902 0.047 7.45 1.4 13.27
12/10/2020 1:30:00 PM 4.45 40.01 0.047 7.49 1.43 13.24
12/10/2020 1:45:00 PM 4.56 40.208 0.047 7.5 1.41 13.22
12/10/2020 2:00:00 PM 4.67 40.406 0.047 7.49 1.38 13.19
12/10/2020 2:15:00 PM 4.61 40.298 0.047 7.43 1.39 13.18
12/10/2020 2:30:00 PM 4.56 40.208 0.047 7.48 1.35 13.15
12/10/2020 2:45:00 PM 4.55 40.19 0.047 7.45 1.76 13.13
12/10/2020 3:00:00 PM 4.49 40.082 0.047 7.48 1.63 13.12
12/10/2020 3:15:00 PM 4.48 40.064 0.047 7.47 1.54 13.11
12/10/2020 3:30:00 PM 4.46 40.028 0.047 7.37 1.47 13.1
12/10/2020 3:45:00 PM 4.42 39.956 0.047 7.46 1.43 13.08
12/10/2020 4:00:00 PM 4.39 39.902 0.047 7.42 1.46 13.06
12/10/2020 4:15:00 PM 4.35 39.83 0.047 7.42 1.4 13.04
12/10/2020 4:30:00 PM 4.3 39.74 0.047 7.42 1.4 13
12/10/2020 4:45:00 PM 4.26 39.668 0.047 7.39 1.32 12.96
12/10/2020 5:00:00 PM 4.21 39.578 0.047 7.37 1.46 12.93
12/10/2020 5:15:00 PM 4.16 39.488 0.047 7.36 1.48 12.89
12/10/2020 5:30:00 PM 4.11 39.398 0.047 7.35 1.44 12.87
12/10/2020 5:45:00 PM 4.06 39.308 0.047 7.33 1.44 12.86
12/10/2020 6:00:00 PM 4.01 39.218 0.047 7.32 1.73 12.84
12/10/2020 6:15:00 PM 3.96 39.128 0.047 7.3 1.71 12.84
12/10/2020 6:30:00 PM 3.92 39.056 0.047 7.31 1.59 12.85
12/10/2020 6:45:00 PM 3.88 38.984 0.047 7.3 1.56 12.85
12/10/2020 7:00:00 PM 3.83 38.894 0.047 7.29 1.56 12.86
12/10/2020 7:15:00 PM 3.78 38.804 0.047 7.23 1.47 12.87
12/10/2020 7:30:00 PM 3.73 38.714 0.048 7.27 1.49 12.88
12/10/2020 7:45:00 PM 3.68 38.624 0.048 7.22 1.36 12.9
12/10/2020 8:00:00 PM 3.63 38.534 0.048 7.22 1.4 12.92
12/10/2020 8:15:00 PM 3.58 38.444 0.048 7.25 1.4 12.93
12/10/2020 8:30:00 PM 3.53 38.354 0.048 7.27 1.39 12.95
12/10/2020 8:45:00 PM 3.49 38.282 0.048 7.22 1.46 12.97
12/10/2020 9:00:00 PM 3.43 38.174 0.048 7.27 1.42 12.99
12/10/2020 9:15:00 PM 3.38 38.084 0.048 7.23 1.38 13
12/10/2020 9:30:00 PM 3.33 37.994 0.048 7.27 1.5 13.02
12/10/2020 9:45:00 PM 3.29 37.922 0.048 7.26 1.48 13.03
12/10/2020 10:00:00 PM 3.24 37.832 0.048 7.26 1.45 13.06
12/10/2020 10:15:00 PM 3.19 37.742 0.048 7.25 1.44 13.07
12/10/2020 10:30:00 PM 3.14 37.652 0.048 7.25 1.42 13.08
12/10/2020 10:45:00 PM 3.08 37.544 0.048 7.26 1.37 13.1
12/10/2020 11:00:00 PM 3.04 37.472 0.048 7.21 1.44 13.12
12/10/2020 11:15:00 PM 2.99 37.382 0.048 7.26 1.36 13.14
12/10/2020 11:30:00 PM 2.95 37.31 0.048 7.26 1.35 13.16
12/10/2020 11:45:00 PM 2.9 37.22 0.048 7.26 1.52 13.18
12/11/2020 12:00:00 AM 2.86 37.148 0.048 7.25 1.35 13.19
12/11/2020 12:15:00 AM 2.82 37.076 0.048 7.26 1.48 13.2
12/11/2020 12:30:00 AM 2.77 36.986 0.048 7.26 1.37 13.22
12/11/2020 12:45:00 AM 2.73 36.914 0.048 7.17 1.46 13.23
12/11/2020 1:00:00 AM 2.69 36.842 0.048 7.26 1.53 13.24
12/11/2020 1:15:00 AM 2.66 36.788 0.048 7.19 1.77 13.26
12/11/2020 1:30:00 AM 2.62 36.716 0.048 7.27 1.66 13.27
12/11/2020 1:45:00 AM 2.58 36.644 0.048 7.26 1.44 13.28
12/11/2020 2:00:00 AM 2.55 36.59 0.048 7.26 1.48 13.29
12/11/2020 2:15:00 AM 2.52 36.536 0.048 7.25 1.44 13.3
12/11/2020 2:30:00 AM 2.48 36.464 0.048 7.15 1.45 13.32
12/11/2020 2:45:00 AM 2.44 36.392 0.048 7.26 1.4 13.34
12/11/2020 3:00:00 AM 2.41 36.338 0.048 7.24 1.42 13.35
12/11/2020 3:15:00 AM 2.38 36.284 0.048 7.25 1.42 13.36
12/11/2020 3:30:00 AM 2.35 36.23 0.048 7.24 1.37 13.38
12/11/2020 3:45:00 AM 2.32 36.176 0.048 7.25 1.4 13.38
12/11/2020 4:00:00 AM 2.28 36.104 0.048 7.24 1.39 13.4
12/11/2020 4:15:00 AM 2.25 36.05 0.048 7.24 1.43 13.41
12/11/2020 4:30:00 AM 2.21 35.978 0.048 7.23 1.44 13.42
12/11/2020 4:45:00 AM 2.18 35.924 0.048 7.17 1.36 13.42
12/11/2020 5:00:00 AM 2.15 35.87 0.048 7.25 1.39 13.45
12/11/2020 5:15:00 AM 2.11 35.798 0.048 7.17 1.37 13.46
12/11/2020 5:30:00 AM 2.09 35.762 0.048 7.25 1.38 13.47
12/11/2020 5:45:00 AM 2.06 35.708 0.048 7.22 1.36 13.47
12/11/2020 6:00:00 AM 2.03 35.654 0.048 7.17 1.39 13.49
12/11/2020 6:15:00 AM 2 35.6 0.048 7.24 1.4 13.51
12/11/2020 6:30:00 AM 1.97 35.546 0.048 7.19 1.39 13.51
12/11/2020 6:45:00 AM 1.95 35.51 0.048 7.17 1.39 13.51
12/11/2020 7:00:00 AM 1.92 35.456 0.048 7.22 1.37 13.53
12/11/2020 7:15:00 AM 1.9 35.42 0.048 7.23 1.41 13.54
12/11/2020 7:30:00 AM 1.89 35.402 0.048 7.23 1.4 13.56
12/11/2020 7:45:00 AM 1.88 35.384 0.048 7.24 1.41 13.59
12/11/2020 8:00:00 AM 1.88 35.384 0.048 7.25 1.4 13.64
12/11/2020 8:15:00 AM 1.88 35.384 0.048 7.27 1.37 13.72
12/11/2020 8:30:00 AM 1.88 35.384 0.048 7.28 1.38 13.76
12/11/2020 8:45:00 AM 1.9 35.42 0.048 7.22 1.36 13.82
12/11/2020 9:00:00 AM 1.91 35.438 0.048 7.3 1.39 13.86
12/11/2020 9:15:00 AM 1.95 35.51 0.048 7.32 1.34 13.89
12/11/2020 9:30:00 AM 2 35.6 0.048 7.33 1.33 13.94
12/11/2020 9:45:00 AM 2.07 35.726 0.048 7.32 1.34 13.96
12/11/2020 10:00:00 AM 2.13 35.834 0.048 7.37 1.35 13.96
12/11/2020 10:15:00 AM 2.2 35.96 0.048 7.38 1.3 13.96
12/11/2020 10:30:00 AM 2.29 36.122 0.048 7.39 1.29 13.97
12/11/2020 10:45:00 AM 2.37 36.266 0.047 7.33 1.28 13.93
12/11/2020 11:00:00 AM 2.46 36.428 0.047 7.33 1.31 13.91
12/11/2020 11:15:00 AM 2.57 36.626 0.047 7.41 1.28 13.88
12/11/2020 11:30:00 AM 2.66 36.788 0.047 7.39 1.3 13.85
12/11/2020 11:45:00 AM 2.76 36.968 0.047 7.42 1.26 13.83
12/11/2020 12:00:00 PM 2.88 37.184 0.047 7.41 1.28 13.79
12/11/2020 12:15:00 PM 3 37.4 0.047 7.37 1.29 13.75
12/11/2020 12:30:00 PM 3.1 37.58 0.047 7.43 1.33 13.72
12/11/2020 12:45:00 PM 3.22 37.796 0.047 7.42 1.32 13.67
12/11/2020 1:00:00 PM 3.34 38.012 0.047 7.44 1.29 13.64
12/11/2020 1:15:00 PM 3.43 38.174 0.047 7.44 1.29 13.61
12/11/2020 1:30:00 PM 3.54 38.372 0.047 7.38 1.26 13.56
12/11/2020 1:45:00 PM 3.65 38.57 0.047 7.45 1.27 13.53
12/11/2020 2:00:00 PM 3.72 38.696 0.047 7.45 1.28 13.5
12/11/2020 2:15:00 PM 3.79 38.822 0.047 7.45 1.26 13.47
12/11/2020 2:30:00 PM 3.87 38.966 0.047 7.47 1.27 13.43
12/11/2020 2:45:00 PM 3.93 39.074 0.047 7.47 1.27 13.38
12/11/2020 3:00:00 PM 3.94 39.092 0.047 7.43 1.3 13.35
12/11/2020 3:15:00 PM 3.97 39.146 0.047 7.41 1.28 13.31
12/11/2020 3:30:00 PM 4 39.2 0.047 7.42 1.32 13.28
12/11/2020 3:45:00 PM 3.99 39.182 0.047 7.45 1.31 13.23
12/11/2020 4:00:00 PM 3.99 39.182 0.047 7.38 1.33 13.21
12/11/2020 4:15:00 PM 3.99 39.182 0.047 7.36 1.28 13.17
12/11/2020 4:30:00 PM 3.97 39.146 0.047 7.42 1.32 13.11
12/11/2020 4:45:00 PM 3.94 39.092 0.047 7.38 1.36 13.06
12/11/2020 5:00:00 PM 3.92 39.056 0.047 7.36 1.49 13.01
12/11/2020 5:15:00 PM 3.88 38.984 0.047 7.34 1.45 12.97
12/11/2020 5:30:00 PM 3.85 38.93 0.047 7.33 1.35 12.95
12/11/2020 5:45:00 PM 3.81 38.858 0.047 7.32 1.33 12.92
12/11/2020 6:00:00 PM 3.77 38.786 0.048 7.26 1.62 12.91
12/11/2020 6:15:00 PM 3.72 38.696 0.048 7.3 1.45 12.91
12/11/2020 6:30:00 PM 3.68 38.624 0.048 7.29 1.39 12.91
12/11/2020 6:45:00 PM 3.66 38.588 0.048 7.22 1.33 12.91
12/11/2020 7:00:00 PM 3.63 38.534 0.048 7.23 1.42 12.92
12/11/2020 7:15:00 PM 3.61 38.498 0.048 7.28 1.37 12.92
12/11/2020 7:30:00 PM 3.6 38.48 0.048 7.27 1.34 12.92
12/11/2020 7:45:00 PM 3.59 38.462 0.048 7.28 1.35 12.92
12/11/2020 8:00:00 PM 3.58 38.444 0.048 7.21 1.35 12.92
12/11/2020 8:15:00 PM 3.57 38.426 0.048 7.26 1.39 12.94
12/11/2020 8:30:00 PM 3.56 38.408 0.048 7.27 1.39 12.93
12/11/2020 8:45:00 PM 3.55 38.39 0.048 7.27 1.37 12.94
12/11/2020 9:00:00 PM 3.53 38.354 0.048 7.26 1.39 12.94
12/11/2020 9:15:00 PM 3.51 38.318 0.048 7.21 1.35 12.94
12/11/2020 9:30:00 PM 3.49 38.282 0.048 7.25 1.32 12.95
12/11/2020 9:45:00 PM 3.46 38.228 0.048 7.27 1.38 12.95
12/11/2020 10:00:00 PM 3.43 38.174 0.048 7.27 1.38 12.97
12/11/2020 10:15:00 PM 3.4 38.12 0.048 7.23 1.35 12.97
12/11/2020 10:30:00 PM 3.37 38.066 0.048 7.2 1.36 12.98
12/11/2020 10:45:00 PM 3.34 38.012 0.048 7.24 1.35 12.99
12/11/2020 11:00:00 PM 3.31 37.958 0.048 7.21 1.42 13.01
12/11/2020 11:15:00 PM 3.28 37.904 0.048 7.2 1.37 13.01
12/11/2020 11:30:00 PM 3.24 37.832 0.048 7.2 1.39 13.02
12/11/2020 11:45:00 PM 3.22 37.796 0.048 7.22 1.36 13.03
12/12/2020 12:00:00 AM 3.2 37.76 0.048 7.24 1.37 13.04
12/12/2020 12:15:00 AM 3.18 37.724 0.048 7.26 1.36 13.04
12/12/2020 12:30:00 AM 3.15 37.67 0.048 7.19 1.35 13.06
12/12/2020 12:45:00 AM 3.13 37.634 0.048 7.21 1.37 13.07
12/12/2020 1:00:00 AM 3.11 37.598 0.048 7.21 1.35 13.08
12/12/2020 1:15:00 AM 3.08 37.544 0.048 7.25 1.37 13.09
12/12/2020 1:30:00 AM 3.07 37.526 0.048 7.24 1.32 13.1
12/12/2020 1:45:00 AM 3.05 37.49 0.048 7.25 1.35 13.1
12/12/2020 2:00:00 AM 3.03 37.454 0.048 7.2 1.37 13.11
12/12/2020 2:15:00 AM 3 37.4 0.048 7.25 1.33 13.12
12/12/2020 2:30:00 AM 2.98 37.364 0.048 7.24 1.36 13.13
12/12/2020 2:45:00 AM 2.95 37.31 0.048 7.22 1.38 13.15
12/12/2020 3:00:00 AM 2.93 37.274 0.048 7.22 1.38 13.15
12/12/2020 3:15:00 AM 2.91 37.238 0.048 7.25 1.41 13.17
12/12/2020 3:30:00 AM 2.89 37.202 0.048 7.21 1.35 13.17
12/12/2020 3:45:00 AM 2.86 37.148 0.048 7.2 1.39 13.18
12/12/2020 4:00:00 AM 2.83 37.094 0.048 7.21 1.38 13.18
12/12/2020 4:15:00 AM 2.8 37.04 0.048 7.21 1.43 13.19
12/12/2020 4:30:00 AM 2.78 37.004 0.048 7.24 1.36 13.21
12/12/2020 4:45:00 AM 2.76 36.968 0.048 7.18 1.37 13.21
12/12/2020 5:00:00 AM 2.74 36.932 0.048 7.19 1.42 13.22
12/12/2020 5:15:00 AM 2.73 36.914 0.048 7.25 1.38 13.23
12/12/2020 5:30:00 AM 2.72 36.896 0.048 7.16 1.39 13.24
12/12/2020 5:45:00 AM 2.72 36.896 0.049 7.19 1.36 13.24
12/12/2020 6:00:00 AM 2.71 36.878 0.049 7.25 1.37 13.25
12/12/2020 6:15:00 AM 2.7 36.86 0.049 7.17 1.41 13.24
12/12/2020 6:30:00 AM 2.7 36.86 0.049 7.19 1.37 13.24
12/12/2020 6:45:00 AM 2.7 36.86 0.049 7.19 1.42 13.24
12/12/2020 7:00:00 AM 2.7 36.86 0.049 7.21 1.35 13.24
12/12/2020 7:15:00 AM 2.69 36.842 0.049 7.2 1.35 13.25
12/12/2020 7:30:00 AM 2.7 36.86 0.049 7.19 1.37 13.25
12/12/2020 7:45:00 AM 2.71 36.878 0.049 7.2 1.37 13.25
12/12/2020 8:00:00 AM 2.71 36.878 0.049 7.19 1.53 13.27
12/12/2020 8:15:00 AM 2.72 36.896 0.048 7.21 1.46 13.32
12/12/2020 8:30:00 AM 2.73 36.914 0.048 7.22 1.39 13.37
12/12/2020 8:45:00 AM 2.75 36.95 0.048 7.23 1.3 13.42
12/12/2020 9:00:00 AM 2.78 37.004 0.048 7.27 1.32 13.47
12/12/2020 9:15:00 AM 2.81 37.058 0.048 7.26 1.35 13.51
12/12/2020 9:30:00 AM 2.86 37.148 0.048 7.3 1.44 13.57
12/12/2020 9:45:00 AM 2.89 37.202 0.048 7.36 1.42 13.59
12/12/2020 10:00:00 AM 2.93 37.274 0.048 7.38 1.39 13.61
12/12/2020 10:15:00 AM 2.96 37.328 0.048 7.32 1.41 13.64
12/12/2020 10:30:00 AM 3.04 37.472 0.048 7.35 1.34 13.63
12/12/2020 10:45:00 AM 3.09 37.562 0.048 7.35 1.29 13.63
12/12/2020 11:00:00 AM 3.16 37.688 0.048 7.37 1.35 13.63
12/12/2020 11:15:00 AM 3.26 37.868 0.048 7.39 1.28 13.62
12/12/2020 11:30:00 AM 3.35 38.03 0.048 7.4 1.31 13.61
12/12/2020 11:45:00 AM 3.44 38.192 0.047 7.43 1.31 13.59
12/12/2020 12:00:00 PM 3.53 38.354 0.047 7.4 1.33 13.57
12/12/2020 12:15:00 PM 3.62 38.516 0.047 7.47 1.34 13.55
12/12/2020 12:30:00 PM 3.75 38.75 0.047 7.49 1.28 13.52
12/12/2020 12:45:00 PM 3.93 39.074 0.047 7.43 1.3 13.46
12/12/2020 1:00:00 PM 4 39.2 0.047 7.5 1.4 13.41
12/12/2020 1:15:00 PM 4.02 39.236 0.047 7.42 1.38 13.37
12/12/2020 1:30:00 PM 4.1 39.38 0.047 7.49 1.32 13.31
12/12/2020 1:45:00 PM 4.2 39.56 0.047 7.49 1.26 13.26
12/12/2020 2:00:00 PM 4.28 39.704 0.047 7.49 1.27 13.23
12/12/2020 2:15:00 PM 4.32 39.776 0.047 7.46 1.48 13.19
12/12/2020 2:30:00 PM 4.36 39.848 0.047 7.49 1.37 13.16
12/12/2020 2:45:00 PM 4.43 39.974 0.047 7.49 1.75 13.12
12/12/2020 3:00:00 PM 4.5 40.1 0.047 7.49 1.47 13.08
12/12/2020 3:15:00 PM 4.57 40.226 0.047 7.41 1.44 13.01
12/12/2020 3:30:00 PM 4.63 40.334 0.047 7.41 1.36 12.97
12/12/2020 3:45:00 PM 4.65 40.37 0.047 7.41 1.31 12.92
12/12/2020 4:00:00 PM 4.69 40.442 0.047 7.4 1.36 12.87
12/12/2020 4:15:00 PM 4.72 40.496 0.047 7.39 1.33 12.8
12/12/2020 4:30:00 PM 4.74 40.532 0.047 7.42 1.35 12.74
12/12/2020 4:45:00 PM 4.77 40.586 0.047 7.39 1.33 12.68
12/12/2020 5:00:00 PM 4.78 40.604 0.047 7.36 1.46 12.63
12/12/2020 5:15:00 PM 4.78 40.604 0.047 7.38 1.4 12.58
12/12/2020 5:30:00 PM 4.78 40.604 0.048 7.34 1.34 12.55
12/12/2020 5:45:00 PM 4.79 40.622 0.048 7.32 1.4 12.52
12/12/2020 6:00:00 PM 4.79 40.622 0.048 7.34 1.41 12.5
12/12/2020 6:15:00 PM 4.79 40.622 0.048 7.33 1.37 12.48
12/12/2020 6:30:00 PM 4.79 40.622 0.048 7.32 1.4 12.47
12/12/2020 6:45:00 PM 4.8 40.64 0.048 7.32 1.4 12.46
12/12/2020 7:00:00 PM 4.8 40.64 0.048 7.25 1.37 12.44
12/12/2020 7:15:00 PM 4.8 40.64 0.048 7.31 1.41 12.44
12/12/2020 7:30:00 PM 4.81 40.658 0.048 7.31 1.39 12.44
12/12/2020 7:45:00 PM 4.82 40.676 0.048 7.31 1.42 12.43
12/12/2020 8:00:00 PM 4.84 40.712 0.048 7.29 1.38 12.42
12/12/2020 8:15:00 PM 4.84 40.712 0.048 7.24 1.43 12.42
12/12/2020 8:30:00 PM 4.86 40.748 0.048 7.26 1.36 12.41
12/12/2020 8:45:00 PM 4.88 40.784 0.048 7.25 1.42 12.4
12/12/2020 9:00:00 PM 4.9 40.82 0.048 7.28 1.38 12.4
12/12/2020 9:15:00 PM 4.94 40.892 0.048 7.29 1.41 12.38
12/12/2020 9:30:00 PM 4.97 40.946 0.048 7.27 1.43 12.37
12/12/2020 9:45:00 PM 5.02 41.036 0.048 7.3 1.42 12.36
12/12/2020 10:00:00 PM 5.04 41.072 0.048 7.3 1.39 12.34
12/12/2020 10:15:00 PM 5.05 41.09 0.048 7.29 1.49 12.33
12/12/2020 10:30:00 PM 5.07 41.126 0.048 7.3 1.38 12.32
12/12/2020 10:45:00 PM 5.08 41.144 0.048 7.31 1.41 12.32
12/12/2020 11:00:00 PM 5.11 41.198 0.048 7.31 1.42 12.31
12/12/2020 11:15:00 PM 5.11 41.198 0.048 7.28 1.43 12.3
12/12/2020 11:30:00 PM 5.11 41.198 0.048 7.31 1.41 12.3
12/12/2020 11:45:00 PM 5.12 41.216 0.048 7.31 1.46 12.29
12/13/2020 12:00:00 AM 5.13 41.234 0.048 7.28 1.45 12.29
12/13/2020 12:15:00 AM 5.13 41.234 0.048 7.31 1.46 12.28
12/13/2020 12:30:00 AM 5.15 41.27 0.048 7.31 1.44 12.28
12/13/2020 12:45:00 AM 5.17 41.306 0.048 7.24 1.43 12.27
12/13/2020 1:00:00 AM 5.2 41.36 0.048 7.31 1.42 12.26
12/13/2020 1:15:00 AM 5.23 41.414 0.048 7.24 1.43 12.26
12/13/2020 1:30:00 AM 5.25 41.45 0.048 7.33 1.42 12.25
12/13/2020 1:45:00 AM 5.29 41.522 0.048 7.26 1.5 12.24
12/13/2020 2:00:00 AM 5.31 41.558 0.048 7.27 1.39 12.24
12/13/2020 2:15:00 AM 5.32 41.576 0.048 7.3 1.46 12.23
12/13/2020 2:30:00 AM 5.34 41.612 0.048 7.31 1.51 12.22
12/13/2020 2:45:00 AM 5.34 41.612 0.048 7.31 1.48 12.22
12/13/2020 3:00:00 AM 5.32 41.576 0.048 7.25 1.51 12.23
12/13/2020 3:15:00 AM 5.31 41.558 0.048 7.26 1.48 12.22
12/13/2020 3:30:00 AM 5.29 41.522 0.048 7.25 1.48 12.22
12/13/2020 3:45:00 AM 5.28 41.504 0.048 7.26 1.51 12.23
12/13/2020 4:00:00 AM 5.27 41.486 0.048 7.25 1.48 12.23
12/13/2020 4:15:00 AM 5.26 41.468 0.048 7.26 1.54 12.23
12/13/2020 4:30:00 AM 5.23 41.414 0.048 7.28 1.51 12.24
12/13/2020 4:45:00 AM 5.2 41.36 0.048 7.25 1.69 12.25
12/13/2020 5:00:00 AM 5.17 41.306 0.048 7.26 1.65 12.25
12/13/2020 5:15:00 AM 5.14 41.252 0.048 7.26 1.64 12.26
12/13/2020 5:30:00 AM 5.11 41.198 0.048 7.26 1.65 12.27
12/13/2020 5:45:00 AM 5.07 41.126 0.048 7.29 1.65 12.29
12/13/2020 6:00:00 AM 5.05 41.09 0.048 7.31 1.71 12.3
12/13/2020 6:15:00 AM 5.03 41.054 0.048 7.24 1.71 12.31
12/13/2020 6:30:00 AM 5.02 41.036 0.048 7.32 1.63 12.32
12/13/2020 6:45:00 AM 5.01 41.018 0.048 7.32 1.65 12.33
12/13/2020 7:00:00 AM 5.01 41.018 0.048 7.32 1.62 12.33
12/13/2020 7:15:00 AM 5.01 41.018 0.048 7.32 1.57 12.34
12/13/2020 7:30:00 AM 5.02 41.036 0.048 7.32 1.61 12.35
12/13/2020 7:45:00 AM 5.02 41.036 0.048 7.31 1.53 12.35
12/13/2020 8:00:00 AM 5.02 41.036 0.048 7.32 1.55 12.37
12/13/2020 8:15:00 AM 5.03 41.054 0.048 7.27 1.57 12.38
12/13/2020 8:30:00 AM 5.03 41.054 0.048 7.27 1.62 12.4
12/13/2020 8:45:00 AM 5.04 41.072 0.048 7.33 1.53 12.43
12/13/2020 9:00:00 AM 5.06 41.108 0.048 7.36 1.5 12.51
12/13/2020 9:15:00 AM 5.09 41.162 0.048 7.35 1.56 12.59
12/13/2020 9:30:00 AM 5.1 41.18 0.048 7.4 1.55 12.65
12/13/2020 9:45:00 AM 5.13 41.234 0.048 7.38 1.5 12.7
12/13/2020 10:00:00 AM 5.18 41.324 0.048 7.43 1.46 12.76
12/13/2020 10:15:00 AM 5.2 41.36 0.048 7.39 1.43 12.79
12/13/2020 10:30:00 AM 5.22 41.396 0.048 7.42 1.46 12.83
12/13/2020 10:45:00 AM 5.25 41.45 0.048 7.46 1.48 12.86
12/13/2020 11:00:00 AM 5.28 41.504 0.047 7.46 1.49 12.89
12/13/2020 11:15:00 AM 5.31 41.558 0.047 7.5 1.45 12.91
12/13/2020 11:30:00 AM 5.33 41.594 0.047 7.52 1.49 12.92
12/13/2020 11:45:00 AM 5.37 41.666 0.047 7.49 1.46 12.92
12/13/2020 12:00:00 PM 5.43 41.774 0.047 7.5 1.47 12.92
12/13/2020 12:15:00 PM 5.39 41.702 0.047 7.5 1.44 12.9
12/13/2020 12:30:00 PM 5.44 41.792 0.047 7.58 1.45 12.92
12/13/2020 12:45:00 PM 5.47 41.846 0.047 7.56 1.46 12.9
12/13/2020 1:00:00 PM 5.51 41.918 0.047 7.57 1.43 12.91
12/13/2020 1:15:00 PM 5.54 41.972 0.047 7.52 1.48 12.89
12/13/2020 1:30:00 PM 5.51 41.918 0.047 7.58 1.43 12.86
12/13/2020 1:45:00 PM 5.51 41.918 0.047 7.56 1.43 12.85
12/13/2020 2:00:00 PM 5.56 42.008 0.047 7.56 1.46 12.84
12/13/2020 2:15:00 PM 5.58 42.044 0.047 7.54 1.5 12.85
12/13/2020 2:30:00 PM 5.57 42.026 0.047 7.59 1.46 12.86
12/13/2020 2:45:00 PM 5.54 41.972 0.047 7.58 1.45 12.81
12/13/2020 3:00:00 PM 5.55 41.99 0.047 7.58 1.47 12.82
12/13/2020 3:15:00 PM 5.55 41.99 0.047 7.57 1.44 12.78
12/13/2020 3:30:00 PM 5.54 41.972 0.047 7.57 1.44 12.8
12/13/2020 3:45:00 PM 5.51 41.918 0.047 7.56 1.53 12.78
12/13/2020 4:00:00 PM 5.47 41.846 0.047 7.54 1.46 12.74
12/13/2020 4:15:00 PM 5.45 41.81 0.047 7.52 1.47 12.69
12/13/2020 4:30:00 PM 5.43 41.774 0.047 7.49 1.49 12.62
12/13/2020 4:45:00 PM 5.4 41.72 0.047 7.47 1.45 12.56
12/13/2020 5:00:00 PM 5.37 41.666 0.047 7.45 1.47 12.51
12/13/2020 5:15:00 PM 5.33 41.594 0.048 7.43 1.47 12.47
12/13/2020 5:30:00 PM 5.29 41.522 0.048 7.41 1.53 12.44
12/13/2020 5:45:00 PM 5.27 41.486 0.048 7.4 1.51 12.42
12/13/2020 6:00:00 PM 5.24 41.432 0.048 7.37 1.54 12.4
12/13/2020 6:15:00 PM 5.21 41.378 0.048 7.31 1.53 12.39
12/13/2020 6:30:00 PM 5.17 41.306 0.048 7.33 1.53 12.38
12/13/2020 6:45:00 PM 5.14 41.252 0.048 7.33 1.52 12.38
12/13/2020 7:00:00 PM 5.11 41.198 0.048 7.3 1.51 12.39
12/13/2020 7:15:00 PM 5.09 41.162 0.048 7.3 1.54 12.39
12/13/2020 7:30:00 PM 5.07 41.126 0.048 7.35 1.54 12.39
12/13/2020 7:45:00 PM 5.05 41.09 0.048 7.27 1.46 12.41
12/13/2020 8:00:00 PM 5.02 41.036 0.048 7.29 1.51 12.42
12/13/2020 8:15:00 PM 5 41 0.048 7.33 1.47 12.42
12/13/2020 8:30:00 PM 4.97 40.946 0.048 7.27 1.5 12.43
12/13/2020 8:45:00 PM 4.94 40.892 0.048 7.3 1.55 12.43
12/13/2020 9:00:00 PM 4.92 40.856 0.048 7.34 1.54 12.44
12/13/2020 9:15:00 PM 4.9 40.82 0.048 7.33 1.54 12.44
12/13/2020 9:30:00 PM 4.88 40.784 0.048 7.32 1.54 12.45
12/13/2020 9:45:00 PM 4.86 40.748 0.048 7.32 1.51 12.46
12/13/2020 10:00:00 PM 4.84 40.712 0.048 7.32 1.55 12.46
12/13/2020 10:15:00 PM 4.82 40.676 0.048 7.26 1.53 12.47
12/13/2020 10:30:00 PM 4.8 40.64 0.048 7.33 1.51 12.47
12/13/2020 10:45:00 PM 4.78 40.604 0.048 7.32 1.48 12.48
12/13/2020 11:00:00 PM 4.76 40.568 0.048 7.3 1.48 12.49
12/13/2020 11:15:00 PM 4.75 40.55 0.049 7.33 1.53 12.49
12/13/2020 11:30:00 PM 4.72 40.496 0.049 7.27 1.54 12.49
12/13/2020 11:45:00 PM 4.71 40.478 0.049 7.27 1.52 12.5
12/14/2020 12:00:00 AM 4.69 40.442 0.049 7.29 1.5 12.51
12/14/2020 12:15:00 AM 4.67 40.406 0.049 7.27 1.51 12.51
12/14/2020 12:30:00 AM 4.65 40.37 0.049 7.32 1.53 12.52
12/14/2020 12:45:00 AM 4.63 40.334 0.049 7.27 1.49 12.52
12/14/2020 1:00:00 AM 4.61 40.298 0.049 7.26 1.49 12.52
12/14/2020 1:15:00 AM 4.6 40.28 0.049 7.29 1.48 12.52
12/14/2020 1:30:00 AM 4.58 40.244 0.049 7.29 1.53 12.53
12/14/2020 1:45:00 AM 4.55 40.19 0.049 7.28 1.47 12.54
12/14/2020 2:00:00 AM 4.54 40.172 0.049 7.26 1.47 12.53
12/14/2020 2:15:00 AM 4.51 40.118 0.049 7.27 1.51 12.55
12/14/2020 2:30:00 AM 4.5 40.1 0.049 7.31 1.47 12.54
12/14/2020 2:45:00 AM 4.48 40.064 0.049 7.31 1.47 12.55
12/14/2020 3:00:00 AM 4.45 40.01 0.049 7.29 1.5 12.55
12/14/2020 3:15:00 AM 4.44 39.992 0.049 7.26 1.53 12.55
12/14/2020 3:30:00 AM 4.42 39.956 0.049 7.26 1.49 12.57
12/14/2020 3:45:00 AM 4.4 39.92 0.049 7.27 1.51 12.57
12/14/2020 4:00:00 AM 4.38 39.884 0.049 7.32 1.47 12.58
12/14/2020 4:15:00 AM 4.36 39.848 0.049 7.29 1.45 12.59
12/14/2020 4:30:00 AM 4.34 39.812 0.049 7.31 1.51 12.59
12/14/2020 4:45:00 AM 4.29 39.722 0.049 7.26 1.46 12.6
12/14/2020 5:00:00 AM 4.25 39.65 0.049 7.32 1.47 12.61
12/14/2020 5:15:00 AM 4.22 39.596 0.049 7.31 1.62 12.62
12/14/2020 5:30:00 AM 4.17 39.506 0.049 7.31 1.5 12.62
12/14/2020 5:45:00 AM 4.13 39.434 0.049 7.3 1.48 12.63
12/14/2020 6:00:00 AM 4.1 39.38 0.049 7.27 1.52 12.65
12/14/2020 6:15:00 AM 4.07 39.326 0.049 7.3 1.51 12.67
12/14/2020 6:30:00 AM 4.06 39.308 0.049 7.23 1.48 12.68
12/14/2020 6:45:00 AM 4.03 39.254 0.049 7.24 1.5 12.68
12/14/2020 7:00:00 AM 4 39.2 0.049 7.24 1.49 12.69
12/14/2020 7:15:00 AM 3.98 39.164 0.049 7.3 1.46 12.7
12/14/2020 7:30:00 AM 3.96 39.128 0.049 7.21 1.51 12.7
12/14/2020 7:45:00 AM 3.92 39.056 0.049 7.25 1.47 12.71
12/14/2020 8:00:00 AM 3.89 39.002 0.049 7.23 1.5 12.72
12/14/2020 8:15:00 AM 3.85 38.93 0.049 7.31 1.48 12.75
12/14/2020 8:30:00 AM 3.85 38.93 0.049 7.31 1.51 12.8
12/14/2020 8:45:00 AM 3.85 38.93 0.049 7.32 1.51 12.86
12/14/2020 9:00:00 AM 3.84 38.912 0.049 7.3 1.46 12.9
12/14/2020 9:15:00 AM 3.85 38.93 0.048 7.34 1.46 12.95
12/14/2020 9:30:00 AM 3.87 38.966 0.048 7.38 1.47 13.03
12/14/2020 9:45:00 AM 3.89 39.002 0.048 7.39 1.47 13.09
12/14/2020 10:00:00 AM 3.91 39.038 0.048 7.41 1.46 13.15
12/14/2020 10:15:00 AM 3.94 39.092 0.048 7.43 1.52 13.18
12/14/2020 10:30:00 AM 3.96 39.128 0.048 7.43 1.49 13.21
12/14/2020 10:45:00 AM 3.98 39.164 0.048 7.42 1.47 13.21
12/14/2020 11:00:00 AM 4 39.2 0.048 7.42 1.48 13.22
12/14/2020 11:15:00 AM 4.01 39.218 0.048 7.4 1.42 13.23
12/14/2020 11:30:00 AM 4.03 39.254 0.048 7.42 1.48 13.24
12/14/2020 11:45:00 AM 4.07 39.326 0.048 7.49 1.41 13.26
12/14/2020 12:00:00 PM 4.1 39.38 0.048 7.47 1.45 13.27
12/14/2020 12:15:00 PM 4.12 39.416 0.048 7.51 1.48 13.27
12/14/2020 12:30:00 PM 4.15 39.47 0.048 7.52 1.44 13.28
12/14/2020 12:45:00 PM 4.18 39.524 0.048 7.53 1.41 13.28
12/14/2020 1:00:00 PM 4.25 39.65 0.048 7.56 1.4 13.29
12/14/2020 1:15:00 PM 4.26 39.668 0.048 7.57 1.44 13.27
12/14/2020 1:30:00 PM 4.26 39.668 0.048 7.55 1.42 13.25
12/14/2020 1:45:00 PM 4.26 39.668 0.048 7.54 1.46 13.2
12/14/2020 2:00:00 PM 4.28 39.704 0.048 7.52 1.39 13.19
12/14/2020 2:15:00 PM 4.28 39.704 0.048 7.47 1.4 13.19
12/14/2020 2:30:00 PM 4.26 39.668 0.048 7.54 1.46 13.18
12/14/2020 2:45:00 PM 4.25 39.65 0.048 7.48 1.37 13.2
12/14/2020 3:00:00 PM 4.27 39.686 0.048 7.5 1.38 13.19
12/14/2020 3:15:00 PM 4.24 39.632 0.048 7.5 1.45 13.13
12/14/2020 3:30:00 PM 4.21 39.578 0.048 7.49 1.42 13.08
12/14/2020 3:45:00 PM 4.19 39.542 0.048 7.43 1.47 13.04
12/14/2020 4:00:00 PM 4.17 39.506 0.048 7.41 1.44 12.99
12/14/2020 4:15:00 PM 4.16 39.488 0.048 7.4 1.41 12.96
12/14/2020 4:30:00 PM 4.12 39.416 0.048 7.43 1.44 12.92
12/14/2020 4:45:00 PM 4.08 39.344 0.048 7.38 1.45 12.89
12/14/2020 5:00:00 PM 4.05 39.29 0.048 7.39 1.48 12.86
12/14/2020 5:15:00 PM 4 39.2 0.048 7.33 1.43 12.83
12/14/2020 5:30:00 PM 3.96 39.128 0.048 7.3 1.44 12.82
12/14/2020 5:45:00 PM 3.91 39.038 0.048 7.36 1.52 12.81
12/14/2020 6:00:00 PM 3.85 38.93 0.048 7.29 1.52 12.81
12/14/2020 6:15:00 PM 3.81 38.858 0.048 7.3 1.52 12.82
12/14/2020 6:30:00 PM 3.76 38.768 0.048 7.31 1.48 12.83
12/14/2020 6:45:00 PM 3.69 38.642 0.049 7.28 1.5 12.85
12/14/2020 7:00:00 PM 3.63 38.534 0.049 7.28 1.53 12.87
12/14/2020 7:15:00 PM 3.57 38.426 0.049 7.32 1.46 12.89
12/14/2020 7:30:00 PM 3.52 38.336 0.049 7.25 1.5 12.91
12/14/2020 7:45:00 PM 3.47 38.246 0.049 7.31 1.45 12.92
12/14/2020 8:00:00 PM 3.42 38.156 0.049 7.28 1.45 12.94
12/14/2020 8:15:00 PM 3.38 38.084 0.049 7.26 1.44 12.97
12/14/2020 8:30:00 PM 3.33 37.994 0.049 7.28 1.48 12.98
12/14/2020 8:45:00 PM 3.3 37.94 0.049 7.32 1.44 13
12/14/2020 9:00:00 PM 3.25 37.85 0.049 7.24 1.5 13.01
12/14/2020 9:15:00 PM 3.22 37.796 0.049 7.32 1.51 13.02
12/14/2020 9:30:00 PM 3.19 37.742 0.049 7.31 1.45 13.03
12/14/2020 9:45:00 PM 3.16 37.688 0.049 7.23 1.45 13.05
12/14/2020 10:00:00 PM 3.15 37.67 0.049 7.31 1.45 13.06
12/14/2020 10:15:00 PM 3.13 37.634 0.049 7.3 1.46 13.06
12/14/2020 10:30:00 PM 3.1 37.58 0.049 7.28 1.46 13.08
12/14/2020 10:45:00 PM 3.07 37.526 0.049 7.25 1.48 13.1
12/14/2020 11:00:00 PM 3.04 37.472 0.049 7.24 1.49 13.1
12/14/2020 11:15:00 PM 3 37.4 0.049 7.3 1.46 13.12
12/14/2020 11:30:00 PM 2.96 37.328 0.049 7.26 1.53 13.14
12/14/2020 11:45:00 PM 2.91 37.238 0.049 7.31 1.46 13.16
12/15/2020 12:00:00 AM 2.87 37.166 0.049 7.22 1.49 13.17
12/15/2020 12:15:00 AM 2.83 37.094 0.049 7.31 1.49 13.19
12/15/2020 12:30:00 AM 2.8 37.04 0.049 7.3 1.49 13.2
12/15/2020 12:45:00 AM 2.78 37.004 0.049 7.3 1.48 13.21
12/15/2020 1:00:00 AM 2.77 36.986 0.049 7.22 1.56 13.22
12/15/2020 1:15:00 AM 2.75 36.95 0.049 7.3 1.48 13.23
12/15/2020 1:30:00 AM 2.7 36.86 0.049 7.25 1.47 13.25
12/15/2020 1:45:00 AM 2.65 36.77 0.049 7.3 1.53 13.27
12/15/2020 2:00:00 AM 2.63 36.734 0.049 7.25 1.48 13.27
12/15/2020 2:15:00 AM 2.6 36.68 0.049 7.24 1.49 13.29
12/15/2020 2:30:00 AM 2.58 36.644 0.049 7.23 1.47 13.3
12/15/2020 2:45:00 AM 2.55 36.59 0.049 7.29 1.5 13.32
12/15/2020 3:00:00 AM 2.51 36.518 0.049 7.29 1.44 13.34
12/15/2020 3:15:00 AM 2.48 36.464 0.049 7.21 1.46 13.35
12/15/2020 3:30:00 AM 2.45 36.41 0.049 7.27 1.47 13.36
12/15/2020 3:45:00 AM 2.43 36.374 0.049 7.29 1.54 13.37
12/15/2020 4:00:00 AM 2.41 36.338 0.049 7.2 1.47 13.39
12/15/2020 4:15:00 AM 2.39 36.302 0.049 7.23 1.45 13.39
12/15/2020 4:30:00 AM 2.37 36.266 0.049 7.23 1.43 13.41
12/15/2020 4:45:00 AM 2.36 36.248 0.049 7.28 1.47 13.42
12/15/2020 5:00:00 AM 2.34 36.212 0.049 7.23 1.49 13.43
12/15/2020 5:15:00 AM 2.32 36.176 0.049 7.23 1.48 13.44
12/15/2020 5:30:00 AM 2.3 36.14 0.049 7.28 1.49 13.45
12/15/2020 5:45:00 AM 2.28 36.104 0.049 7.21 1.47 13.46
12/15/2020 6:00:00 AM 2.27 36.086 0.049 7.24 1.49 13.47
12/15/2020 6:15:00 AM 2.25 36.05 0.049 7.22 1.45 13.48
12/15/2020 6:30:00 AM 2.23 36.014 0.049 7.28 1.49 13.5
12/15/2020 6:45:00 AM 2.21 35.978 0.049 7.21 1.5 13.5
12/15/2020 7:00:00 AM 2.19 35.942 0.049 7.23 1.44 13.49
12/15/2020 7:15:00 AM 2.17 35.906 0.049 7.23 1.55 13.52
12/15/2020 7:30:00 AM 2.15 35.87 0.049 7.19 1.49 13.53
12/15/2020 7:45:00 AM 2.13 35.834 0.049 7.23 1.48 13.56
12/15/2020 8:00:00 AM 2.12 35.816 0.049 7.23 1.44 13.59
12/15/2020 8:15:00 AM 2.11 35.798 0.049 7.27 1.46 13.66
12/15/2020 8:30:00 AM 2.1 35.78 0.049 7.24 1.41 13.73
12/15/2020 8:45:00 AM 2.09 35.762 0.049 7.28 1.46 13.81
12/15/2020 9:00:00 AM 2.09 35.762 0.049 7.29 1.46 13.87
12/15/2020 9:15:00 AM 2.1 35.78 0.049 7.29 1.47 13.94
12/15/2020 9:30:00 AM 2.09 35.762 0.049 7.33 1.44 13.99
12/15/2020 9:45:00 AM 2.11 35.798 0.049 7.35 1.44 14.02
12/15/2020 10:00:00 AM 2.14 35.852 0.049 7.41 1.43 14.06
12/15/2020 10:15:00 AM 2.15 35.87 0.049 7.36 1.44 14.09
12/15/2020 10:30:00 AM 2.16 35.888 0.048 7.38 1.44 14.12
12/15/2020 10:45:00 AM 2.17 35.906 0.048 7.43 1.43 14.15
12/15/2020 11:00:00 AM 2.24 36.032 0.048 7.39 1.39 14.13
12/15/2020 11:15:00 AM 2.24 36.032 0.048 7.39 1.39 14.14
12/15/2020 11:30:00 AM 2.26 36.068 0.048 7.45 1.42 14.14
12/15/2020 11:45:00 AM 2.35 36.23 0.048 7.4 1.43 14.11
12/15/2020 12:00:00 PM 2.39 36.302 0.048 7.44 1.39 14.1
12/15/2020 12:15:00 PM 2.42 36.356 0.048 7.47 1.39 14.11
12/15/2020 12:30:00 PM 2.42 36.356 0.048 7.42 1.38 14.09
12/15/2020 12:45:00 PM 2.47 36.446 0.048 7.43 1.39 14.07
12/15/2020 1:00:00 PM 2.54 36.572 0.048 7.43 1.39 14.05
12/15/2020 1:15:00 PM 2.57 36.626 0.048 7.47 1.36 14.03
12/15/2020 1:30:00 PM 2.57 36.626 0.048 7.42 1.39 14.03
12/15/2020 1:45:00 PM 2.59 36.662 0.048 7.43 1.35 14.02
12/15/2020 2:00:00 PM 2.64 36.752 0.048 7.48 1.42 14.02
12/15/2020 2:15:00 PM 2.66 36.788 0.048 7.47 1.37 14
12/15/2020 2:30:00 PM 2.67 36.806 0.048 7.48 1.37 13.99
12/15/2020 2:45:00 PM 2.66 36.788 0.048 7.5 1.4 13.98
12/15/2020 3:00:00 PM 2.64 36.752 0.048 7.47 1.39 13.95
12/15/2020 3:15:00 PM 2.62 36.716 0.048 7.46 1.43 13.94
12/15/2020 3:30:00 PM 2.6 36.68 0.048 7.47 1.45 13.93
12/15/2020 3:45:00 PM 2.56 36.608 0.048 7.45 1.4 13.91
12/15/2020 4:00:00 PM 2.52 36.536 0.048 7.45 1.41 13.9
12/15/2020 4:15:00 PM 2.49 36.482 0.048 7.43 1.46 13.86
12/15/2020 4:30:00 PM 2.43 36.374 0.048 7.42 1.41 13.83
12/15/2020 4:45:00 PM 2.38 36.284 0.048 7.4 1.44 13.77
12/15/2020 5:00:00 PM 2.33 36.194 0.048 7.39 1.39 13.73
12/15/2020 5:15:00 PM 2.28 36.104 0.048 7.29 1.43 13.7
12/15/2020 5:30:00 PM 2.23 36.014 0.048 7.35 1.46 13.69
12/15/2020 5:45:00 PM 2.18 35.924 0.048 7.31 1.43 13.66
12/15/2020 6:00:00 PM 2.14 35.852 0.049 7.25 1.42 13.64
12/15/2020 6:15:00 PM 2.08 35.744 0.049 7.32 1.42 13.65
12/15/2020 6:30:00 PM 2.03 35.654 0.049 7.32 1.42 13.65
12/15/2020 6:45:00 PM 1.99 35.582 0.049 7.23 1.47 13.65
12/15/2020 7:00:00 PM 1.94 35.492 0.049 7.24 1.43 13.65
12/15/2020 7:15:00 PM 1.89 35.402 0.049 7.24 1.45 13.66
12/15/2020 7:30:00 PM 1.85 35.33 0.049 7.24 1.41 13.67
12/15/2020 7:45:00 PM 1.8 35.24 0.049 7.26 1.38 13.69
12/15/2020 8:00:00 PM 1.76 35.168 0.049 7.21 1.39 13.71
12/15/2020 8:15:00 PM 1.71 35.078 0.049 7.22 1.4 13.73
12/15/2020 8:30:00 PM 1.67 35.006 0.049 7.23 1.43 13.74
12/15/2020 8:45:00 PM 1.64 34.952 0.049 7.22 1.42 13.75
12/15/2020 9:00:00 PM 1.6 34.88 0.049 7.22 1.38 13.76
12/15/2020 9:15:00 PM 1.57 34.826 0.049 7.26 1.46 13.77
12/15/2020 9:30:00 PM 1.54 34.772 0.049 7.2 1.39 13.79
12/15/2020 9:45:00 PM 1.52 34.736 0.049 7.26 1.43 13.8
12/15/2020 10:00:00 PM 1.5 34.7 0.049 7.27 1.41 13.81
12/15/2020 10:15:00 PM 1.47 34.646 0.049 7.25 1.43 13.82
12/15/2020 10:30:00 PM 1.45 34.61 0.049 7.26 1.47 13.83
12/15/2020 10:45:00 PM 1.43 34.574 0.049 7.26 1.41 13.84
12/15/2020 11:00:00 PM 1.41 34.538 0.049 7.24 1.44 13.85
12/15/2020 11:15:00 PM 1.38 34.484 0.049 7.27 1.41 13.85
12/15/2020 11:30:00 PM 1.35 34.43 0.049 7.26 1.4 13.87
12/15/2020 11:45:00 PM 1.33 34.394 0.049 7.25 1.42 13.88
12/16/2020 12:00:00 AM 1.31 34.358 0.049 7.24 1.42 13.88
12/16/2020 12:15:00 AM 1.27 34.286 0.049 7.26 1.45 13.9
12/16/2020 12:30:00 AM 1.23 34.214 0.049 7.25 1.43 13.91
12/16/2020 12:45:00 AM 1.19 34.142 0.049 7.18 1.47 13.92
12/16/2020 1:00:00 AM 1.15 34.07 0.049 7.23 1.4 13.94
12/16/2020 1:15:00 AM 1.13 34.034 0.049 7.19 1.45 13.95
12/16/2020 1:30:00 AM 1.09 33.962 0.049 7.21 1.43 13.97
12/16/2020 1:45:00 AM 1.04 33.872 0.049 7.25 1.42 13.99
12/16/2020 2:00:00 AM 1 33.8 0.049 7.26 1.43 14
12/16/2020 2:15:00 AM 0.97 33.746 0.05 7.18 1.44 14.01
12/16/2020 2:30:00 AM 0.96 33.728 0.05 7.21 1.44 14.03
12/16/2020 2:45:00 AM 0.94 33.692 0.05 7.19 1.44 14.03
12/16/2020 3:00:00 AM 0.92 33.656 0.05 7.25 1.47 14.05
12/16/2020 3:15:00 AM 0.88 33.584 0.05 7.19 1.43 14.05
12/16/2020 3:30:00 AM 0.85 33.53 0.05 7.19 1.42 14.07
12/16/2020 3:45:00 AM 0.83 33.494 0.05 7.26 1.44 14.08
12/16/2020 4:00:00 AM 0.79 33.422 0.05 7.18 1.42 14.09
12/16/2020 4:15:00 AM 0.75 33.35 0.05 7.22 1.45 14.11
12/16/2020 4:30:00 AM 0.72 33.296 0.05 7.22 1.43 14.11
12/16/2020 4:45:00 AM 0.7 33.26 0.05 7.21 1.44 14.11
12/16/2020 5:00:00 AM 0.67 33.206 0.05 7.21 1.49 14.13
12/16/2020 5:15:00 AM 0.65 33.17 0.05 7.19 1.47 14.14
12/16/2020 5:30:00 AM 0.63 33.134 0.05 7.25 1.48 14.15
12/16/2020 5:45:00 AM 0.6 33.08 0.05 7.2 1.48 14.16
12/16/2020 6:00:00 AM 0.57 33.026 0.05 7.26 1.48 14.17
12/16/2020 6:15:00 AM 0.55 32.99 0.05 7.24 1.53 14.17
12/16/2020 6:30:00 AM 0.53 32.954 0.05 7.24 1.47 14.19
12/16/2020 6:45:00 AM 0.51 32.918 0.05 7.18 1.47 14.2
12/16/2020 7:00:00 AM 0.49 32.882 0.05 7.2 1.46 14.21
12/16/2020 7:15:00 AM 0.47 32.846 0.05 7.25 1.46 14.22
12/16/2020 7:30:00 AM 0.45 32.81 0.05 7.24 1.5 14.23
12/16/2020 7:45:00 AM 0.44 32.792 0.05 7.25 1.51 14.24
12/16/2020 8:00:00 AM 0.43 32.774 0.05 7.25 1.46 14.26
12/16/2020 8:15:00 AM 0.41 32.738 0.05 7.23 1.44 14.31
12/16/2020 8:30:00 AM 0.4 32.72 0.05 7.28 1.5 14.37
12/16/2020 8:45:00 AM 0.4 32.72 0.05 7.3 1.47 14.42
12/16/2020 9:00:00 AM 0.42 32.756 0.05 7.23 1.51 14.47
12/16/2020 9:15:00 AM 0.43 32.774 0.049 7.28 1.47 14.53
12/16/2020 9:30:00 AM 0.45 32.81 0.049 7.32 1.51 14.57
12/16/2020 9:45:00 AM 0.47 32.846 0.049 7.34 1.5 14.6
12/16/2020 10:00:00 AM 0.49 32.882 0.049 7.33 1.46 14.63
12/16/2020 10:15:00 AM 0.52 32.936 0.049 7.36 1.42 14.65
12/16/2020 10:30:00 AM 0.56 33.008 0.049 7.31 1.44 14.65
12/16/2020 10:45:00 AM 0.58 33.044 0.049 7.38 1.45 14.67
12/16/2020 11:00:00 AM 0.6 33.08 0.049 7.39 1.43 14.65
12/16/2020 11:15:00 AM 0.61 33.098 0.049 7.3 1.41 14.64
12/16/2020 11:30:00 AM 0.61 33.098 0.049 7.37 1.45 14.62
12/16/2020 11:45:00 AM 0.58 33.044 0.049 7.32 1.47 14.59
12/16/2020 12:00:00 PM 0.55 32.99 0.049 7.32 1.44 14.59
12/16/2020 12:15:00 PM 0.47 32.846 0.049 7.36 1.4 14.59
12/16/2020 12:30:00 PM 0.43 32.774 0.049 7.36 1.42 14.6
12/16/2020 12:45:00 PM 0.35 32.63 0.049 7.38 1.44 14.61
12/16/2020 1:00:00 PM 0.26 32.468 0.049 7.31 1.38 14.63
12/16/2020 1:15:00 PM 0.2 32.36 0.049 7.32 1.44 14.64
12/16/2020 1:30:00 PM 0.17 32.306 0.049 7.37 1.45 14.66
12/16/2020 1:45:00 PM 0.11 32.198 0.049 7.36 1.45 14.67
12/16/2020 2:00:00 PM 0.05 32.09 0.049 7.36 1.46 14.66
12/16/2020 2:15:00 PM -0.02 31.964 0.049 7.3 1.5 14.65
12/16/2020 2:30:00 PM -0.1 31.82 0.048 7.35 1.75 14.67
12/16/2020 2:45:00 PM -0.13 31.766 0.048 7.35 1.63 14.66
12/16/2020 3:00:00 PM -0.13 31.766 0.049 7.33 3.21 14.66
12/16/2020 3:15:00 PM -0.13 31.766 0.049 7.34 6.42 14.67
12/16/2020 3:30:00 PM -0.13 31.766 0.049 7.35 4.89 14.65
12/16/2020 3:45:00 PM -0.13 31.766 0.049 7.25 3.94 14.65
12/16/2020 4:00:00 PM -0.13 31.766 0.049 7.29 3.44 14.64
12/16/2020 4:15:00 PM -0.13 31.766 0.049 7.34 3.62 14.62
12/16/2020 4:30:00 PM -0.13 31.766 0.049 7.32 3.43 14.6
12/16/2020 4:45:00 PM -0.13 31.766 0.049 7.27 3.43 14.58
12/16/2020 5:00:00 PM -0.13 31.766 0.049 7.27 3.35 14.55
12/16/2020 5:15:00 PM -0.13 31.766 0.049 7.26 3.21 14.53
12/16/2020 5:30:00 PM -0.13 31.766 0.049 7.29 3.13 14.51
12/16/2020 5:45:00 PM -0.13 31.766 0.049 7.26 3.18 14.5
12/16/2020 6:00:00 PM -0.13 31.766 0.049 7.28 3.06 14.49
12/16/2020 6:15:00 PM -0.13 31.766 0.049 7.24 2.99 14.47
12/16/2020 6:30:00 PM -0.13 31.766 0.049 7.28 3.01 14.46
12/16/2020 6:45:00 PM -0.13 31.766 0.049 7.23 2.99 14.45
12/16/2020 7:00:00 PM -0.13 31.766 0.049 7.27 2.92 14.43
12/16/2020 7:15:00 PM -0.13 31.766 0.049 7.23 2.98 14.43
12/16/2020 7:30:00 PM -0.13 31.766 0.049 7.26 3 14.43
12/16/2020 7:45:00 PM -0.13 31.766 0.049 7.23 2.99 14.42
12/16/2020 8:00:00 PM -0.13 31.766 0.049 7.23 3.02 14.42
12/16/2020 8:15:00 PM -0.13 31.766 0.049 7.22 2.9 14.42
12/16/2020 8:30:00 PM -0.13 31.766 0.049 7.22 2.99 14.42
12/16/2020 8:45:00 PM -0.13 31.766 0.049 7.22 2.86 14.41
12/16/2020 9:00:00 PM -0.13 31.766 0.049 7.21 3.27 14.41
12/16/2020 9:15:00 PM -0.13 31.766 0.049 7.22 3.04 14.4
12/16/2020 9:30:00 PM -0.13 31.766 0.049 7.22 2.95 14.39
12/16/2020 9:45:00 PM -0.13 31.766 0.049 7.22 2.98 14.37
12/16/2020 10:00:00 PM -0.13 31.766 0.049 7.21 2.95 14.36
12/16/2020 10:15:00 PM -0.13 31.766 0.049 7.27 2.95 14.36
12/16/2020 10:30:00 PM -0.13 31.766 0.049 7.23 2.99 14.36
12/16/2020 10:45:00 PM -0.13 31.766 0.049 7.2 2.87 14.35
12/16/2020 11:00:00 PM -0.13 31.766 0.049 7.2 2.83 14.34
12/16/2020 11:15:00 PM -0.13 31.766 0.049 7.26 2.8 14.33
12/16/2020 11:30:00 PM -0.13 31.766 0.05 7.21 2.77 14.32
12/16/2020 11:45:00 PM -0.13 31.766 0.05 7.21 2.6 14.32
12/17/2020 12:00:00 AM -0.13 31.766 0.05 7.19 2.63 14.32
12/17/2020 12:15:00 AM -0.13 31.766 0.05 7.25 2.55 14.32
12/17/2020 12:30:00 AM -0.13 31.766 0.05 7.25 2.54 14.31
12/17/2020 12:45:00 AM -0.13 31.766 0.05 7.26 2.64 14.31
12/17/2020 1:00:00 AM -0.13 31.766 0.05 7.26 2.63 14.31
12/17/2020 1:15:00 AM -0.13 31.766 0.05 7.27 2.61 14.31
12/17/2020 1:30:00 AM -0.13 31.766 0.05 7.26 2.52 14.31
12/17/2020 1:45:00 AM -0.13 31.766 0.05 7.26 2.51 14.31
12/17/2020 2:00:00 AM -0.13 31.766 0.05 7.27 2.51 14.32
12/17/2020 2:15:00 AM -0.13 31.766 0.05 7.27 2.58 14.31
12/17/2020 2:30:00 AM -0.13 31.766 0.05 7.17 2.54 14.32
12/17/2020 2:45:00 AM -0.13 31.766 0.05 7.28 2.54 14.35
12/17/2020 3:00:00 AM -0.13 31.766 0.05 7.26 2.53 14.37
12/17/2020 3:15:00 AM -0.13 31.766 0.05 7.25 2.75 14.44
12/17/2020 3:30:00 AM -0.13 31.766 0.05 7.3 2.68 14.42
12/17/2020 3:45:00 AM -0.13 31.766 0.05 7.28 2.66 14.4
12/17/2020 4:00:00 AM -0.13 31.766 0.05 7.27 2.99 14.39
12/17/2020 4:15:00 AM -0.13 31.766 0.05 7.26 2.9 14.37
12/17/2020 4:30:00 AM -0.13 31.766 0.05 7.25 2.79 14.36
12/17/2020 4:45:00 AM -0.13 31.766 0.05 7.28 2.84 14.35
12/17/2020 5:00:00 AM -0.13 31.766 0.05 7.25 2.84 14.33
12/17/2020 5:15:00 AM -0.13 31.766 0.05 7.21 2.89 14.33
12/17/2020 5:30:00 AM -0.13 31.766 0.05 7.2 2.79 14.32
12/17/2020 5:45:00 AM -0.13 31.766 0.05 7.26 2.9 14.32
12/17/2020 6:00:00 AM -0.13 31.766 0.05 7.26 2.73 14.32
12/17/2020 6:15:00 AM -0.13 31.766 0.05 7.26 2.84 14.32
12/17/2020 6:30:00 AM -0.13 31.766 0.05 7.26 2.72 14.32
12/17/2020 6:45:00 AM -0.13 31.766 0.05 7.25 2.75 14.31
12/17/2020 7:00:00 AM -0.13 31.766 0.05 7.17 2.78 14.31
12/17/2020 7:15:00 AM -0.13 31.766 0.05 7.22 2.77 14.32
12/17/2020 7:30:00 AM -0.13 31.766 0.05 7.2 2.68 14.33
12/17/2020 7:45:00 AM -0.13 31.766 0.05 7.22 2.74 14.33
12/17/2020 8:00:00 AM -0.13 31.766 0.049 7.21 2.75 14.34
12/17/2020 8:15:00 AM -0.13 31.766 0.049 7.21 2.69 14.38
12/17/2020 8:30:00 AM -0.13 31.766 0.049 7.21 2.85 14.45
12/17/2020 8:45:00 AM -0.13 31.766 0.049 7.27 2.88 14.48
12/17/2020 9:00:00 AM -0.13 31.766 0.049 7.19 3.01 14.52
12/17/2020 9:15:00 AM -0.13 31.766 0.049 7.22 3.02 14.57
12/17/2020 9:30:00 AM -0.13 31.766 0.049 7.22 3.25 14.61
12/17/2020 9:45:00 AM -0.13 31.766 0.049 7.29 3.61 14.64
12/17/2020 10:00:00 AM -0.13 31.766 0.049 7.31 3.63 14.66
12/17/2020 10:15:00 AM -0.13 31.766 0.049 7.32 3.77 14.7
12/17/2020 10:30:00 AM -0.13 31.766 0.048 7.35 4.78 14.72
12/17/2020 10:45:00 AM -0.13 31.766 0.048 7.28 4.94 14.72
12/17/2020 11:00:00 AM -0.13 31.766 0.048 7.36 5.59 14.74
12/17/2020 11:15:00 AM -0.13 31.766 0.048 7.29 5.67 14.75
12/17/2020 11:30:00 AM -0.13 31.766 0.048 7.19 5.53 14.77
12/17/2020 11:45:00 AM -0.13 31.766 0.048 7.24 5.96 14.77
12/17/2020 12:00:00 PM -0.13 31.766 0.048 7.29 5.54 14.77
12/17/2020 12:15:00 PM -0.11 31.802 0.048 7.28 4.64 14.77
12/17/2020 12:30:00 PM -0.11 31.802 0.048 7.25 4.38 14.76
12/17/2020 12:45:00 PM -0.1 31.82 0.048 7.36 3.16 14.76
12/17/2020 1:00:00 PM -0.1 31.82 0.048 7.34 3.2 14.76
12/17/2020 1:15:00 PM -0.1 31.82 0.048 7.31 6.47 14.75
12/17/2020 1:30:00 PM -0.1 31.82 0.047 7.31 2.93 14.75
12/17/2020 1:45:00 PM -0.1 31.82 0.047 7.27 3.02 14.74
12/17/2020 2:00:00 PM -0.1 31.82 0.047 7.28 3.01 14.74
12/17/2020 2:15:00 PM -0.09 31.838 0.047 7.36 2.76 14.74
12/17/2020 2:30:00 PM -0.1 31.82 0.047 7.35 3.01 14.74
12/17/2020 2:45:00 PM -0.1 31.82 0.047 7.35 2.76 14.73
12/17/2020 3:00:00 PM -0.1 31.82 0.047 7.34 2.79 14.72
12/17/2020 3:15:00 PM -0.1 31.82 0.047 7.34 2.83 14.72
12/17/2020 3:30:00 PM -0.1 31.82 0.047 7.33 2.76 14.71
12/17/2020 3:45:00 PM -0.11 31.802 0.047 7.34 2.61 14.7
12/17/2020 4:00:00 PM -0.11 31.802 0.047 7.27 2.69 14.69
12/17/2020 4:15:00 PM -0.12 31.784 0.047 7.3 2.6 14.66
12/17/2020 4:30:00 PM -0.12 31.784 0.047 7.19 2.79 14.63
12/17/2020 4:45:00 PM -0.12 31.784 0.047 7.21 2.53 14.59
12/17/2020 5:00:00 PM -0.12 31.784 0.047 7.27 2.43 14.55
12/17/2020 5:15:00 PM -0.12 31.784 0.047 7.23 2.5 14.53
12/17/2020 5:30:00 PM -0.12 31.784 0.047 7.2 2.3 14.51
12/17/2020 5:45:00 PM -0.12 31.784 0.047 7.24 2.34 14.49
12/17/2020 6:00:00 PM -0.12 31.784 0.047 7.2 2.3 14.46
12/17/2020 6:15:00 PM -0.12 31.784 0.047 7.19 2.18 14.46
12/17/2020 6:30:00 PM -0.12 31.784 0.047 7.21 2.23 14.45
12/17/2020 6:45:00 PM -0.12 31.784 0.047 7.11 2.24 14.45
12/17/2020 7:00:00 PM -0.12 31.784 0.047 7.17 2.11 14.43
12/17/2020 7:15:00 PM -0.13 31.766 0.047 7.21 2.05 14.44
12/17/2020 7:30:00 PM -0.13 31.766 0.047 7.12 1.98 14.44
12/17/2020 7:45:00 PM -0.13 31.766 0.047 7.21 1.99 14.44
12/17/2020 8:00:00 PM -0.13 31.766 0.047 7.21 2.03 14.44
12/17/2020 8:15:00 PM -0.13 31.766 0.047 7.21 2.29 14.44
12/17/2020 8:30:00 PM -0.13 31.766 0.047 7.13 2.51 14.44
12/17/2020 8:45:00 PM -0.13 31.766 0.047 7.18 2.16 14.44
12/17/2020 9:00:00 PM -0.13 31.766 0.047 7.12 2.17 14.44
12/17/2020 9:15:00 PM -0.13 31.766 0.047 7.2 2.16 14.43
12/17/2020 9:30:00 PM -0.13 31.766 0.047 7.11 2.2 14.44
12/17/2020 9:45:00 PM -0.13 31.766 0.047 7.13 2.16 14.44
12/17/2020 10:00:00 PM -0.13 31.766 0.047 7.12 2.09 14.44
12/17/2020 10:15:00 PM -0.13 31.766 0.047 7.12 2.02 14.43
12/17/2020 10:30:00 PM -0.13 31.766 0.047 7.13 1.95 14.44
12/17/2020 10:45:00 PM -0.13 31.766 0.047 7.12 1.9 14.44
12/17/2020 11:00:00 PM -0.13 31.766 0.047 7.13 1.97 14.44
12/17/2020 11:15:00 PM -0.13 31.766 0.047 7.13 1.87 14.45
12/17/2020 11:30:00 PM -0.13 31.766 0.047 7.13 1.94 14.45
12/17/2020 11:45:00 PM -0.13 31.766 0.047 7.14 1.88 14.44
12/18/2020 12:00:00 AM -0.13 31.766 0.047 7.13 1.9 14.45
12/18/2020 12:15:00 AM -0.13 31.766 0.047 7.13 1.9 14.45
12/18/2020 12:30:00 AM -0.13 31.766 0.047 7.14 1.89 14.45
12/18/2020 12:45:00 AM -0.13 31.766 0.047 7.13 1.84 14.44
12/18/2020 1:00:00 AM -0.13 31.766 0.047 7.14 1.85 14.45
12/18/2020 1:15:00 AM -0.13 31.766 0.047 7.13 1.84 14.45
12/18/2020 1:30:00 AM -0.13 31.766 0.048 7.14 1.85 14.44
12/18/2020 1:45:00 AM -0.13 31.766 0.048 7.13 1.85 14.45
12/18/2020 2:00:00 AM -0.13 31.766 0.048 7.14 1.83 14.45
12/18/2020 2:15:00 AM -0.13 31.766 0.048 7.15 1.88 14.46
12/18/2020 2:30:00 AM -0.13 31.766 0.048 7.15 1.87 14.45
12/18/2020 2:45:00 AM -0.13 31.766 0.048 7.15 1.83 14.46
12/18/2020 3:00:00 AM -0.13 31.766 0.048 7.15 1.82 14.46
12/18/2020 3:15:00 AM -0.13 31.766 0.048 7.14 1.83 14.46
12/18/2020 3:30:00 AM -0.13 31.766 0.048 7.15 1.81 14.46
12/18/2020 3:45:00 AM -0.13 31.766 0.048 7.15 1.8 14.46
12/18/2020 4:00:00 AM -0.13 31.766 0.048 7.14 1.82 14.46
12/18/2020 4:15:00 AM -0.13 31.766 0.048 7.14 1.82 14.46
12/18/2020 4:30:00 AM -0.13 31.766 0.048 7.14 1.79 14.47
12/18/2020 4:45:00 AM -0.13 31.766 0.048 7.15 1.7 14.47
12/18/2020 5:00:00 AM -0.13 31.766 0.048 7.15 1.75 14.47
12/18/2020 5:15:00 AM -0.13 31.766 0.048 7.15 1.72 14.46
12/18/2020 5:30:00 AM -0.13 31.766 0.048 7.15 1.75 14.47
12/18/2020 5:45:00 AM -0.12 31.784 0.048 7.14 1.71 14.47
12/18/2020 6:00:00 AM -0.13 31.766 0.048 7.15 1.73 14.48
12/18/2020 6:15:00 AM -0.13 31.766 0.048 7.15 1.76 14.48
12/18/2020 6:30:00 AM -0.13 31.766 0.048 7.15 1.78 14.48
12/18/2020 6:45:00 AM -0.12 31.784 0.048 7.16 1.87 14.48
12/18/2020 7:00:00 AM -0.13 31.766 0.048 7.16 1.77 14.49
12/18/2020 7:15:00 AM -0.13 31.766 0.048 7.15 1.72 14.49
12/18/2020 7:30:00 AM -0.13 31.766 0.048 7.16 1.76 14.5
12/18/2020 7:45:00 AM -0.13 31.766 0.048 7.17 1.71 14.5
12/18/2020 8:00:00 AM -0.12 31.784 0.048 7.16 1.72 14.52
12/18/2020 8:15:00 AM -0.12 31.784 0.048 7.16 1.76 14.54
12/18/2020 8:30:00 AM -0.12 31.784 0.048 7.16 1.72 14.56
12/18/2020 8:45:00 AM -0.12 31.784 0.048 7.18 1.7 14.58
12/18/2020 9:00:00 AM -0.12 31.784 0.048 7.17 1.69 14.62
12/18/2020 9:15:00 AM -0.12 31.784 0.048 7.18 2.54 14.66
12/18/2020 9:30:00 AM -0.12 31.784 0.048 7.2 1.93 14.69
12/18/2020 9:45:00 AM -0.12 31.784 0.048 7.19 1.97 14.72
12/18/2020 10:00:00 AM -0.11 31.802 0.048 7.22 2.08 14.74
12/18/2020 10:15:00 AM -0.11 31.802 0.048 7.23 1.83 14.78
12/18/2020 10:30:00 AM -0.1 31.82 0.048 7.25 1.82 14.81
12/18/2020 10:45:00 AM -0.09 31.838 0.048 7.26 2 14.84
12/18/2020 11:00:00 AM -0.09 31.838 0.047 7.26 2.01 14.86
12/18/2020 11:15:00 AM -0.07 31.874 0.047 7.25 2.12 14.87
12/18/2020 11:30:00 AM -0.05 31.91 0.047 7.27 2.1 14.88
12/18/2020 11:45:00 AM -0.04 31.928 0.047 7.27 2.04 14.87
12/18/2020 12:00:00 PM -0.03 31.946 0.047 7.28 2.24 14.86
12/18/2020 12:15:00 PM -0.03 31.946 0.047 7.28 2.04 14.86
12/18/2020 12:30:00 PM -0.02 31.964 0.047 7.27 2.06 14.84
12/18/2020 12:45:00 PM -0.01 31.982 0.047 7.28 2.08 14.82
12/18/2020 1:00:00 PM 0 32 0.047 7.28 2 14.81
12/18/2020 1:15:00 PM 0.01 32.018 0.047 7.28 2 14.81
12/18/2020 1:30:00 PM 0.02 32.036 0.047 7.27 1.93 14.8
12/18/2020 1:45:00 PM 0.02 32.036 0.047 7.3 1.93 14.79
12/18/2020 2:00:00 PM 0.04 32.072 0.047 7.28 1.78 14.78
12/18/2020 2:15:00 PM 0.05 32.09 0.047 7.28 1.92 14.77
12/18/2020 2:30:00 PM 0.05 32.09 0.047 7.3 1.97 14.78
12/18/2020 2:45:00 PM 0.05 32.09 0.047 7.28 1.89 14.77
12/18/2020 3:00:00 PM 0.05 32.09 0.047 7.33 1.86 14.76
12/18/2020 3:15:00 PM 0.05 32.09 0.047 7.24 1.83 14.75
12/18/2020 3:30:00 PM 0.05 32.09 0.047 7.33 1.77 14.75
12/18/2020 3:45:00 PM 0.05 32.09 0.047 7.23 1.77 14.74
12/18/2020 4:00:00 PM 0.05 32.09 0.047 7.31 1.74 14.72
12/18/2020 4:15:00 PM 0.04 32.072 0.047 7.27 1.76 14.7
12/18/2020 4:30:00 PM 0.03 32.054 0.047 7.28 1.77 14.68
12/18/2020 4:45:00 PM 0.02 32.036 0.047 7.23 1.77 14.65
12/18/2020 5:00:00 PM 0 32 0.047 7.27 1.71 14.61
12/18/2020 5:15:00 PM -0.02 31.964 0.047 7.27 1.64 14.59
12/18/2020 5:30:00 PM -0.05 31.91 0.047 7.17 1.68 14.58
12/18/2020 5:45:00 PM -0.07 31.874 0.047 7.26 1.58 14.57
12/18/2020 6:00:00 PM -0.09 31.838 0.047 7.22 1.7 14.57
12/18/2020 6:15:00 PM -0.12 31.784 0.048 7.17 1.54 14.57
12/18/2020 6:30:00 PM -0.15 31.73 0.048 7.2 1.59 14.57
12/18/2020 6:45:00 PM -0.14 31.748 0.048 7.16 1.68 14.58
12/18/2020 7:00:00 PM -0.14 31.748 0.048 7.23 1.7 14.59
12/18/2020 7:15:00 PM -0.14 31.748 0.048 7.12 1.59 14.6
12/18/2020 7:30:00 PM -0.14 31.748 0.048 7.21 1.59 14.6
12/18/2020 7:45:00 PM -0.14 31.748 0.048 7.14 1.54 14.62
12/18/2020 8:00:00 PM -0.14 31.748 0.048 7.15 1.48 14.62
12/18/2020 8:15:00 PM -0.14 31.748 0.048 7.2 1.92 14.63
12/18/2020 8:30:00 PM -0.14 31.748 0.048 7.22 1.8 14.64
12/18/2020 8:45:00 PM -0.13 31.766 0.048 7.11 1.89 14.64
12/18/2020 9:00:00 PM -0.14 31.748 0.048 7.16 1.87 14.64
12/18/2020 9:15:00 PM -0.14 31.748 0.048 7.13 1.89 14.64
12/18/2020 9:30:00 PM -0.13 31.766 0.048 7.25 1.89 14.64
12/18/2020 9:45:00 PM -0.13 31.766 0.048 7.22 3.12 14.65
12/18/2020 10:00:00 PM -0.13 31.766 0.049 7.21 1.84 14.64
12/18/2020 10:15:00 PM -0.13 31.766 0.049 7.2 1.8 14.64
12/18/2020 10:30:00 PM -0.13 31.766 0.049 7.23 1.83 14.65
12/18/2020 10:45:00 PM -0.13 31.766 0.049 7.24 1.84 14.64
12/18/2020 11:00:00 PM -0.13 31.766 0.049 7.24 1.8 14.65
12/18/2020 11:15:00 PM -0.13 31.766 0.049 7.22 1.82 14.64
12/18/2020 11:30:00 PM -0.13 31.766 0.049 7.19 2.09 14.64
12/18/2020 11:45:00 PM -0.13 31.766 0.049 7.24 1.84 14.65
12/19/2020 12:00:00 AM -0.13 31.766 0.049 7.16 1.75 14.64
12/19/2020 12:15:00 AM -0.13 31.766 0.049 7.17 1.9 14.65
12/19/2020 12:30:00 AM -0.13 31.766 0.049 7.17 1.81 14.64
12/19/2020 12:45:00 AM -0.13 31.766 0.049 7.18 1.73 14.64
12/19/2020 1:00:00 AM -0.13 31.766 0.049 7.18 1.81 14.64
12/19/2020 1:15:00 AM -0.13 31.766 0.049 7.18 1.81 14.64
12/19/2020 1:30:00 AM -0.13 31.766 0.049 7.18 1.73 14.64
12/19/2020 1:45:00 AM -0.13 31.766 0.049 7.18 1.77 14.65
12/19/2020 2:00:00 AM -0.13 31.766 0.05 7.17 1.78 14.64
12/19/2020 2:15:00 AM -0.13 31.766 0.05 7.18 1.73 14.64
12/19/2020 2:30:00 AM -0.13 31.766 0.05 7.17 1.83 14.63
12/19/2020 2:45:00 AM -0.13 31.766 0.05 7.18 1.72 14.62
12/19/2020 3:00:00 AM -0.13 31.766 0.05 7.17 1.74 14.62
12/19/2020 3:15:00 AM -0.13 31.766 0.05 7.16 1.67 14.61
12/19/2020 3:30:00 AM -0.13 31.766 0.05 7.17 1.69 14.59
12/19/2020 3:45:00 AM -0.13 31.766 0.05 7.16 2.27 14.6
12/19/2020 4:00:00 AM -0.13 31.766 0.05 7.17 1.8 14.59
12/19/2020 4:15:00 AM -0.13 31.766 0.05 7.22 1.78 14.59
12/19/2020 4:30:00 AM -0.13 31.766 0.05 7.14 1.76 14.58
12/19/2020 4:45:00 AM -0.13 31.766 0.05 7.15 1.74 14.57
12/19/2020 5:00:00 AM -0.13 31.766 0.05 7.17 1.75 14.57
12/19/2020 5:15:00 AM -0.13 31.766 0.05 7.15 1.74 14.57
12/19/2020 5:30:00 AM -0.13 31.766 0.051 7.16 1.75 14.57
12/19/2020 5:45:00 AM -0.13 31.766 0.051 7.16 1.79 14.57
12/19/2020 6:00:00 AM -0.13 31.766 0.051 7.16 1.76 14.56
12/19/2020 6:15:00 AM -0.13 31.766 0.051 7.16 1.74 14.56
12/19/2020 6:30:00 AM -0.13 31.766 0.051 7.16 1.7 14.56
12/19/2020 6:45:00 AM -0.13 31.766 0.051 7.16 1.7 14.56
12/19/2020 7:00:00 AM -0.13 31.766 0.051 7.15 1.78 14.55
12/19/2020 7:15:00 AM -0.13 31.766 0.051 7.15 1.85 14.55
12/19/2020 7:30:00 AM -0.13 31.766 0.051 7.15 1.82 14.55
12/19/2020 7:45:00 AM -0.13 31.766 0.051 7.15 1.76 14.55
12/19/2020 8:00:00 AM -0.13 31.766 0.051 7.15 1.69 14.57
12/19/2020 8:15:00 AM -0.13 31.766 0.051 7.17 1.72 14.61
12/19/2020 8:30:00 AM -0.13 31.766 0.051 7.17 1.82 14.65
12/19/2020 8:45:00 AM -0.13 31.766 0.051 7.18 1.74 14.69
12/19/2020 9:00:00 AM -0.13 31.766 0.051 7.18 1.72 14.73
12/19/2020 9:15:00 AM -0.13 31.766 0.051 7.2 1.76 14.75
12/19/2020 9:30:00 AM -0.13 31.766 0.051 7.2 1.75 14.78
12/19/2020 9:45:00 AM -0.13 31.766 0.05 7.21 1.85 14.82
12/19/2020 10:00:00 AM -0.13 31.766 0.05 7.28 1.88 14.83
12/19/2020 10:15:00 AM -0.13 31.766 0.05 7.27 1.89 14.84
12/19/2020 10:30:00 AM -0.13 31.766 0.05 7.22 1.78 14.86
12/19/2020 10:45:00 AM -0.13 31.766 0.05 7.25 2.6 14.86
12/19/2020 11:00:00 AM -0.13 31.766 0.05 7.24 2.27 14.88
12/19/2020 11:15:00 AM -0.13 31.766 0.05 7.25 1.88 14.88
12/19/2020 11:30:00 AM -0.13 31.766 0.05 7.24 1.96 14.88
12/19/2020 11:45:00 AM -0.13 31.766 0.05 7.24 1.91 14.88
12/19/2020 12:00:00 PM -0.13 31.766 0.05 7.3 2.05 14.88
12/19/2020 12:15:00 PM -0.13 31.766 0.05 7.22 2.28 14.89
12/19/2020 12:30:00 PM -0.13 31.766 0.05 7.31 2.15 14.88
12/19/2020 12:45:00 PM -0.13 31.766 0.05 7.27 2.08 14.87
12/19/2020 1:00:00 PM -0.13 31.766 0.05 7.33 2.13 14.87
12/19/2020 1:15:00 PM -0.13 31.766 0.049 7.3 2.16 14.86
12/19/2020 1:30:00 PM -0.13 31.766 0.049 7.31 2.21 14.86
12/19/2020 1:45:00 PM -0.13 31.766 0.049 7.21 2.25 14.85
12/19/2020 2:00:00 PM -0.13 31.766 0.049 7.3 2.27 14.85
12/19/2020 2:15:00 PM -0.13 31.766 0.049 7.33 2.2 14.86
12/19/2020 2:30:00 PM -0.13 31.766 0.049 7.23 2.46 14.85
12/19/2020 2:45:00 PM -0.12 31.784 0.049 7.32 2.35 14.84
12/19/2020 3:00:00 PM -0.12 31.784 0.049 7.18 2.26 14.83
12/19/2020 3:15:00 PM -0.12 31.784 0.049 7.21 2.17 14.83
12/19/2020 3:30:00 PM -0.12 31.784 0.049 7.25 2.15 14.8
12/19/2020 3:45:00 PM -0.12 31.784 0.049 7.34 2.5 14.79
12/19/2020 4:00:00 PM -0.12 31.784 0.049 7.32 6.94 14.78
12/19/2020 4:15:00 PM -0.11 31.802 0.049 7.32 1.95 14.74
12/19/2020 4:30:00 PM -0.11 31.802 0.049 7.31 1.92 14.71
12/19/2020 4:45:00 PM -0.11 31.802 0.049 7.19 1.85 14.67
12/19/2020 5:00:00 PM -0.11 31.802 0.049 7.26 1.78 14.64
12/19/2020 5:15:00 PM -0.11 31.802 0.049 7.27 1.7 14.61
12/19/2020 5:30:00 PM -0.11 31.802 0.049 7.24 1.68 14.58
12/19/2020 5:45:00 PM -0.1 31.82 0.049 7.18 1.66 14.56
12/19/2020 6:00:00 PM -0.1 31.82 0.049 7.23 1.62 14.54
12/19/2020 6:15:00 PM -0.1 31.82 0.049 7.23 1.68 14.52
12/19/2020 6:30:00 PM -0.1 31.82 0.049 7.19 1.6 14.5
12/19/2020 6:45:00 PM -0.1 31.82 0.049 7.16 1.55 14.49
12/19/2020 7:00:00 PM -0.1 31.82 0.049 7.23 1.55 14.48
12/19/2020 7:15:00 PM -0.1 31.82 0.049 7.22 1.55 14.48
12/19/2020 7:30:00 PM -0.1 31.82 0.049 7.22 1.53 14.47
12/19/2020 7:45:00 PM -0.1 31.82 0.049 7.09 1.54 14.46
12/19/2020 8:00:00 PM -0.1 31.82 0.049 7.16 1.5 14.45
12/19/2020 8:15:00 PM -0.1 31.82 0.049 7.2 1.52 14.45
12/19/2020 8:30:00 PM -0.1 31.82 0.049 7.21 1.49 14.44
12/19/2020 8:45:00 PM -0.1 31.82 0.049 7.21 1.48 14.45
12/19/2020 9:00:00 PM -0.1 31.82 0.049 7.21 1.48 14.44
12/19/2020 9:15:00 PM -0.1 31.82 0.049 7.2 1.46 14.44
12/19/2020 9:30:00 PM -0.1 31.82 0.049 7.22 1.48 14.44
12/19/2020 9:45:00 PM -0.1 31.82 0.049 7.1 1.47 14.43
12/19/2020 10:00:00 PM -0.1 31.82 0.049 7.19 1.45 14.43
12/19/2020 10:15:00 PM -0.1 31.82 0.049 7.2 1.44 14.42
12/19/2020 10:30:00 PM -0.1 31.82 0.049 7.09 1.47 14.42
12/19/2020 10:45:00 PM -0.1 31.82 0.049 7.14 1.5 14.42
12/19/2020 11:00:00 PM -0.1 31.82 0.049 7.13 1.47 14.42
12/19/2020 11:15:00 PM -0.1 31.82 0.049 7.15 1.46 14.41
12/19/2020 11:30:00 PM -0.1 31.82 0.049 7.21 1.45 14.42
12/19/2020 11:45:00 PM -0.1 31.82 0.049 7.2 1.41 14.41
12/20/2020 12:00:00 AM -0.1 31.82 0.049 7.18 1.43 14.42
12/20/2020 12:15:00 AM -0.1 31.82 0.049 7.21 1.43 14.41
12/20/2020 12:30:00 AM -0.11 31.802 0.049 7.15 1.41 14.41
12/20/2020 12:45:00 AM -0.1 31.82 0.049 7.13 1.43 14.41
12/20/2020 1:00:00 AM -0.11 31.802 0.049 7.16 1.44 14.42
12/20/2020 1:15:00 AM -0.11 31.802 0.049 7.2 1.4 14.41
12/20/2020 1:30:00 AM -0.11 31.802 0.049 7.11 1.46 14.4
12/20/2020 1:45:00 AM -0.11 31.802 0.049 7.2 1.39 14.42
12/20/2020 2:00:00 AM -0.11 31.802 0.049 7.08 1.43 14.41
12/20/2020 2:15:00 AM -0.1 31.82 0.049 7.2 1.39 14.41
12/20/2020 2:30:00 AM -0.1 31.82 0.049 7.12 1.37 14.4
12/20/2020 2:45:00 AM -0.1 31.82 0.049 7.17 1.34 14.41
12/20/2020 3:00:00 AM -0.1 31.82 0.049 7.21 1.36 14.41
12/20/2020 3:15:00 AM -0.1 31.82 0.049 7.18 1.36 14.4
12/20/2020 3:30:00 AM -0.1 31.82 0.049 7.2 1.37 14.4
12/20/2020 3:45:00 AM -0.1 31.82 0.049 7.2 1.43 14.39
12/20/2020 4:00:00 AM -0.1 31.82 0.049 7.19 1.42 14.39
12/20/2020 4:15:00 AM -0.11 31.802 0.049 7.19 1.5 14.39
12/20/2020 4:30:00 AM -0.13 31.766 0.049 7.24 2.89 14.39
12/20/2020 4:45:00 AM -0.13 31.766 0.049 7.25 2.3 14.4
12/20/2020 5:00:00 AM -0.13 31.766 0.049 7.25 2.55 14.39
12/20/2020 5:15:00 AM -0.13 31.766 0.049 7.23 2.24 14.38
12/20/2020 5:30:00 AM -0.12 31.784 0.049 7.22 2.14 14.37
12/20/2020 5:45:00 AM -0.1 31.82 0.049 7.08 1.44 14.37
12/20/2020 6:00:00 AM -0.1 31.82 0.049 7.19 1.38 14.38
12/20/2020 6:15:00 AM -0.1 31.82 0.049 7.2 1.43 14.38
12/20/2020 6:30:00 AM -0.1 31.82 0.049 7.14 1.44 14.38
12/20/2020 6:45:00 AM -0.1 31.82 0.049 7.22 1.45 14.37
12/20/2020 7:00:00 AM -0.1 31.82 0.049 7.08 1.44 14.38
12/20/2020 7:15:00 AM -0.1 31.82 0.049 7.17 1.48 14.37
12/20/2020 7:30:00 AM -0.1 31.82 0.049 7.14 1.42 14.36
12/20/2020 7:45:00 AM -0.1 31.82 0.049 7.19 1.44 14.36
12/20/2020 8:00:00 AM -0.1 31.82 0.049 7.21 1.45 14.37
12/20/2020 8:15:00 AM -0.11 31.802 0.049 7.1 1.51 14.38
12/20/2020 8:30:00 AM -0.11 31.802 0.049 7.21 1.5 14.39
12/20/2020 8:45:00 AM -0.1 31.82 0.049 7.17 1.47 14.41
12/20/2020 9:00:00 AM -0.1 31.82 0.049 7.15 1.46 14.44
12/20/2020 9:15:00 AM -0.1 31.82 0.049 7.19 1.44 14.47
12/20/2020 9:30:00 AM -0.1 31.82 0.049 7.17 1.5 14.49
12/20/2020 9:45:00 AM -0.1 31.82 0.049 7.18 1.41 14.52
12/20/2020 10:00:00 AM -0.09 31.838 0.049 7.19 1.46 14.55
12/20/2020 10:15:00 AM -0.09 31.838 0.048 7.2 1.57 14.57
12/20/2020 10:30:00 AM -0.09 31.838 0.048 7.19 1.57 14.59
12/20/2020 10:45:00 AM -0.09 31.838 0.048 7.21 1.6 14.62
12/20/2020 11:00:00 AM -0.08 31.856 0.048 7.21 1.66 14.62
12/20/2020 11:15:00 AM -0.09 31.838 0.048 7.22 2.12 14.63
12/20/2020 11:30:00 AM -0.09 31.838 0.048 7.29 1.97 14.62
12/20/2020 11:45:00 AM -0.09 31.838 0.048 7.31 2.2 14.63
12/20/2020 12:00:00 PM -0.08 31.856 0.048 7.29 1.82 14.62
12/20/2020 12:15:00 PM -0.08 31.856 0.048 7.31 1.99 14.6
12/20/2020 12:30:00 PM -0.09 31.838 0.048 7.31 1.98 14.6
12/20/2020 12:45:00 PM -0.09 31.838 0.048 7.21 2.24 14.59
12/20/2020 1:00:00 PM -0.09 31.838 0.048 7.32 2.14 14.58
12/20/2020 1:15:00 PM -0.09 31.838 0.048 7.32 2.15 14.55
12/20/2020 1:30:00 PM -0.09 31.838 0.048 7.31 2.17 14.52
12/20/2020 1:45:00 PM -0.09 31.838 0.048 7.32 2.67 14.51
12/20/2020 2:00:00 PM -0.09 31.838 0.048 7.24 13.38 14.51
12/20/2020 2:15:00 PM -0.09 31.838 0.048 7.34 254.8 14.49
12/20/2020 2:30:00 PM -0.08 31.856 0.048 7.3 2.85 14.48
12/20/2020 2:45:00 PM -0.07 31.874 0.048 7.23 1971.48 14.45
12/20/2020 3:00:00 PM -0.06 31.892 0.048 7.31 2.79 14.45
12/20/2020 3:15:00 PM -0.04 31.928 0.048 7.31 2.86 14.45
12/20/2020 3:30:00 PM -0.01 31.982 0.048 7.34 7.78 14.44
12/20/2020 3:45:00 PM 0.01 32.018 0.048 7.36 2.16 14.43
12/20/2020 4:00:00 PM 0.04 32.072 0.048 7.35 2.14 14.41
12/20/2020 4:15:00 PM 0.06 32.108 0.048 7.35 2.18 14.39
12/20/2020 4:30:00 PM 0.08 32.144 0.048 7.33 1.89 14.35
12/20/2020 4:45:00 PM 0.09 32.162 0.048 7.33 2.39 14.3
12/20/2020 5:00:00 PM 0.14 32.252 0.048 7.24 1.82 14.27
12/20/2020 5:15:00 PM 0.16 32.288 0.048 7.3 1.87 14.24
12/20/2020 5:30:00 PM 0.17 32.306 0.048 7.3 1.81 14.21
12/20/2020 5:45:00 PM 0.18 32.324 0.048 7.28 1.75 14.19
12/20/2020 6:00:00 PM 0.2 32.36 0.048 7.27 1.72 14.17
12/20/2020 6:15:00 PM 0.21 32.378 0.048 7.27 1.68 14.15
12/20/2020 6:30:00 PM 0.22 32.396 0.048 7.22 1.63 14.13
12/20/2020 6:45:00 PM 0.23 32.414 0.048 7.28 1.64 14.13
12/20/2020 7:00:00 PM 0.25 32.45 0.048 7.24 1.62 14.13
12/20/2020 7:15:00 PM 0.26 32.468 0.048 7.27 1.7 14.12
12/20/2020 7:30:00 PM 0.27 32.486 0.048 7.28 1.65 14.11
12/20/2020 7:45:00 PM 0.29 32.522 0.048 7.15 1.6 14.1
12/20/2020 8:00:00 PM 0.29 32.522 0.048 7.28 2.24 14.09
12/20/2020 8:15:00 PM 0.31 32.558 0.048 7.27 1.64 14.08
12/20/2020 8:30:00 PM 0.32 32.576 0.048 7.27 1.68 14.08
12/20/2020 8:45:00 PM 0.34 32.612 0.048 7.26 1.66 14.07
12/20/2020 9:00:00 PM 0.35 32.63 0.048 7.23 1.62 14.06
12/20/2020 9:15:00 PM 0.36 32.648 0.048 7.26 1.65 14.06
12/20/2020 9:30:00 PM 0.37 32.666 0.048 7.26 1.68 14.04
12/20/2020 9:45:00 PM 0.38 32.684 0.048 7.16 1.77 14.04
12/20/2020 10:00:00 PM 0.41 32.738 0.048 7.26 1.65 14.03
12/20/2020 10:15:00 PM 0.43 32.774 0.048 7.28 1.66 14.02
12/20/2020 10:30:00 PM 0.45 32.81 0.048 7.27 1.67 14.01
12/20/2020 10:45:00 PM 0.47 32.846 0.048 7.18 1.76 14
12/20/2020 11:00:00 PM 0.49 32.882 0.048 7.28 1.64 13.99
12/20/2020 11:15:00 PM 0.51 32.918 0.048 7.15 1.64 13.98
12/20/2020 11:30:00 PM 0.53 32.954 0.048 7.2 1.66 13.98
12/20/2020 11:45:00 PM 0.54 32.972 0.048 7.2 1.64 13.97
12/21/2020 12:00:00 AM 0.56 33.008 0.048 7.2 1.64 13.96
12/21/2020 12:15:00 AM 0.59 33.062 0.048 7.2 1.63 13.95
12/21/2020 12:30:00 AM 0.61 33.098 0.048 7.19 1.61 13.94
12/21/2020 12:45:00 AM 0.63 33.134 0.048 7.19 1.61 13.92
12/21/2020 1:00:00 AM 0.65 33.17 0.048 7.19 1.65 13.92
12/21/2020 1:15:00 AM 0.66 33.188 0.048 7.19 1.63 13.91
12/21/2020 1:30:00 AM 0.69 33.242 0.048 7.19 1.63 13.91
12/21/2020 1:45:00 AM 0.71 33.278 0.048 7.19 1.66 13.9
12/21/2020 2:00:00 AM 0.73 33.314 0.048 7.26 1.66 13.9
12/21/2020 2:15:00 AM 0.75 33.35 0.049 7.26 1.6 13.89
12/21/2020 2:30:00 AM 0.76 33.368 0.049 7.17 1.61 13.88
12/21/2020 2:45:00 AM 0.78 33.404 0.049 7.27 1.63 13.88
12/21/2020 3:00:00 AM 0.8 33.44 0.049 7.2 1.61 13.87
12/21/2020 3:15:00 AM 0.82 33.476 0.049 7.26 1.6 13.87
12/21/2020 3:30:00 AM 0.79 33.422 0.049 7.24 1.59 13.86
12/21/2020 3:45:00 AM 0.8 33.44 0.049 7.25 1.67 13.86
12/21/2020 4:00:00 AM 0.81 33.458 0.049 7.27 1.65 13.86
12/21/2020 4:15:00 AM 0.82 33.476 0.049 7.25 1.69 13.85
12/21/2020 4:30:00 AM 0.84 33.512 0.049 7.14 1.57 13.85
12/21/2020 4:45:00 AM 0.85 33.53 0.049 7.19 1.57 13.85
12/21/2020 5:00:00 AM 0.84 33.512 0.049 7.19 1.64 13.84
12/21/2020 5:15:00 AM 0.86 33.548 0.049 7.19 1.6 13.84
12/21/2020 5:30:00 AM 0.88 33.584 0.049 7.18 1.61 13.83
12/21/2020 5:45:00 AM 0.89 33.602 0.049 7.18 1.6 13.82
12/21/2020 6:00:00 AM 0.91 33.638 0.049 7.19 1.59 13.83
12/21/2020 6:15:00 AM 0.92 33.656 0.049 7.19 1.57 13.82
12/21/2020 6:30:00 AM 0.93 33.674 0.049 7.2 1.58 13.82
12/21/2020 6:45:00 AM 0.95 33.71 0.049 7.19 1.59 13.82
12/21/2020 7:00:00 AM 0.96 33.728 0.049 7.19 1.65 13.82
12/21/2020 7:15:00 AM 0.97 33.746 0.049 7.2 1.62 13.81
12/21/2020 7:30:00 AM 0.99 33.782 0.049 7.26 1.54 13.8
12/21/2020 7:45:00 AM 1.01 33.818 0.049 7.27 1.65 13.8
12/21/2020 8:00:00 AM 1.03 33.854 0.049 7.26 1.63 13.82
12/21/2020 8:15:00 AM 1.05 33.89 0.049 7.28 1.69 13.85
12/21/2020 8:30:00 AM 1.07 33.926 0.049 7.28 1.62 13.89
12/21/2020 8:45:00 AM 1.1 33.98 0.049 7.3 1.62 13.92
12/21/2020 9:00:00 AM 1.14 34.052 0.049 7.31 1.7 13.96
12/21/2020 9:15:00 AM 1.18 34.124 0.049 7.2 1.71 13.99
12/21/2020 9:30:00 AM 1.23 34.214 0.049 7.34 1.59 14
12/21/2020 9:45:00 AM 1.28 34.304 0.048 7.32 1.63 14.01
12/21/2020 10:00:00 AM 1.33 34.394 0.048 7.27 1.72 14.02
12/21/2020 10:15:00 AM 1.38 34.484 0.048 7.35 1.64 14.02
12/21/2020 10:30:00 AM 1.42 34.556 0.048 7.29 1.65 14.03
12/21/2020 10:45:00 AM 1.47 34.646 0.048 7.31 1.65 14.02
12/21/2020 11:00:00 AM 1.54 34.772 0.048 7.34 1.6 14.02
12/21/2020 11:15:00 AM 1.62 34.916 0.048 7.33 1.69 14
12/21/2020 11:30:00 AM 1.67 35.006 0.048 7.34 1.68 13.99
12/21/2020 11:45:00 AM 1.71 35.078 0.048 7.34 1.64 13.97
12/21/2020 12:00:00 PM 1.78 35.204 0.048 7.34 1.64 13.95
12/21/2020 12:15:00 PM 1.83 35.294 0.048 7.36 1.64 13.93
12/21/2020 12:30:00 PM 1.86 35.348 0.048 7.36 1.67 13.89
12/21/2020 12:45:00 PM 1.9 35.42 0.048 7.35 1.64 13.87
12/21/2020 1:00:00 PM 1.95 35.51 0.048 7.36 1.56 13.86
12/21/2020 1:15:00 PM 1.99 35.582 0.048 7.36 1.61 13.85
12/21/2020 1:30:00 PM 2.02 35.636 0.048 7.43 1.78 13.84
12/21/2020 1:45:00 PM 2.06 35.708 0.048 7.35 3.9 13.83
12/21/2020 2:00:00 PM 2.12 35.816 0.048 7.38 2.98 13.81
12/21/2020 2:15:00 PM 2.17 35.906 0.048 7.44 1.75 13.8
12/21/2020 2:30:00 PM 2.19 35.942 0.048 7.44 1.69 13.78
12/21/2020 2:45:00 PM 2.2 35.96 0.048 7.34 1.58 13.76
12/21/2020 3:00:00 PM 2.2 35.96 0.048 7.36 1.69 13.75
12/21/2020 3:15:00 PM 2.23 36.014 0.048 7.37 1.7 13.7
12/21/2020 3:30:00 PM 2.25 36.05 0.048 7.43 1.64 13.68
12/21/2020 3:45:00 PM 2.26 36.068 0.048 7.32 1.61 13.62
12/21/2020 4:00:00 PM 2.27 36.086 0.048 7.35 1.64 13.59
12/21/2020 4:15:00 PM 2.26 36.068 0.048 7.32 1.66 13.55
12/21/2020 4:30:00 PM 2.26 36.068 0.048 7.31 1.67 13.52
12/21/2020 4:45:00 PM 2.26 36.068 0.048 7.31 1.67 13.48
12/21/2020 5:00:00 PM 2.25 36.05 0.048 7.3 1.75 13.43
12/21/2020 5:15:00 PM 2.25 36.05 0.048 7.33 1.65 13.4
12/21/2020 5:30:00 PM 2.24 36.032 0.048 7.33 1.69 13.38
12/21/2020 5:45:00 PM 2.24 36.032 0.048 7.33 1.65 13.36
12/21/2020 6:00:00 PM 2.23 36.014 0.048 7.32 1.72 13.35
12/21/2020 6:15:00 PM 2.23 36.014 0.048 7.21 1.69 13.33
12/21/2020 6:30:00 PM 2.23 36.014 0.048 7.24 1.7 13.31
12/21/2020 6:45:00 PM 2.22 35.996 0.048 7.24 1.74 13.32
12/21/2020 7:00:00 PM 2.22 35.996 0.048 7.29 1.65 13.31
12/21/2020 7:15:00 PM 2.21 35.978 0.048 7.24 1.69 13.31
12/21/2020 7:30:00 PM 2.21 35.978 0.048 7.22 1.65 13.3
12/21/2020 7:45:00 PM 2.21 35.978 0.048 7.23 1.64 13.3
12/21/2020 8:00:00 PM 2.21 35.978 0.048 7.22 1.7 13.3
12/21/2020 8:15:00 PM 2.21 35.978 0.048 7.22 1.63 13.3
12/21/2020 8:30:00 PM 2.22 35.996 0.048 7.23 1.62 13.29
12/21/2020 8:45:00 PM 2.22 35.996 0.049 7.22 1.69 13.29
12/21/2020 9:00:00 PM 2.22 35.996 0.049 7.24 1.61 13.29
12/21/2020 9:15:00 PM 2.23 36.014 0.049 7.22 1.62 13.29
12/21/2020 9:30:00 PM 2.23 36.014 0.049 7.28 1.66 13.28
12/21/2020 9:45:00 PM 2.23 36.014 0.049 7.29 1.65 13.28
12/21/2020 10:00:00 PM 2.23 36.014 0.049 7.29 1.59 13.28
12/21/2020 10:15:00 PM 2.24 36.032 0.049 7.27 1.66 13.28
12/21/2020 10:30:00 PM 2.24 36.032 0.049 7.18 1.61 13.28
12/21/2020 10:45:00 PM 2.23 36.014 0.049 7.21 1.64 13.27
12/21/2020 11:00:00 PM 2.24 36.032 0.049 7.2 1.62 13.27
12/21/2020 11:15:00 PM 2.24 36.032 0.049 7.21 1.65 13.26
12/21/2020 11:30:00 PM 2.24 36.032 0.049 7.21 1.65 13.27
12/21/2020 11:45:00 PM 2.23 36.014 0.049 7.2 1.65 13.26
12/22/2020 12:00:00 AM 2.23 36.014 0.049 7.2 1.6 13.27
12/22/2020 12:15:00 AM 2.23 36.014 0.049 7.2 1.64 13.26
12/22/2020 12:30:00 AM 2.23 36.014 0.049 7.21 1.59 13.27
12/22/2020 12:45:00 AM 2.23 36.014 0.049 7.2 1.59 13.27
12/22/2020 1:00:00 AM 2.22 35.996 0.049 7.28 1.63 13.26
12/22/2020 1:15:00 AM 2.22 35.996 0.049 7.24 1.61 13.27
12/22/2020 1:30:00 AM 2.22 35.996 0.049 7.27 1.58 13.26
12/22/2020 1:45:00 AM 2.22 35.996 0.049 7.14 1.6 13.26
12/22/2020 2:00:00 AM 2.22 35.996 0.049 7.29 1.63 13.27
12/22/2020 2:15:00 AM 2.23 36.014 0.049 7.28 1.62 13.27
12/22/2020 2:30:00 AM 2.21 35.978 0.049 7.18 1.6 13.26
12/22/2020 2:45:00 AM 2.2 35.96 0.049 7.27 1.68 13.26
12/22/2020 3:00:00 AM 2.18 35.924 0.049 7.18 1.62 13.27
12/22/2020 3:15:00 AM 2.16 35.888 0.049 7.19 1.62 13.27
12/22/2020 3:30:00 AM 2.16 35.888 0.049 7.19 1.65 13.28
12/22/2020 3:45:00 AM 2.15 35.87 0.049 7.2 1.59 13.28
12/22/2020 4:00:00 AM 2.14 35.852 0.049 7.2 1.63 13.28
12/22/2020 4:15:00 AM 2.13 35.834 0.049 7.2 1.66 13.29
12/22/2020 4:30:00 AM 2.11 35.798 0.049 7.19 1.65 13.29
12/22/2020 4:45:00 AM 2.1 35.78 0.049 7.2 1.68 13.29
12/22/2020 5:00:00 AM 2.09 35.762 0.049 7.21 1.64 13.3
12/22/2020 5:15:00 AM 2.08 35.744 0.049 7.27 1.65 13.31
12/22/2020 5:30:00 AM 2.06 35.708 0.049 7.23 1.66 13.31
12/22/2020 5:45:00 AM 2.05 35.69 0.049 7.27 1.63 13.33
12/22/2020 6:00:00 AM 2.05 35.69 0.049 7.27 1.63 13.33
12/22/2020 6:15:00 AM 2.06 35.708 0.049 7.14 1.6 13.33
12/22/2020 6:30:00 AM 2.06 35.708 0.049 7.21 1.58 13.35
12/22/2020 6:45:00 AM 2.07 35.726 0.049 7.19 1.62 13.35
12/22/2020 7:00:00 AM 2.08 35.744 0.049 7.2 1.63 13.34
12/22/2020 7:15:00 AM 2.1 35.78 0.049 7.2 1.58 13.36
12/22/2020 7:30:00 AM 2.1 35.78 0.049 7.21 1.65 13.35
12/22/2020 7:45:00 AM 2.12 35.816 0.049 7.2 1.64 13.36
12/22/2020 8:00:00 AM 2.13 35.834 0.049 7.21 1.63 13.38
12/22/2020 8:15:00 AM 2.14 35.852 0.049 7.22 1.61 13.4
12/22/2020 8:30:00 AM 2.16 35.888 0.049 7.26 1.67 13.45
12/22/2020 8:45:00 AM 2.17 35.906 0.049 7.29 1.6 13.48
12/22/2020 9:00:00 AM 2.19 35.942 0.049 7.32 1.61 13.51
12/22/2020 9:15:00 AM 2.21 35.978 0.049 7.33 1.6 13.57
12/22/2020 9:30:00 AM 2.23 36.014 0.049 7.3 1.59 13.61
12/22/2020 9:45:00 AM 2.27 36.086 0.049 7.32 1.62 13.64
12/22/2020 10:00:00 AM 2.31 36.158 0.048 7.34 1.6 13.67
12/22/2020 10:15:00 AM 2.35 36.23 0.048 7.38 1.63 13.7
12/22/2020 10:30:00 AM 2.38 36.284 0.048 7.33 1.61 13.71
12/22/2020 10:45:00 AM 2.45 36.41 0.047 7.47 1.68 13.37
12/22/2020 11:00:00 AM 2.51 36.518 0.047 7.24 1.68 13.37
12/22/2020 11:15:00 AM 2.54 36.572 0.047 7.18 1.71 13.37
12/22/2020 11:30:00 AM 2.59 36.662 0.047 7.16 1.71 13.37
12/22/2020 11:45:00 AM 2.58 36.644 0.047 7.12 1.67 13.38
12/22/2020 12:00:00 PM 2.61 36.698 0.047 7.11 1.68 13.36
12/22/2020 12:15:00 PM 2.64 36.752 0.047 7.11 1.67 13.36
12/22/2020 12:30:00 PM 2.69 36.842 0.047 7.12 1.68 13.35
12/22/2020 12:45:00 PM 2.71 36.878 0.047 7.09 1.66 13.34
12/22/2020 1:00:00 PM 2.77 36.986 0.047 7.1 1.65 13.35
12/22/2020 1:15:00 PM 2.8 37.04 0.047 7.09 1.63 13.34
12/22/2020 1:30:00 PM 2.8 37.04 0.047 7.09 1.69 13.33
12/22/2020 1:45:00 PM 2.83 37.094 0.047 7.08 1.69 13.32
12/22/2020 2:00:00 PM 2.87 37.166 0.047 7.08 1.68 13.31
12/22/2020 2:15:00 PM 2.91 37.238 0.047 7.09 1.63 13.3
12/22/2020 2:30:00 PM 2.94 37.292 0.047 7.08 1.71 13.27
12/22/2020 2:45:00 PM 2.94 37.292 0.047 7.08 1.73 13.24
12/22/2020 3:00:00 PM 2.93 37.274 0.047 7.06 1.7 13.23
12/22/2020 3:15:00 PM 2.91 37.238 0.047 7.06 1.71 13.19
12/22/2020 3:30:00 PM 2.91 37.238 0.047 7.05 1.69 13.17
12/22/2020 3:45:00 PM 2.9 37.22 0.047 7.03 1.72 13.15
12/22/2020 4:00:00 PM 2.89 37.202 0.047 7.03 1.7 13.14
12/22/2020 4:15:00 PM 2.86 37.148 0.047 7.02 1.62 13.16
12/22/2020 4:30:00 PM 2.82 37.076 0.047 7.01 1.67 13.14
12/22/2020 4:45:00 PM 2.78 37.004 0.047 7.01 1.66 13.1
12/22/2020 5:00:00 PM 2.76 36.968 0.047 6.99 1.72 13.07
12/22/2020 5:15:00 PM 2.74 36.932 0.047 6.98 1.69 13.05
12/22/2020 5:30:00 PM 2.71 36.878 0.047 6.97 1.72 13.04
12/22/2020 5:45:00 PM 2.68 36.824 0.047 6.96 1.71 13.03
12/22/2020 6:00:00 PM 2.66 36.788 0.048 6.96 1.69 13.02
12/22/2020 6:15:00 PM 2.63 36.734 0.048 6.93 1.71 13.01
12/22/2020 6:30:00 PM 2.61 36.698 0.048 6.94 1.69 13.01
12/22/2020 6:45:00 PM 2.58 36.644 0.048 6.94 1.74 13.01
12/22/2020 7:00:00 PM 2.57 36.626 0.048 6.94 1.72 13.02
12/22/2020 7:15:00 PM 2.54 36.572 0.048 6.92 1.69 13.02
12/22/2020 7:30:00 PM 2.53 36.554 0.048 6.93 1.73 13.04
12/22/2020 7:45:00 PM 2.51 36.518 0.048 6.93 1.74 13.04
12/22/2020 8:00:00 PM 2.49 36.482 0.048 6.91 1.72 13.05
12/22/2020 8:15:00 PM 2.47 36.446 0.048 6.91 1.68 13.06
12/22/2020 8:30:00 PM 2.46 36.428 0.048 6.92 1.7 13.07
12/22/2020 8:45:00 PM 2.44 36.392 0.048 6.91 1.75 13.07
12/22/2020 9:00:00 PM 2.43 36.374 0.048 6.92 1.72 13.08
12/22/2020 9:15:00 PM 2.41 36.338 0.048 6.92 1.71 13.09
12/22/2020 9:30:00 PM 2.4 36.32 0.048 6.9 1.72 13.1
12/22/2020 9:45:00 PM 2.39 36.302 0.048 6.9 1.69 13.1
12/22/2020 10:00:00 PM 2.37 36.266 0.048 6.91 1.68 13.1
12/22/2020 10:15:00 PM 2.37 36.266 0.048 6.91 1.72 13.11
12/22/2020 10:30:00 PM 2.36 36.248 0.048 6.91 1.68 13.12
12/22/2020 10:45:00 PM 2.35 36.23 0.048 6.91 1.72 13.11
12/22/2020 11:00:00 PM 2.34 36.212 0.048 6.89 1.66 13.13
12/22/2020 11:15:00 PM 2.33 36.194 0.048 6.91 1.67 13.13
12/22/2020 11:30:00 PM 2.31 36.158 0.048 6.9 1.7 13.13
12/22/2020 11:45:00 PM 2.29 36.122 0.048 6.9 1.68 13.14
12/23/2020 12:00:00 AM 2.26 36.068 0.048 6.89 1.62 13.15
12/23/2020 12:15:00 AM 2.25 36.05 0.048 6.9 1.67 13.15
12/23/2020 12:30:00 AM 2.24 36.032 0.048 6.89 1.71 13.16
12/23/2020 12:45:00 AM 2.23 36.014 0.048 6.91 1.7 13.16
12/23/2020 1:00:00 AM 2.22 35.996 0.048 6.89 1.7 13.17
12/23/2020 1:15:00 AM 2.21 35.978 0.048 6.9 1.69 13.17
12/23/2020 1:30:00 AM 2.21 35.978 0.048 6.89 1.69 13.18
12/23/2020 1:45:00 AM 2.21 35.978 0.048 6.9 1.71 13.17
12/23/2020 2:00:00 AM 2.21 35.978 0.048 6.9 1.7 13.18
12/23/2020 2:15:00 AM 2.2 35.96 0.048 6.89 1.67 13.18
12/23/2020 2:30:00 AM 2.19 35.942 0.048 6.88 1.67 13.18
12/23/2020 2:45:00 AM 2.17 35.906 0.048 6.9 1.66 13.19
12/23/2020 3:00:00 AM 2.16 35.888 0.048 6.88 1.7 13.19
12/23/2020 3:15:00 AM 2.16 35.888 0.048 6.88 1.72 13.2
12/23/2020 3:30:00 AM 2.16 35.888 0.048 6.9 1.68 13.2
12/23/2020 3:45:00 AM 2.15 35.87 0.048 6.9 1.64 13.21
12/23/2020 4:00:00 AM 2.13 35.834 0.048 6.89 1.75 13.21
12/23/2020 4:15:00 AM 2.1 35.78 0.048 6.88 1.61 13.22
12/23/2020 4:30:00 AM 2.08 35.744 0.048 6.88 1.65 13.22
12/23/2020 4:45:00 AM 2.05 35.69 0.048 6.87 1.7 13.23
12/23/2020 5:00:00 AM 2.02 35.636 0.048 6.88 1.71 13.24
12/23/2020 5:15:00 AM 1.99 35.582 0.048 6.88 1.7 13.25
12/23/2020 5:30:00 AM 1.96 35.528 0.048 6.86 1.73 13.27
12/23/2020 5:45:00 AM 1.94 35.492 0.048 6.88 1.68 13.28
12/23/2020 6:00:00 AM 1.9 35.42 0.049 6.87 1.66 13.3
12/23/2020 6:15:00 AM 1.86 35.348 0.049 6.87 1.69 13.31
12/23/2020 6:30:00 AM 1.82 35.276 0.049 6.86 1.66 13.33
12/23/2020 6:45:00 AM 1.79 35.222 0.049 6.87 1.7 13.33
12/23/2020 7:00:00 AM 1.76 35.168 0.049 6.86 1.68 13.35
12/23/2020 7:15:00 AM 1.72 35.096 0.049 6.87 1.68 13.37
12/23/2020 7:30:00 AM 1.68 35.024 0.049 6.87 1.67 13.39
12/23/2020 7:45:00 AM 1.63 34.934 0.049 6.87 1.77 13.41
12/23/2020 8:00:00 AM 1.59 34.862 0.049 6.86 1.66 13.46
12/23/2020 8:15:00 AM 1.57 34.826 0.049 6.87 1.7 13.52
12/23/2020 8:30:00 AM 1.55 34.79 0.049 6.91 1.82 13.58
12/23/2020 8:45:00 AM 1.53 34.754 0.048 6.89 1.77 13.63
12/23/2020 9:00:00 AM 1.51 34.718 0.048 6.91 1.71 13.69
12/23/2020 9:15:00 AM 1.51 34.718 0.048 6.91 1.85 13.72
12/23/2020 9:30:00 AM 1.51 34.718 0.048 6.93 1.71 13.76
12/23/2020 9:45:00 AM 1.53 34.754 0.048 6.94 1.76 13.8
12/23/2020 10:00:00 AM 1.55 34.79 0.048 6.95 1.79 13.82
12/23/2020 10:15:00 AM 1.58 34.844 0.048 6.99 1.81 13.84
12/23/2020 10:30:00 AM 1.64 34.952 0.048 6.99 2.36 13.84
12/23/2020 10:45:00 AM 1.68 35.024 0.048 7.01 1.86 13.84
12/23/2020 11:00:00 AM 1.75 35.15 0.048 7.02 1.71 13.84
12/23/2020 11:15:00 AM 1.85 35.33 0.048 7.03 1.66 13.81
12/23/2020 11:30:00 AM 1.9 35.42 0.048 7.03 1.68 13.79
12/23/2020 11:45:00 AM 1.98 35.564 0.048 7.04 1.64 13.78
12/23/2020 12:00:00 PM 2.08 35.744 0.048 7.05 1.64 13.75
12/23/2020 12:15:00 PM 2.2 35.96 0.048 7.05 1.67 13.71
12/23/2020 12:30:00 PM 2.29 36.122 0.048 7.04 1.61 13.67
12/23/2020 12:45:00 PM 2.38 36.284 0.048 7.06 1.64 13.65
12/23/2020 1:00:00 PM 2.46 36.428 0.048 7.06 1.61 13.61
12/23/2020 1:15:00 PM 2.55 36.59 0.047 7.07 1.62 13.57
12/23/2020 1:30:00 PM 2.64 36.752 0.047 7.08 1.64 13.54
12/23/2020 1:45:00 PM 2.72 36.896 0.047 7.08 1.63 13.51
12/23/2020 2:00:00 PM 2.78 37.004 0.047 7.07 1.62 13.48
12/23/2020 2:15:00 PM 2.83 37.094 0.047 7.07 1.61 13.46
12/23/2020 2:30:00 PM 2.87 37.166 0.047 7.07 1.62 13.43
12/23/2020 2:45:00 PM 2.89 37.202 0.047 7.07 1.61 13.41
12/23/2020 3:00:00 PM 2.92 37.256 0.047 7.07 1.63 13.39
12/23/2020 3:15:00 PM 2.92 37.256 0.047 7.05 1.6 13.37
12/23/2020 3:30:00 PM 2.93 37.274 0.047 7.06 1.64 13.35
12/23/2020 3:45:00 PM 2.91 37.238 0.047 7.06 1.61 13.32
12/23/2020 4:00:00 PM 2.88 37.184 0.047 7.04 1.62 13.3
12/23/2020 4:15:00 PM 2.84 37.112 0.047 7.04 1.65 13.27
12/23/2020 4:30:00 PM 2.81 37.058 0.047 7.01 1.62 13.22
12/23/2020 4:45:00 PM 2.77 36.986 0.048 7 1.67 13.19
12/23/2020 5:00:00 PM 2.72 36.896 0.048 6.97 1.67 13.15
12/23/2020 5:15:00 PM 2.67 36.806 0.048 6.97 1.65 13.13
12/23/2020 5:30:00 PM 2.61 36.698 0.048 6.95 1.62 13.12
12/23/2020 5:45:00 PM 2.56 36.608 0.048 6.93 1.64 13.1
12/23/2020 6:00:00 PM 2.52 36.536 0.048 6.94 1.63 13.1
12/23/2020 6:15:00 PM 2.48 36.464 0.048 6.94 1.62 13.09
12/23/2020 6:30:00 PM 2.45 36.41 0.048 6.92 1.68 13.08
12/23/2020 6:45:00 PM 2.41 36.338 0.048 6.92 1.66 13.08
12/23/2020 7:00:00 PM 2.38 36.284 0.048 6.91 1.64 13.08
12/23/2020 7:15:00 PM 2.35 36.23 0.048 6.92 1.66 13.09
12/23/2020 7:30:00 PM 2.33 36.194 0.048 6.9 1.69 13.09
12/23/2020 7:45:00 PM 2.3 36.14 0.048 6.91 1.66 13.09
12/23/2020 8:00:00 PM 2.27 36.086 0.048 6.9 1.68 13.1
12/23/2020 8:15:00 PM 2.24 36.032 0.048 6.89 1.71 13.1
12/23/2020 8:30:00 PM 2.22 35.996 0.049 6.89 1.66 13.12
12/23/2020 8:45:00 PM 2.19 35.942 0.049 6.89 1.65 13.12
12/23/2020 9:00:00 PM 2.16 35.888 0.049 6.89 1.65 13.12
12/23/2020 9:15:00 PM 2.15 35.87 0.049 6.89 1.62 13.13
12/23/2020 9:30:00 PM 2.13 35.834 0.049 6.9 1.69 13.14
12/23/2020 9:45:00 PM 2.11 35.798 0.049 6.89 1.65 13.14
12/23/2020 10:00:00 PM 2.1 35.78 0.049 6.89 1.62 13.15
12/23/2020 10:15:00 PM 2.09 35.762 0.049 6.89 1.63 13.15
12/23/2020 10:30:00 PM 2.08 35.744 0.049 6.9 1.65 13.14
12/23/2020 10:45:00 PM 2.07 35.726 0.049 6.89 1.65 13.15
12/23/2020 11:00:00 PM 2.05 35.69 0.049 6.89 1.69 13.15
12/23/2020 11:15:00 PM 2.04 35.672 0.049 6.87 1.67 13.16
12/23/2020 11:30:00 PM 2.02 35.636 0.049 6.88 1.64 13.17
12/23/2020 11:45:00 PM 2 35.6 0.049 6.89 1.65 13.16
12/24/2020 12:00:00 AM 1.99 35.582 0.049 6.89 1.66 13.17
12/24/2020 12:15:00 AM 1.97 35.546 0.049 6.89 1.68 13.18
12/24/2020 12:30:00 AM 1.94 35.492 0.049 6.88 1.61 13.18
12/24/2020 12:45:00 AM 1.92 35.456 0.049 6.89 1.65 13.18
12/24/2020 1:00:00 AM 1.89 35.402 0.049 6.89 1.64 13.2
12/24/2020 1:15:00 AM 1.87 35.366 0.049 6.89 1.66 13.2
12/24/2020 1:30:00 AM 1.86 35.348 0.049 6.88 1.68 13.21
12/24/2020 1:45:00 AM 1.83 35.294 0.049 6.89 1.61 13.21
12/24/2020 2:00:00 AM 1.81 35.258 0.049 6.88 1.65 13.22
12/24/2020 2:15:00 AM 1.81 35.258 0.049 6.89 1.64 13.22
12/24/2020 2:30:00 AM 1.79 35.222 0.049 6.88 1.61 13.22
12/24/2020 2:45:00 AM 1.77 35.186 0.049 6.88 1.64 13.23
12/24/2020 3:00:00 AM 1.76 35.168 0.049 6.88 1.65 13.23
12/24/2020 3:15:00 AM 1.75 35.15 0.049 6.89 1.63 13.24
12/24/2020 3:30:00 AM 1.74 35.132 0.049 6.89 1.64 13.24
12/24/2020 3:45:00 AM 1.72 35.096 0.049 6.9 1.61 13.25
12/24/2020 4:00:00 AM 1.71 35.078 0.049 6.88 1.64 13.25
12/24/2020 4:15:00 AM 1.7 35.06 0.049 6.89 1.63 13.25
12/24/2020 4:30:00 AM 1.69 35.042 0.049 6.89 1.63 13.25
12/24/2020 4:45:00 AM 1.67 35.006 0.049 6.9 1.65 13.25
12/24/2020 5:00:00 AM 1.67 35.006 0.049 6.89 1.66 13.25
12/24/2020 5:15:00 AM 1.7 35.06 0.049 6.91 1.59 13.26
12/24/2020 5:30:00 AM 1.74 35.132 0.049 6.91 1.65 13.24
12/24/2020 5:45:00 AM 1.78 35.204 0.049 6.9 1.68 13.24
12/24/2020 6:00:00 AM 1.82 35.276 0.049 6.89 1.66 13.23
12/24/2020 6:15:00 AM 1.86 35.348 0.049 6.9 1.64 13.21
12/24/2020 6:30:00 AM 1.92 35.456 0.049 6.92 1.66 13.19
12/24/2020 6:45:00 AM 1.97 35.546 0.049 6.92 1.65 13.17
12/24/2020 7:00:00 AM 2.03 35.654 0.049 6.9 1.66 13.15
12/24/2020 7:15:00 AM 2.08 35.744 0.049 6.91 1.64 13.13
12/24/2020 7:30:00 AM 2.12 35.816 0.049 6.91 1.65 13.11
12/24/2020 7:45:00 AM 2.16 35.888 0.049 6.9 1.73 13.1
12/24/2020 8:00:00 AM 2.19 35.942 0.049 6.91 1.71 13.1
12/24/2020 8:15:00 AM 2.23 36.014 0.049 6.91 1.67 13.12
12/24/2020 8:30:00 AM 2.27 36.086 0.049 6.91 1.69 13.13
12/24/2020 8:45:00 AM 2.3 36.14 0.049 6.93 1.67 13.15
12/24/2020 9:00:00 AM 2.34 36.212 0.048 6.93 1.71 13.16
12/24/2020 9:15:00 AM 2.38 36.284 0.048 6.93 1.69 13.18
12/24/2020 9:30:00 AM 2.42 36.356 0.048 6.95 1.71 13.2
12/24/2020 9:45:00 AM 2.46 36.428 0.048 6.95 1.73 13.22
12/24/2020 10:00:00 AM 2.51 36.518 0.048 6.96 1.77 13.25
12/24/2020 10:15:00 AM 2.56 36.608 0.048 6.97 1.74 13.27
12/24/2020 10:30:00 AM 2.6 36.68 0.048 6.97 1.85 13.27
12/24/2020 10:45:00 AM 2.64 36.752 0.047 6.98 1.82 13.27
12/24/2020 11:00:00 AM 2.68 36.824 0.047 6.98 1.99 13.27
12/24/2020 11:15:00 AM 2.72 36.896 0.047 6.98 2.04 13.24
12/24/2020 11:30:00 AM 2.76 36.968 0.047 6.97 2.08 13.24
12/24/2020 11:45:00 AM 2.8 37.04 0.047 6.97 2.1 13.23
12/24/2020 12:00:00 PM 2.84 37.112 0.047 6.96 2.16 13.21
12/24/2020 12:15:00 PM 2.85 37.13 0.047 6.95 2.28 13.19
12/24/2020 12:30:00 PM 2.86 37.148 0.046 6.95 2.42 13.17
12/24/2020 12:45:00 PM 2.87 37.166 0.046 6.93 2.73 13.15
12/24/2020 1:00:00 PM 2.89 37.202 0.046 6.94 2.92 13.15
12/24/2020 1:15:00 PM 2.89 37.202 0.046 6.94 3.23 13.12
12/24/2020 1:30:00 PM 2.89 37.202 0.046 6.91 3.57 13.11
12/24/2020 1:45:00 PM 2.89 37.202 0.045 6.91 4.01 13.09
12/24/2020 2:00:00 PM 2.87 37.166 0.045 6.89 4.48 13.07
12/24/2020 2:15:00 PM 2.84 37.112 0.045 6.85 5.31 13.05
12/24/2020 2:30:00 PM 2.82 37.076 0.044 6.86 6.12 13.03
12/24/2020 2:45:00 PM 2.78 37.004 0.044 6.83 6.72 13
12/24/2020 3:00:00 PM 2.74 36.932 0.044 6.8 7.94 12.98
12/24/2020 3:15:00 PM 2.71 36.878 0.043 6.8 9.69 12.96
12/24/2020 3:30:00 PM 2.66 36.788 0.043 6.78 10.79 12.94
12/24/2020 3:45:00 PM 2.62 36.716 0.043 6.79 13.78 12.93
12/24/2020 4:00:00 PM 2.59 36.662 0.042 6.76 12.96 12.92
12/24/2020 4:15:00 PM 2.56 36.608 0.042 6.73 18.43 12.9
12/24/2020 4:30:00 PM 2.54 36.572 0.042 6.75 24.84 12.88
12/24/2020 4:45:00 PM 2.52 36.536 0.042 6.72 28.02 12.87
12/24/2020 5:00:00 PM 2.49 36.482 0.041 6.69 30.17 12.86
12/24/2020 5:15:00 PM 2.46 36.428 0.041 6.73 43.08 12.84
12/24/2020 5:30:00 PM 2.44 36.392 0.041 6.72 61.38 12.83
12/24/2020 5:45:00 PM 2.43 36.374 0.041 6.74 43.4 12.82
12/24/2020 6:00:00 PM 2.41 36.338 0.04 6.67 44.85 12.82
12/24/2020 6:15:00 PM 2.39 36.302 0.04 6.76 50.72 12.82
12/24/2020 6:30:00 PM 2.37 36.266 0.04 6.65 57.54 12.81
12/24/2020 6:45:00 PM 2.34 36.212 0.039 6.61 1038.3 12.8
12/24/2020 7:00:00 PM 2.32 36.176 0.039 6.63 135.27 12.82
12/24/2020 7:15:00 PM 2.33 36.194 0.039 6.63 86.03 12.82
12/24/2020 7:30:00 PM 2.34 36.212 0.039 6.63 65.92 12.81
12/24/2020 7:45:00 PM 2.34 36.212 0.039 6.62 74.26 12.8
12/24/2020 8:00:00 PM 2.35 36.23 0.038 6.59 80.26 12.8
12/24/2020 8:15:00 PM 2.32 36.176 0.038 6.6 215.33 12.79
12/24/2020 8:30:00 PM 2.33 36.194 0.038 6.6 71.62 12.8
12/24/2020 8:45:00 PM 2.31 36.158 0.038 6.58 80.72 12.8
12/24/2020 9:00:00 PM 2.3 36.14 0.038 6.53 143.9 12.81
12/24/2020 9:15:00 PM 2.31 36.158 0.038 6.56 115.61 12.8
12/24/2020 9:30:00 PM 2.3 36.14 0.037 6.56 88.07 12.8
12/24/2020 9:45:00 PM 2.31 36.158 0.03 6.57 5.96 12.8
12/24/2020 10:00:00 PM 2.35 36.23 0.028 6.54 31.66 12.79
12/24/2020 10:15:00 PM 2.41 36.338 0.027 6.56 109.94 12.76
12/24/2020 10:30:00 PM 2.45 36.41 0.026 6.55 35.81 12.74
12/24/2020 10:45:00 PM 2.5 36.5 0.025 6.55 40.37 12.72
12/24/2020 11:00:00 PM 2.52 36.536 0.024 6.55 52.35 12.7
12/24/2020 11:15:00 PM 2.58 36.644 0.022 6.55 82.21 12.7
12/24/2020 11:30:00 PM 2.65 36.77 0.02 6.52 370.95 12.67
12/24/2020 11:45:00 PM 2.73 36.914 0.027 6.6 98.49 12.64
12/25/2020 12:00:00 AM 2.8 37.04 0.022 6.51 148.96 12.62
12/25/2020 12:15:00 AM 2.86 37.148 0.027 6.51 96.63 12.59
12/25/2020 12:30:00 AM 2.89 37.202 0.028 6.49 100.96 12.58
12/25/2020 12:45:00 AM 2.93 37.274 0.024 6.5 93.02 12.55
12/25/2020 1:00:00 AM 2.99 37.382 0.022 6.49 145.78 12.55
12/25/2020 1:15:00 AM 3.04 37.472 0.028 6.47 13427.51 12.52
12/25/2020 1:30:00 AM 3.09 37.562 0.024 6.44 62.46 12.5
12/25/2020 1:45:00 AM 3.12 37.616 0.022 6.43 76.44 12.49
12/25/2020 2:00:00 AM 3.17 37.706 0.027 6.42 96.48 12.47
12/25/2020 2:15:00 AM 3.22 37.796 0.024 6.43 1252.42 12.46
12/25/2020 2:30:00 AM 3.25 37.85 0.023 6.46 129.7 12.45
12/25/2020 2:45:00 AM 3.28 37.904 0.027 6.45 93.27 12.43
12/25/2020 3:00:00 AM 3.3 37.94 0.026 6.43 95.49 12.42
12/25/2020 3:15:00 AM 3.32 37.976 0.026 6.44 100.49 12.41
12/25/2020 3:30:00 AM 3.34 38.012 0.025 6.43 98.62 12.4
12/25/2020 3:45:00 AM 3.38 38.084 0.026 6.43 697.5 12.39
12/25/2020 4:00:00 AM 3.41 38.138 0.023 6.46 92.93 12.38
12/25/2020 4:15:00 AM 3.45 38.21 0.035 6.44 103.95 12.38
12/25/2020 4:30:00 AM 3.48 38.264 0.035 6.42 80.33 12.37
12/25/2020 4:45:00 AM 3.5 38.3 0.035 6.47 81.98 12.37
12/25/2020 5:00:00 AM 3.54 38.372 0.035 6.44 75.77 12.36
12/25/2020 5:15:00 AM 3.56 38.408 0.035 6.47 76.64 12.35
12/25/2020 5:30:00 AM 3.58 38.444 0.035 6.46 95.47 12.35
12/25/2020 5:45:00 AM 3.61 38.498 0.035 6.4 88.43 12.35
12/25/2020 6:00:00 AM 3.63 38.534 0.035 6.42 67.04 12.34
12/25/2020 6:15:00 AM 3.66 38.588 0.035 6.46 84.06 12.34
12/25/2020 6:30:00 AM 3.68 38.624 0.035 6.45 81.73 12.34
12/25/2020 6:45:00 AM 3.7 38.66 0.035 6.45 81.87 12.33
12/25/2020 7:00:00 AM 3.72 38.696 0.035 6.46 77.68 12.34
12/25/2020 7:15:00 AM 3.73 38.714 0.035 6.47 72.16 12.33
12/25/2020 7:30:00 AM 3.75 38.75 0.035 6.48 67.7 12.33
12/25/2020 7:45:00 AM 3.77 38.786 0.035 6.49 62.27 12.34
12/25/2020 8:00:00 AM 3.79 38.822 0.035 6.5 74.17 12.33
12/25/2020 8:15:00 AM 3.81 38.858 0.035 6.52 70.08 12.33
12/25/2020 8:30:00 AM 3.82 38.876 0.035 6.51 55.31 12.33
12/25/2020 8:45:00 AM 3.82 38.876 0.035 6.5 53.01 12.32
12/25/2020 9:00:00 AM 3.84 38.912 0.035 6.5 51.61 12.33
12/25/2020 9:15:00 AM 3.86 38.948 0.035 6.49 147.18 12.32
12/25/2020 9:30:00 AM 3.89 39.002 0.035 6.5 66.05 12.31
12/25/2020 9:45:00 AM 3.93 39.074 0.035 6.51 60.4 12.3
12/25/2020 10:00:00 AM 3.96 39.128 0.036 6.5 55.46 12.3
12/25/2020 10:15:00 AM 3.99 39.182 0.036 6.52 50.12 12.3
12/25/2020 10:30:00 AM 4.02 39.236 0.036 6.52 41.65 12.29
12/25/2020 10:45:00 AM 4.05 39.29 0.036 6.52 47.42 12.28
12/25/2020 11:00:00 AM 4.08 39.344 0.036 6.52 42.32 12.27
12/25/2020 11:15:00 AM 4.1 39.38 0.035 6.52 47.28 12.26
12/25/2020 11:30:00 AM 4.13 39.434 0.036 6.5 67.49 12.26
12/25/2020 11:45:00 AM 4.16 39.488 0.036 6.52 38.07 12.25
12/25/2020 12:00:00 PM 4.19 39.542 0.035 6.53 37.3 12.24
12/25/2020 12:15:00 PM 4.21 39.578 0.035 6.55 33.81 12.23
12/25/2020 12:30:00 PM 4.23 39.614 0.029 6.52 36.58 12.23
12/25/2020 12:45:00 PM 4.25 39.65 0.035 6.52 34.75 12.22
12/25/2020 1:00:00 PM 4.27 39.686 0.035 6.51 32.27 12.22
12/25/2020 1:15:00 PM 4.3 39.74 0.024 6.42 38.84 12.21
12/25/2020 1:30:00 PM 4.32 39.776 0.035 6.48 39.73 12.21
12/25/2020 1:45:00 PM 4.33 39.794 0.035 6.49 32.55 12.2
12/25/2020 2:00:00 PM 4.34 39.812 0.035 6.5 33.69 12.19
12/25/2020 2:15:00 PM 4.35 39.83 0.035 6.48 31.25 12.2
12/25/2020 2:30:00 PM 4.36 39.848 0.035 6.51 32.2 12.19
12/25/2020 2:45:00 PM 4.37 39.866 0.035 6.47 27.52 12.19
12/25/2020 3:00:00 PM 4.37 39.866 0.035 6.5 30.24 12.19
12/25/2020 3:15:00 PM 4.37 39.866 0.035 6.48 30.09 12.19
12/25/2020 3:30:00 PM 4.37 39.866 0.035 6.5 28.69 12.19
12/25/2020 3:45:00 PM 4.37 39.866 0.035 6.48 27.9 12.19
12/25/2020 4:00:00 PM 4.37 39.866 0.035 6.5 28.79 12.19
12/25/2020 4:15:00 PM 4.36 39.848 0.035 6.5 26.13 12.19
12/25/2020 4:30:00 PM 4.35 39.83 0.035 6.48 25.32 12.2
12/25/2020 4:45:00 PM 4.33 39.794 0.035 6.49 27.24 12.2
12/25/2020 5:00:00 PM 4.32 39.776 0.035 6.47 28.04 12.2
12/25/2020 5:15:00 PM 4.3 39.74 0.035 6.48 28.53 12.21
12/25/2020 5:30:00 PM 4.29 39.722 0.035 6.49 25.02 12.22
12/25/2020 5:45:00 PM 4.26 39.668 0.035 6.48 24.97 12.23
12/25/2020 6:00:00 PM 4.24 39.632 0.035 6.48 25.18 12.24
12/25/2020 6:15:00 PM 4.22 39.596 0.035 6.47 25.13 12.25
12/25/2020 6:30:00 PM 4.2 39.56 0.035 6.47 21.53 12.26
12/25/2020 6:45:00 PM 4.18 39.524 0.035 6.48 24.87 12.26
12/25/2020 7:00:00 PM 4.16 39.488 0.035 6.49 23.39 12.27
12/25/2020 7:15:00 PM 4.14 39.452 0.035 6.47 23.66 12.28
12/25/2020 7:30:00 PM 4.12 39.416 0.035 6.48 23.35 12.29
12/25/2020 7:45:00 PM 4.11 39.398 0.035 6.47 28.98 12.3
12/25/2020 8:00:00 PM 4.09 39.362 0.035 6.48 22.97 12.3
12/25/2020 8:15:00 PM 4.08 39.344 0.035 6.47 23.45 12.31
12/25/2020 8:30:00 PM 4.06 39.308 0.035 6.48 21.43 12.32
12/25/2020 8:45:00 PM 4.05 39.29 0.035 6.48 22.07 12.33
12/25/2020 9:00:00 PM 4.04 39.272 0.035 6.51 20.83 12.33
12/25/2020 9:15:00 PM 4.02 39.236 0.035 6.48 20.6 12.34
12/25/2020 9:30:00 PM 4 39.2 0.035 6.48 20.53 12.35
12/25/2020 9:45:00 PM 3.99 39.182 0.035 6.47 20.13 12.35
12/25/2020 10:00:00 PM 3.97 39.146 0.035 6.45 20.73 12.36
12/25/2020 10:15:00 PM 3.96 39.128 0.035 6.46 20.17 12.36
12/25/2020 10:30:00 PM 3.95 39.11 0.035 6.47 19.63 12.36
12/25/2020 10:45:00 PM 3.93 39.074 0.035 6.49 19.6 12.37
12/25/2020 11:00:00 PM 3.92 39.056 0.035 6.47 19.54 12.37
12/25/2020 11:15:00 PM 3.91 39.038 0.035 6.48 19.65 12.38
12/25/2020 11:30:00 PM 3.89 39.002 0.035 6.48 19.2 12.39
12/25/2020 11:45:00 PM 3.87 38.966 0.035 6.47 15.4 12.39
12/26/2020 12:00:00 AM 3.86 38.948 0.035 6.47 19.18 12.39
12/26/2020 12:15:00 AM 3.85 38.93 0.035 6.48 19.67 12.4
12/26/2020 12:30:00 AM 3.84 38.912 0.035 6.48 18.5 12.4
12/26/2020 12:45:00 AM 3.83 38.894 0.035 6.49 17.5 12.41
12/26/2020 1:00:00 AM 3.81 38.858 0.035 6.49 16.93 12.41
12/26/2020 1:15:00 AM 3.8 38.84 0.035 6.48 16.96 12.42
12/26/2020 1:30:00 AM 3.78 38.804 0.035 6.48 15.87 12.43
12/26/2020 1:45:00 AM 3.76 38.768 0.035 6.49 18.6 12.43
12/26/2020 2:00:00 AM 3.75 38.75 0.035 6.46 17.58 12.44
12/26/2020 2:15:00 AM 3.73 38.714 0.035 6.49 18.25 12.45
12/26/2020 2:30:00 AM 3.7 38.66 0.035 6.5 16.53 12.46
12/26/2020 2:45:00 AM 3.69 38.642 0.035 6.5 16.05 12.47
12/26/2020 3:00:00 AM 3.67 38.606 0.035 6.49 17.21 12.47
12/26/2020 3:15:00 AM 3.65 38.57 0.035 6.47 17.15 12.47
12/26/2020 3:30:00 AM 3.64 38.552 0.035 6.52 16.12 12.49
12/26/2020 3:45:00 AM 3.63 38.534 0.035 6.53 16.8 12.49
12/26/2020 4:00:00 AM 3.61 38.498 0.035 6.51 15.24 12.5
12/26/2020 4:15:00 AM 3.61 38.498 0.035 6.52 16.84 12.5
12/26/2020 4:30:00 AM 3.6 38.48 0.035 6.53 15.37 12.51
12/26/2020 4:45:00 AM 3.58 38.444 0.035 6.51 15.26 12.51
12/26/2020 5:00:00 AM 3.57 38.426 0.035 6.54 15.2 12.51
12/26/2020 5:15:00 AM 3.55 38.39 0.035 6.53 15.02 12.53
12/26/2020 5:30:00 AM 3.54 38.372 0.036 6.53 15.39 12.53
12/26/2020 5:45:00 AM 3.51 38.318 0.036 6.53 13.99 12.54
12/26/2020 6:00:00 AM 3.49 38.282 0.036 6.52 14.51 12.55
12/26/2020 6:15:00 AM 3.48 38.264 0.036 6.53 15.11 12.55
12/26/2020 6:30:00 AM 3.48 38.264 0.036 6.54 14.86 12.56
12/26/2020 6:45:00 AM 3.48 38.264 0.036 6.54 14.62 12.56
12/26/2020 7:00:00 AM 3.47 38.246 0.036 6.55 14.91 12.57
12/26/2020 7:15:00 AM 3.47 38.246 0.036 6.56 17.81 12.57
12/26/2020 7:30:00 AM 3.47 38.246 0.036 6.56 15.05 12.57
12/26/2020 7:45:00 AM 3.47 38.246 0.036 6.56 14.86 12.58
12/26/2020 8:00:00 AM 3.46 38.228 0.036 6.56 14.61 12.59
12/26/2020 8:15:00 AM 3.47 38.246 0.036 6.57 14.55 12.58
12/26/2020 8:30:00 AM 3.48 38.264 0.036 6.58 14.34 12.59
12/26/2020 8:45:00 AM 3.48 38.264 0.036 6.58 14.31 12.6
12/26/2020 9:00:00 AM 3.49 38.282 0.036 6.58 14.68 12.6
12/26/2020 9:15:00 AM 3.49 38.282 0.036 6.58 13.95 12.6
12/26/2020 9:30:00 AM 3.5 38.3 0.036 6.6 14.36 12.61
12/26/2020 9:45:00 AM 3.52 38.336 0.036 6.6 13.85 12.61
12/26/2020 10:00:00 AM 3.53 38.354 0.036 6.59 13.64 12.61
12/26/2020 10:15:00 AM 3.55 38.39 0.036 6.6 13.37 12.61
12/26/2020 10:30:00 AM 3.56 38.408 0.036 6.61 13.32 12.61
12/26/2020 10:45:00 AM 3.57 38.426 0.036 6.61 13.21 12.61
12/26/2020 11:00:00 AM 3.59 38.462 0.036 6.62 13.03 12.61
12/26/2020 11:15:00 AM 3.6 38.48 0.036 6.61 12.33 12.61
12/26/2020 11:30:00 AM 3.62 38.516 0.036 6.63 12.35 12.6
12/26/2020 11:45:00 AM 3.65 38.57 0.036 6.62 12.29 12.59
12/26/2020 12:00:00 PM 3.68 38.624 0.036 6.21 13.2 12.59
12/26/2020 12:15:00 PM 3.71 38.678 0.036 6.63 12.72 12.58
12/26/2020 12:30:00 PM 3.74 38.732 0.036 6.5 12.68 12.57
12/26/2020 12:45:00 PM 3.76 38.768 0.036 6.34 12.05 12.56
12/26/2020 1:00:00 PM 3.78 38.804 0.036 6.29 12.44 12.55
12/26/2020 1:15:00 PM 3.8 38.84 0.036 6.01 13.55 12.54
12/26/2020 1:30:00 PM 3.83 38.894 0.036 6.18 14.17 12.54
12/26/2020 1:45:00 PM 3.84 38.912 0.036 6.31 13.54 12.53
12/26/2020 2:00:00 PM 3.85 38.93 0.036 6.39 12.73 12.55
12/26/2020 2:15:00 PM 3.86 38.948 0.036 6.36 15.05 12.55
12/26/2020 2:30:00 PM 3.85 38.93 0.036 6.19 12.04 12.56
12/26/2020 2:45:00 PM 3.86 38.948 0.036 6.35 12.94 12.55
12/26/2020 3:00:00 PM 3.87 38.966 0.036 5.77 15.03 12.58
12/26/2020 3:15:00 PM 3.88 38.984 0.036 5.87 5.2 12.6
12/26/2020 3:30:00 PM 3.88 38.984 0.033 5.79 9.09 12.62
12/26/2020 3:45:00 PM 3.86 38.948 0.035 5.9 10.96 12.61
12/26/2020 4:00:00 PM 3.83 38.894 0.021 5.9 12.83 12.63
12/26/2020 4:15:00 PM 3.83 38.894 0.031 5.95 5.18 12.64
12/26/2020 4:30:00 PM 3.77 38.786 0.019 5.86 8 12.66
12/26/2020 4:45:00 PM 3.8 38.84 0.029 5.88 6.35 12.66
12/26/2020 5:00:00 PM 3.75 38.75 0.01 5.9 5.95 12.68
12/26/2020 5:15:00 PM 3.68 38.624 0.016 5.85 6.44 12.7
12/26/2020 5:30:00 PM 3.61 38.498 0.008 5.88 5.04 12.72
12/26/2020 5:45:00 PM 3.61 38.498 0.024 5.86 4.91 12.73
12/26/2020 6:00:00 PM 3.31 37.958 0.003 5.85 4.99 12.81
12/26/2020 6:15:00 PM 3.05 37.49 0.004 5.87 4.98 12.87
12/26/2020 6:30:00 PM 2.9 37.22 0 5.78 4.94 12.98
12/26/2020 6:45:00 PM 2.91 37.238 0 5.76 4.93 12.99
12/26/2020 7:00:00 PM 2.61 36.698 0 5.71 4.91 13.1
12/26/2020 7:15:00 PM 2.21 35.978 0 5.7 5.01 13.3
12/26/2020 7:30:00 PM 2.05 35.69 0 5.61 4.94 13.37
12/26/2020 7:45:00 PM 1.95 35.51 0 5.66 5.04 13.4
12/26/2020 8:00:00 PM 1.96 35.528 0 5.62 5 13.43
12/26/2020 8:15:00 PM 1.79 35.222 0 5.57 5.03 13.46
12/26/2020 8:30:00 PM 1.75 35.15 0 5.56 5.12 13.47
12/26/2020 8:45:00 PM 1.53 34.754 0 5.58 5.15 13.57
12/26/2020 9:00:00 PM 1.55 34.79 0 5.56 5.13 13.56
12/26/2020 9:15:00 PM 1.31 34.358 0 5.56 5.13 13.64
12/26/2020 9:30:00 PM 1.13 34.034 0 5.54 4.89 13.74
12/26/2020 9:45:00 PM 1.12 34.016 0 5.53 4.63 13.74
12/26/2020 10:00:00 PM 1.42 34.556 0 5.58 4.84 13.63
12/26/2020 10:15:00 PM 1.13 34.034 0 5.59 4.77 13.73
12/26/2020 10:30:00 PM 1.05 33.89 0 5.6 4.77 13.77
12/26/2020 10:45:00 PM 1.05 33.89 0 5.6 4.77 13.77
12/26/2020 11:00:00 PM 0.88 33.584 0 5.59 4.75 13.85
12/26/2020 11:15:00 PM 0.82 33.476 0 5.61 4.82 13.88
12/26/2020 11:30:00 PM 0.81 33.458 0 5.58 4.7 13.87
12/26/2020 11:45:00 PM 0.86 33.548 0 5.59 4.85 13.86
12/27/2020 12:00:00 AM 0.9 33.62 0 5.62 4.82 13.84
12/27/2020 12:15:00 AM 0.85 33.53 0 5.61 4.89 13.86
12/27/2020 12:30:00 AM 0.94 33.692 0 5.58 4.93 13.82
12/27/2020 12:45:00 AM 0.96 33.728 0 5.6 4.77 13.83
12/27/2020 1:00:00 AM 0.82 33.476 0 5.56 4.82 13.88
12/27/2020 1:15:00 AM 0.75 33.35 0 5.65 4.84 13.91
12/27/2020 1:30:00 AM 0.81 33.458 0 5.63 4.74 13.9
12/27/2020 1:45:00 AM 0.7 33.26 0 5.64 4.7 13.95
12/27/2020 2:00:00 AM 0.65 33.17 0 5.62 4.63 13.97
12/27/2020 2:15:00 AM 0.57 33.026 0 5.68 4.67 13.99
12/27/2020 2:30:00 AM 0.41 32.738 0 5.63 4.72 14.06
12/27/2020 2:45:00 AM 0.44 32.792 0 5.63 4.67 14.05
12/27/2020 3:00:00 AM 0.42 32.756 0 5.71 4.63 14.07
12/27/2020 3:15:00 AM 0.45 32.81 0 5.61 4.69 14.06
12/27/2020 3:30:00 AM 0.4 32.72 0 5.58 4.72 14.08
12/27/2020 3:45:00 AM 0.46 32.828 0 5.69 4.71 14.04
12/27/2020 4:00:00 AM 0.45 32.81 0 5.59 4.62 14.07
12/27/2020 4:15:00 AM 0.38 32.684 0 5.6 4.73 14.11
12/27/2020 4:30:00 AM 0.27 32.486 0 5.62 4.66 14.15
12/27/2020 4:45:00 AM 0.3 32.54 0 5.62 4.53 14.13
12/27/2020 5:00:00 AM 0.16 32.288 0 5.62 4.69 14.2
12/27/2020 5:15:00 AM 0.27 32.486 0 5.59 4.7 14.16
12/27/2020 5:30:00 AM 0.18 32.324 0 5.64 4.58 14.21
12/27/2020 5:45:00 AM 0.16 32.288 0 5.63 4.62 14.21
12/27/2020 6:00:00 AM 0.24 32.432 0 5.62 4.56 14.19
12/27/2020 6:15:00 AM 0.17 32.306 0 5.66 4.59 14.2
12/27/2020 6:30:00 AM 0.27 32.486 0 5.64 4.68 14.17
12/27/2020 6:45:00 AM 0.18 32.324 0 5.63 4.65 14.22
12/27/2020 7:00:00 AM 0.08 32.144 0 5.54 4.61 14.27
12/27/2020 7:15:00 AM 0.06 32.108 0 5.68 4.62 14.28
12/27/2020 7:30:00 AM 0.07 32.126 0 5.6 4.64 14.27
12/27/2020 7:45:00 AM 0.04 32.072 0 5.77 4.63 14.29
12/27/2020 8:00:00 AM 0.1 32.18 0 5.79 4.65 14.25
12/27/2020 8:15:00 AM 0.04 32.072 0 5.86 4.59 14.29
12/27/2020 8:30:00 AM 0.05 32.09 0 5.77 4.53 14.28
12/27/2020 8:45:00 AM 0.04 32.072 0 6.33 4.71 14.3
12/27/2020 9:00:00 AM 0.05 32.09 0 6.46 4.43 14.28
12/27/2020 9:15:00 AM -0.01 31.982 0 6.63 4.62 14.32
12/27/2020 9:30:00 AM 0.11 32.198 0 6.63 4.53 14.26
12/27/2020 9:45:00 AM 0.13 32.234 0 6.34 4.51 14.23
12/27/2020 10:00:00 AM 0.14 32.252 0 6.35 4.54 14.23
12/27/2020 10:15:00 AM 0.17 32.306 0 6.4 4.54 14.22
12/27/2020 10:30:00 AM 0.21 32.378 0 6.58 4.62 14.21
12/27/2020 10:45:00 AM 0.24 32.432 0 6.75 4.56 14.2
12/27/2020 11:00:00 AM 0.25 32.45 0 6.85 4.62 14.21
12/27/2020 11:15:00 AM 0.25 32.45 0 6.81 4.67 14.21
12/27/2020 11:30:00 AM 0.36 32.648 0 6.79 4.59 14.14
12/27/2020 11:45:00 AM 0.23 32.414 0 6.68 4.56 14.19
12/27/2020 12:00:00 PM 0.24 32.432 0 5.96 4.49 14.18
12/27/2020 12:15:00 PM 0.24 32.432 0 5.97 4.55 14.2
12/27/2020 12:30:00 PM 0.27 32.486 0 6.02 4.58 14.17
12/27/2020 12:45:00 PM 0.15 32.27 0 5.79 4.52 14.24
12/27/2020 1:00:00 PM 0.28 32.504 0 5.85 4.62 14.17
12/27/2020 1:15:00 PM 0.46 32.828 0 5.79 4.6 14.09
12/27/2020 1:30:00 PM 0.47 32.846 0 5.85 4.72 14.08
12/27/2020 1:45:00 PM 0.43 32.774 0 5.83 4.67 14.09
12/27/2020 2:00:00 PM 0.47 32.846 0 5.87 4.56 14.07
12/27/2020 2:15:00 PM 0.46 32.828 0 5.79 4.56 14.09
12/27/2020 2:30:00 PM 0.42 32.756 0 5.86 4.56 14.1
12/27/2020 2:45:00 PM 0.49 32.882 0 5.9 4.6 14.07
12/27/2020 3:00:00 PM 0.57 33.026 0 5.95 4.61 14.03
12/27/2020 3:15:00 PM 0.61 33.098 0 6.11 4.63 14.01
12/27/2020 3:30:00 PM 0.57 33.026 0 6.03 4.63 14.01
12/27/2020 3:45:00 PM 0.53 32.954 0 6.1 4.71 14.05
12/27/2020 4:00:00 PM 0.7 33.26 0 6.19 4.62 13.97
12/27/2020 4:15:00 PM 0.64 33.152 0 6.14 4.61 14
12/27/2020 4:30:00 PM 0.69 33.242 0 6.12 4.64 13.98
12/27/2020 4:45:00 PM 0.73 33.314 0 6.14 4.6 13.96
12/27/2020 5:00:00 PM 0.67 33.206 0 6.11 4.63 13.98
12/27/2020 5:15:00 PM 0.73 33.314 0 6.15 4.65 13.95
12/27/2020 5:30:00 PM 0.46 32.828 0 6.09 4.65 14.07
12/27/2020 5:45:00 PM 0.33 32.594 0 6.1 4.61 14.13
12/27/2020 6:00:00 PM 0.22 32.396 0 6.09 4.7 14.18
12/27/2020 6:15:00 PM 0.17 32.306 0 6.1 4.71 14.21
12/27/2020 6:30:00 PM -0.05 31.91 0 6.01 4.72 14.3
12/27/2020 6:45:00 PM -0.16 31.712 0 6.06 4.6 14.35
12/27/2020 7:00:00 PM -0.15 31.73 0 6.07 4.78 14.37
12/27/2020 7:15:00 PM -0.08 31.856 0 6.13 4.76 14.31
12/27/2020 7:30:00 PM 0.01 32.018 0 6.15 4.7 14.26
12/27/2020 7:45:00 PM 0.05 32.09 0 6.16 4.68 14.26
12/27/2020 8:00:00 PM -0.07 31.874 0 6.11 4.66 14.28
12/27/2020 8:15:00 PM -0.05 31.91 0 6.1 4.66 14.29
12/27/2020 8:30:00 PM -0.07 31.874 0 6.1 4.69 14.3
12/27/2020 8:45:00 PM -0.16 31.712 0 6.09 4.75 14.35
12/27/2020 9:00:00 PM -0.1 31.82 0 6.19 4.78 14.32
12/27/2020 9:15:00 PM -0.03 31.946 0 6.17 4.83 14.28
12/27/2020 9:30:00 PM -0.02 31.964 0 6.18 4.79 14.27
12/27/2020 9:45:00 PM -0.09 31.838 0 6.2 4.8 14.32
12/27/2020 10:00:00 PM 0.04 32.072 0 6.22 4.74 14.25
12/27/2020 10:15:00 PM 0.06 32.108 0 6.21 4.73 14.23
12/27/2020 10:30:00 PM -0.06 31.892 0 6.18 4.78 14.28
12/27/2020 10:45:00 PM -0.04 31.928 0 6.19 4.81 14.28
12/27/2020 11:00:00 PM -0.05 31.91 0 6.23 4.72 14.28
12/27/2020 11:15:00 PM -0.15 31.73 0 6.15 4.86 14.34
12/27/2020 11:30:00 PM -0.09 31.838 0 6.14 4.72 14.31
12/27/2020 11:45:00 PM -0.07 31.874 0 6.21 4.8 14.28
12/28/2020 12:00:00 AM -0.09 31.838 0 6.22 4.72 14.28
12/28/2020 12:15:00 AM -0.06 31.892 0 6.24 4.72 14.26
12/28/2020 12:30:00 AM 0.04 32.072 0 6.24 4.81 14.2
12/28/2020 12:45:00 AM 0.08 32.144 0 6.26 5.07 14.2
12/28/2020 1:00:00 AM -0.08 31.856 0 6.27 4.84 14.26
12/28/2020 1:15:00 AM 0.1 32.18 0 6.26 4.7 14.17
12/28/2020 1:30:00 AM 0.11 32.198 0 6.29 4.81 14.17
12/28/2020 1:45:00 AM 0.1 32.18 0 6.28 4.8 14.18
12/28/2020 2:00:00 AM 0.12 32.216 0 6.29 4.71 14.17
12/28/2020 2:15:00 AM 0.14 32.252 0 6.26 4.85 14.15
12/28/2020 2:30:00 AM 0.2 32.36 0 6.31 4.86 14.12
12/28/2020 2:45:00 AM 0.14 32.252 0 6.14 4.78 14.14
12/28/2020 3:00:00 AM 0.11 32.198 0 6.19 4.91 14.17
12/28/2020 3:15:00 AM 0.16 32.288 0 6.31 4.89 14.13
12/28/2020 3:30:00 AM 0.2 32.36 0 6.25 4.81 14.11
12/28/2020 3:45:00 AM 0.22 32.396 0 6.23 4.96 14.11
12/28/2020 4:00:00 AM 0.17 32.306 0 6.3 4.9 14.14
12/28/2020 4:15:00 AM -0.08 31.856 0 6.13 5.03 14.25
12/28/2020 4:30:00 AM 0.15 32.27 0 6.25 4.94 14.15
12/28/2020 4:45:00 AM 0 32 0 6.17 4.81 14.21
12/28/2020 5:00:00 AM 0.16 32.288 0 6.27 4.8 14.14
12/28/2020 5:15:00 AM 0.24 32.432 0 6.24 4.74 14.1
12/28/2020 5:30:00 AM 0.29 32.522 0 6.29 4.8 14.08
12/28/2020 5:45:00 AM 0.4 32.72 0 6.31 4.82 14.03
12/28/2020 6:00:00 AM 0.46 32.828 0 6.31 4.85 14
12/28/2020 6:15:00 AM 0.48 32.864 0 6.29 4.8 14
12/28/2020 6:30:00 AM 0.56 33.008 0 6.29 4.86 13.96
12/28/2020 6:45:00 AM 0.63 33.134 0 6.33 4.8 13.93
12/28/2020 7:00:00 AM 0.64 33.152 0 6.33 4.84 13.93
12/28/2020 7:15:00 AM 0.73 33.314 0 6.33 4.91 13.89
12/28/2020 7:30:00 AM 0.76 33.368 0 6.32 4.77 13.87
12/28/2020 7:45:00 AM 0.73 33.314 0 6.28 4.77 13.88
12/28/2020 8:00:00 AM 0.78 33.404 0 6.28 4.86 13.87
12/28/2020 8:15:00 AM 0.73 33.314 0 6.31 4.74 13.89
12/28/2020 8:30:00 AM 0.83 33.494 0 6.31 4.77 13.84
12/28/2020 8:45:00 AM 0.88 33.584 0 6.32 4.87 13.83
12/28/2020 9:00:00 AM 1.01 33.818 0 6.35 4.82 13.76
12/28/2020 9:15:00 AM 0.95 33.71 0 6.33 4.82 13.81<